Time,TemperatureF,DewpointF,PressureIn,WindDirection,WindDirectionDegrees,WindSpeedMPH,WindSpeedGustMPH,Humidity,HourlyPrecipIn,Conditions,Clouds,dailyrainin,SoftwareType,DateUTC
2013-04-01 00:00:00,43.3,41.5,28.52,West,270,1.6,1.6,93,0.00,,---,0.12,VWS V14.01,2013-04-01 03:00:00,
2013-04-01 00:01:00,43.3,41.5,28.52,West,270,3.4,3.4,93,0.00,,---,0.12,VWS V14.01,2013-04-01 03:01:00,
2013-04-01 00:02:00,43.5,41.9,28.52,NW,315,3.4,3.4,94,0.00,,---,0.12,VWS V14.01,2013-04-01 03:02:00,
2013-04-01 00:03:00,43.5,41.9,28.52,West,270,3.4,3.4,94,0.00,,---,0.12,VWS V14.01,2013-04-01 03:03:00,
2013-04-01 00:04:00,43.5,41.9,28.52,NNW,338,1.6,3.4,94,0.00,,---,0.12,VWS V14.01,2013-04-01 03:04:00,
2013-04-01 00:05:00,43.5,41.9,28.52,SW,225,0.0,1.6,94,0.00,,---,0.12,VWS V14.01,2013-04-01 03:05:00,
2013-04-01 00:06:00,43.5,41.9,28.52,SSW,202,2.5,2.5,94,0.00,,---,0.12,VWS V14.01,2013-04-01 03:06:00,
2013-04-01 00:07:00,43.3,41.7,28.52,West,270,4.0,4.0,94,0.00,,---,0.12,VWS V14.01,2013-04-01 03:07:00,
2013-04-01 00:08:00,43.3,41.7,28.52,South,180,2.5,4.0,94,0.00,,---,0.12,VWS V14.01,2013-04-01 03:08:00,
2013-04-01 00:09:00,43.3,41.7,28.52,South,180,2.0,2.5,94,0.00,,---,0.12,VWS V14.01,2013-04-01 03:09:00,
2013-04-01 00:10:00,43.3,41.7,28.50,SW,225,1.3,2.0,94,0.00,,---,0.12,VWS V14.01,2013-04-01 03:10:00,
2013-04-01 00:11:00,43.3,41.7,28.50,SW,225,0.0,1.3,94,0.00,,---,0.12,VWS V14.01,2013-04-01 03:11:00,
2013-04-01 00:12:00,43.2,41.5,28.50,SE,135,0.0,0.0,94,0.00,,---,0.12,VWS V14.01,2013-04-01 03:12:00,
2013-04-01 00:13:00,43.0,41.4,28.50,SE,135,2.5,2.5,94,0.00,,---,0.12,VWS V14.01,2013-04-01 03:13:00,
2013-04-01 00:14:00,43.0,41.4,28.50,SE,135,1.3,2.5,94,0.00,,---,0.12,VWS V14.01,2013-04-01 03:14:00,
2013-04-01 00:15:00,42.6,41.0,28.50,SE,135,0.0,1.3,94,0.00,,---,0.12,VWS V14.01,2013-04-01 03:15:00,
2013-04-01 00:16:00,42.4,40.8,28.50,SE,135,1.3,1.3,94,0.00,,---,0.12,VWS V14.01,2013-04-01 03:16:00,
2013-04-01 00:17:00,42.4,40.6,28.50,NE,45,1.1,1.3,93,0.00,,---,0.12,VWS V14.01,2013-04-01 03:17:00,
2013-04-01 00:18:00,42.4,40.6,28.50,NW,315,1.3,1.3,93,0.00,,---,0.12,VWS V14.01,2013-04-01 03:18:00,
2013-04-01 00:19:00,42.4,40.6,28.50,North,0,1.6,1.6,93,0.00,,---,0.12,VWS V14.01,2013-04-01 03:19:00,
2013-04-01 00:20:00,42.4,40.8,28.50,SE,135,1.1,1.6,94,0.00,,---,0.12,VWS V14.01,2013-04-01 03:20:00,
2013-04-01 00:21:00,42.4,40.8,28.50,ENE,68,2.2,2.2,94,0.00,,---,0.12,VWS V14.01,2013-04-01 03:21:00,
2013-04-01 00:22:00,42.4,40.8,28.50,SW,225,3.1,3.1,94,0.00,,---,0.12,VWS V14.01,2013-04-01 03:22:00,
2013-04-01 00:23:00,42.4,40.8,28.50,West,270,0.0,3.1,94,0.00,,---,0.12,VWS V14.01,2013-04-01 03:23:00,
2013-04-01 00:24:00,42.3,40.7,28.50,ESE,112,2.2,2.2,94,0.00,,---,0.12,VWS V14.01,2013-04-01 03:24:00,
2013-04-01 00:25:00,42.3,40.7,28.50,SE,135,2.7,2.7,94,0.00,,---,0.12,VWS V14.01,2013-04-01 03:25:00,
2013-04-01 00:26:00,42.1,40.2,28.50,West,270,0.0,2.7,93,0.00,,---,0.12,VWS V14.01,2013-04-01 03:26:00,
2013-04-01 00:27:00,41.9,40.0,28.50,SE,135,2.7,2.7,93,0.00,,---,0.12,VWS V14.01,2013-04-01 03:27:00,
2013-04-01 00:28:00,41.7,39.8,28.50,SE,135,2.0,2.7,93,0.00,,---,0.12,VWS V14.01,2013-04-01 03:28:00,
2013-04-01 00:29:00,41.5,39.7,28.50,SE,135,2.2,2.2,93,0.00,,---,0.12,VWS V14.01,2013-04-01 03:29:00,
2013-04-01 00:30:00,41.5,39.7,28.50,SE,135,2.5,2.5,93,0.00,,---,0.12,VWS V14.01,2013-04-01 03:30:00,
2013-04-01 00:31:00,41.4,39.5,28.50,SE,135,2.2,2.5,93,0.00,,---,0.12,VWS V14.01,2013-04-01 03:31:00,
2013-04-01 00:32:00,41.4,39.5,28.50,ESE,112,2.2,2.2,93,0.00,,---,0.12,VWS V14.01,2013-04-01 03:32:00,
2013-04-01 00:33:00,41.2,39.3,28.50,ESE,112,0.9,2.2,93,0.00,,---,0.12,VWS V14.01,2013-04-01 03:33:00,
2013-04-01 00:34:00,41.2,39.3,28.50,North,0,2.7,2.7,93,0.00,,---,0.12,VWS V14.01,2013-04-01 03:34:00,
2013-04-01 00:35:00,41.4,39.5,28.50,SE,135,1.3,2.7,93,0.00,,---,0.12,VWS V14.01,2013-04-01 03:35:00,
2013-04-01 00:36:00,41.4,39.8,28.50,SE,135,2.2,2.2,94,0.00,,---,0.12,VWS V14.01,2013-04-01 03:36:00,
2013-04-01 00:37:00,41.2,39.6,28.50,ESE,112,1.6,2.2,94,0.00,,---,0.12,VWS V14.01,2013-04-01 03:37:00,
2013-04-01 00:38:00,41.2,39.3,28.50,ESE,112,1.1,1.6,93,0.00,,---,0.12,VWS V14.01,2013-04-01 03:38:00,
2013-04-01 00:39:00,41.0,39.1,28.50,ESE,112,3.1,3.1,93,0.00,,---,0.12,VWS V14.01,2013-04-01 03:39:00,
2013-04-01 00:40:00,41.0,39.4,28.50,ESE,112,1.3,3.1,94,0.00,,---,0.12,VWS V14.01,2013-04-01 03:40:00,
2013-04-01 00:41:00,41.0,39.4,28.50,ESE,112,1.3,1.3,94,0.00,,---,0.12,VWS V14.01,2013-04-01 03:41:00,
2013-04-01 00:42:00,40.8,39.2,28.50,ESE,112,0.0,1.3,94,0.00,,---,0.12,VWS V14.01,2013-04-01 03:42:00,
2013-04-01 00:43:00,40.8,39.2,28.50,SE,135,2.0,2.0,94,0.00,,---,0.12,VWS V14.01,2013-04-01 03:43:00,
2013-04-01 00:44:00,40.8,39.2,28.50,SE,135,2.9,2.9,94,0.00,,---,0.12,VWS V14.01,2013-04-01 03:44:00,
2013-04-01 00:45:00,40.6,39.0,28.50,SE,135,2.9,2.9,94,0.00,,---,0.12,VWS V14.01,2013-04-01 03:45:00,
2013-04-01 00:46:00,40.6,39.0,28.50,East,90,2.2,2.9,94,0.00,,---,0.12,VWS V14.01,2013-04-01 03:46:00,
2013-04-01 00:47:00,40.6,39.0,28.50,East,90,0.0,2.2,94,0.00,,---,0.12,VWS V14.01,2013-04-01 03:47:00,
2013-04-01 00:48:00,40.5,38.9,28.50,West,270,0.0,0.0,94,0.00,,---,0.12,VWS V14.01,2013-04-01 03:48:00,
2013-04-01 00:49:00,40.6,39.0,28.50,NW,315,1.3,1.3,94,0.00,,---,0.12,VWS V14.01,2013-04-01 03:49:00,
2013-04-01 00:50:00,40.6,39.0,28.50,East,90,0.0,1.3,94,0.00,,---,0.12,VWS V14.01,2013-04-01 03:50:00,
2013-04-01 00:51:00,40.6,39.0,28.50,East,90,1.1,1.1,94,0.00,,---,0.12,VWS V14.01,2013-04-01 03:51:00,
2013-04-01 00:52:00,40.6,39.3,28.50,SE,135,1.3,1.3,95,0.00,,---,0.12,VWS V14.01,2013-04-01 03:52:00,
2013-04-01 00:53:00,40.5,39.1,28.50,ESE,112,2.5,2.5,95,0.00,,---,0.12,VWS V14.01,2013-04-01 03:53:00,
2013-04-01 00:54:00,40.5,39.1,28.50,ESE,112,2.9,2.9,95,0.00,,---,0.12,VWS V14.01,2013-04-01 03:54:00,
2013-04-01 00:55:00,40.6,39.3,28.50,East,90,1.3,2.9,95,0.00,,---,0.12,VWS V14.01,2013-04-01 03:55:00,
2013-04-01 00:56:00,40.6,39.3,28.50,East,90,2.2,2.2,95,0.00,,---,0.12,VWS V14.01,2013-04-01 03:56:00,
2013-04-01 00:57:00,40.6,39.3,28.50,NE,45,1.3,2.2,95,0.00,,---,0.12,VWS V14.01,2013-04-01 03:57:00,
2013-04-01 00:58:00,40.6,39.3,28.50,North,0,2.2,2.2,95,0.00,,---,0.12,VWS V14.01,2013-04-01 03:58:00,
2013-04-01 00:59:00,40.6,39.3,28.50,South,180,2.9,2.9,95,0.00,,---,0.12,VWS V14.01,2013-04-01 03:59:00,
2013-04-01 01:00:00,40.8,39.8,28.50,SE,135,2.7,2.9,96,0.00,,---,0.00,VWS V14.01,2013-04-01 04:00:00,
2013-04-01 01:01:00,40.6,39.6,28.50,SE,135,1.6,2.7,96,0.00,,---,0.00,VWS V14.01,2013-04-01 04:01:00,
2013-04-01 01:02:00,40.6,39.6,28.50,NNE,22,1.3,1.6,96,0.00,,---,0.00,VWS V14.01,2013-04-01 04:02:00,
2013-04-01 01:03:00,40.6,39.3,28.50,East,90,2.7,2.7,95,0.00,,---,0.00,VWS V14.01,2013-04-01 04:03:00,
2013-04-01 01:04:00,40.6,39.6,28.50,East,90,2.5,2.7,96,0.00,,---,0.00,VWS V14.01,2013-04-01 04:04:00,
2013-04-01 01:05:00,40.5,39.4,28.50,East,90,0.0,2.5,96,0.00,,---,0.00,VWS V14.01,2013-04-01 04:05:00,
2013-04-01 01:06:00,40.5,39.4,28.50,East,90,2.0,2.0,96,0.00,,---,0.00,VWS V14.01,2013-04-01 04:06:00,
2013-04-01 01:07:00,40.3,39.2,28.50,East,90,2.0,2.0,96,0.00,,---,0.00,VWS V14.01,2013-04-01 04:07:00,
2013-04-01 01:08:00,40.1,39.0,28.50,East,90,1.1,2.0,96,0.00,,---,0.00,VWS V14.01,2013-04-01 04:08:00,
2013-04-01 01:09:00,40.1,39.0,28.50,East,90,0.0,1.1,96,0.00,,---,0.00,VWS V14.01,2013-04-01 04:09:00,
2013-04-01 01:10:00,40.3,39.2,28.50,NE,45,2.0,2.0,96,0.00,,---,0.00,VWS V14.01,2013-04-01 04:10:00,
2013-04-01 01:11:00,40.3,39.2,28.50,SE,135,2.9,2.9,96,0.00,,---,0.00,VWS V14.01,2013-04-01 04:11:00,
2013-04-01 01:12:00,40.3,39.2,28.50,East,90,3.6,3.6,96,0.00,,---,0.00,VWS V14.01,2013-04-01 04:12:00,
2013-04-01 01:13:00,40.3,39.2,28.50,East,90,0.0,3.6,96,0.00,,---,0.00,VWS V14.01,2013-04-01 04:13:00,
2013-04-01 01:15:00,40.3,39.2,28.50,NE,45,3.4,3.4,96,0.00,,---,0.00,VWS V14.01,2013-04-01 04:15:00,
2013-04-01 01:16:00,40.3,39.2,28.50,SE,135,2.7,3.4,96,0.00,,---,0.00,VWS V14.01,2013-04-01 04:16:00,
2013-04-01 01:18:00,40.3,39.2,28.50,SE,135,0.9,2.7,96,0.00,,---,0.00,VWS V14.01,2013-04-01 04:18:00,
2013-04-01 01:19:00,40.1,39.0,28.50,WNW,292,0.0,0.9,96,0.00,,---,0.00,VWS V14.01,2013-04-01 04:19:00,
2013-04-01 01:20:00,40.1,39.0,28.50,NE,45,2.0,2.0,96,0.00,,---,0.00,VWS V14.01,2013-04-01 04:20:00,
2013-04-01 01:21:00,40.1,39.0,28.50,NE,45,0.0,2.0,96,0.00,,---,0.00,VWS V14.01,2013-04-01 04:21:00,
2013-04-01 01:22:00,40.1,39.0,28.50,SE,135,2.7,2.7,96,0.00,,---,0.00,VWS V14.01,2013-04-01 04:22:00,
2013-04-01 01:23:00,39.9,38.9,28.50,SE,135,1.6,2.7,96,0.00,,---,0.00,VWS V14.01,2013-04-01 04:23:00,
2013-04-01 01:24:00,39.9,38.9,28.50,SE,135,0.0,1.6,96,0.00,,---,0.00,VWS V14.01,2013-04-01 04:24:00,
2013-04-01 01:25:00,40.1,39.0,28.50,North,0,2.9,2.9,96,0.00,,---,0.00,VWS V14.01,2013-04-01 04:25:00,
2013-04-01 01:26:00,40.5,39.4,28.50,NW,315,2.0,2.9,96,0.00,,---,0.00,VWS V14.01,2013-04-01 04:26:00,
2013-04-01 01:27:00,40.6,39.6,28.50,NW,315,2.7,2.7,96,0.00,,---,0.00,VWS V14.01,2013-04-01 04:27:00,
2013-04-01 01:28:00,40.8,40.0,28.50,SW,225,4.0,4.0,97,0.00,,---,0.00,VWS V14.01,2013-04-01 04:28:00,
2013-04-01 01:29:00,41.0,40.2,28.50,NW,315,5.6,5.6,97,0.00,,---,0.00,VWS V14.01,2013-04-01 04:29:00,
2013-04-01 01:30:00,41.5,40.8,28.50,SW,225,3.1,5.6,97,0.00,,---,0.00,VWS V14.01,2013-04-01 04:30:00,
2013-04-01 01:31:00,41.7,41.2,28.50,West,270,2.5,3.1,98,0.00,,---,0.00,VWS V14.01,2013-04-01 04:31:00,
2013-04-01 01:32:00,41.7,41.2,28.50,West,270,5.4,5.4,98,0.00,,---,0.00,VWS V14.01,2013-04-01 04:32:00,
2013-04-01 01:33:00,41.9,41.4,28.50,SW,225,3.4,5.4,98,0.00,,---,0.00,VWS V14.01,2013-04-01 04:33:00,
2013-04-01 01:34:00,42.1,41.6,28.50,West,270,2.0,3.4,98,0.00,,---,0.00,VWS V14.01,2013-04-01 04:34:00,
2013-04-01 01:35:00,42.1,41.6,28.50,West,270,3.1,3.1,98,0.00,,---,0.00,VWS V14.01,2013-04-01 04:35:00,
2013-04-01 01:36:00,42.3,41.7,28.50,SE,135,1.1,3.1,98,0.00,,---,0.00,VWS V14.01,2013-04-01 04:36:00,
2013-04-01 01:37:00,42.1,41.6,28.50,SW,225,1.3,1.3,98,0.00,,---,0.00,VWS V14.01,2013-04-01 04:37:00,
2013-04-01 01:38:00,42.3,41.7,28.50,SW,225,3.1,3.1,98,0.00,,---,0.00,VWS V14.01,2013-04-01 04:38:00,
2013-04-01 01:39:00,42.4,41.9,28.50,SW,225,2.9,3.1,98,0.00,,---,0.00,VWS V14.01,2013-04-01 04:39:00,
2013-04-01 01:40:00,42.3,41.7,28.50,NW,315,0.0,2.9,98,0.00,,---,0.00,VWS V14.01,2013-04-01 04:40:00,
2013-04-01 01:41:00,42.4,41.9,28.50,North,0,4.3,4.3,98,0.00,,---,0.00,VWS V14.01,2013-04-01 04:41:00,
2013-04-01 01:42:00,42.6,42.1,28.50,West,270,3.8,4.3,98,0.00,,---,0.00,VWS V14.01,2013-04-01 04:42:00,
2013-04-01 01:43:00,42.8,42.3,28.50,NNW,338,3.8,3.8,98,0.00,,---,0.00,VWS V14.01,2013-04-01 04:43:00,
2013-04-01 01:44:00,42.8,42.3,28.50,SW,225,4.9,4.9,98,0.00,,---,0.00,VWS V14.01,2013-04-01 04:44:00,
2013-04-01 01:45:00,43.0,42.5,28.50,West,270,2.9,4.9,98,0.00,,---,0.00,VWS V14.01,2013-04-01 04:45:00,
2013-04-01 01:46:00,43.2,42.6,28.50,WSW,248,2.0,2.9,98,0.00,,---,0.00,VWS V14.01,2013-04-01 04:46:00,
2013-04-01 01:47:00,43.2,42.4,28.50,West,270,5.8,5.8,97,0.00,,---,0.00,VWS V14.01,2013-04-01 04:47:00,
2013-04-01 01:48:00,43.3,42.5,28.50,SW,225,4.3,5.8,97,0.00,,---,0.00,VWS V14.01,2013-04-01 04:48:00,
2013-04-01 01:49:00,43.5,42.7,28.50,West,270,2.7,4.3,97,0.00,,---,0.00,VWS V14.01,2013-04-01 04:49:00,
2013-04-01 01:50:00,43.5,42.7,28.50,West,270,4.0,4.0,97,0.00,,---,0.00,VWS V14.01,2013-04-01 04:50:00,
2013-04-01 01:51:00,43.7,42.6,28.50,WSW,248,5.8,5.8,96,0.00,,---,0.00,VWS V14.01,2013-04-01 04:51:00,
2013-04-01 01:52:00,43.7,42.6,28.50,West,270,5.8,5.8,96,0.00,,---,0.00,VWS V14.01,2013-04-01 04:52:00,
2013-04-01 01:53:00,43.9,42.5,28.50,West,270,4.3,5.8,95,0.00,,---,0.00,VWS V14.01,2013-04-01 04:53:00,
2013-04-01 01:54:00,43.9,42.5,28.50,NW,315,2.0,4.3,95,0.00,,---,0.00,VWS V14.01,2013-04-01 04:54:00,
2013-04-01 01:55:00,43.9,42.3,28.50,NW,315,4.0,4.0,94,0.00,,---,0.00,VWS V14.01,2013-04-01 04:55:00,
2013-04-01 01:56:00,44.1,42.5,28.50,West,270,2.2,4.0,94,0.00,,---,0.00,VWS V14.01,2013-04-01 04:56:00,
2013-04-01 01:57:00,44.1,42.5,28.50,SW,225,0.0,2.2,94,0.00,,---,0.00,VWS V14.01,2013-04-01 04:57:00,
2013-04-01 01:58:00,44.1,42.5,28.50,SW,225,2.7,2.7,94,0.00,,---,0.00,VWS V14.01,2013-04-01 04:58:00,
2013-04-01 01:59:00,44.1,42.5,28.50,WSW,248,2.9,2.9,94,0.00,,---,0.00,VWS V14.01,2013-04-01 04:59:00,
2013-04-01 02:00:00,43.9,42.3,28.50,NW,315,0.0,2.9,94,0.00,,---,0.00,VWS V14.01,2013-04-01 05:00:00,
2013-04-01 02:01:00,44.1,42.2,28.50,West,270,6.3,6.3,93,0.00,,---,0.00,VWS V14.01,2013-04-01 05:01:00,
2013-04-01 02:02:00,44.1,42.2,28.50,WSW,248,3.1,6.3,93,0.00,,---,0.00,VWS V14.01,2013-04-01 05:02:00,
2013-04-01 02:03:00,44.1,42.2,28.50,NW,315,6.3,6.3,93,0.00,,---,0.00,VWS V14.01,2013-04-01 05:03:00,
2013-04-01 02:04:00,44.2,42.3,28.50,West,270,4.3,6.3,93,0.00,,---,0.00,VWS V14.01,2013-04-01 05:04:00,
2013-04-01 02:05:00,44.2,42.3,28.50,West,270,4.3,4.3,93,0.00,,---,0.00,VWS V14.01,2013-04-01 05:05:00,
2013-04-01 02:06:00,44.2,42.3,28.50,NW,315,4.0,4.3,93,0.00,,---,0.00,VWS V14.01,2013-04-01 05:06:00,
2013-04-01 02:07:00,44.4,42.5,28.50,NW,315,3.8,4.0,93,0.00,,---,0.00,VWS V14.01,2013-04-01 05:07:00,
2013-04-01 02:08:00,44.6,42.4,28.50,West,270,5.8,5.8,92,0.00,,---,0.00,VWS V14.01,2013-04-01 05:08:00,
2013-04-01 02:09:00,44.6,42.4,28.50,SW,225,3.4,5.8,92,0.00,,---,0.00,VWS V14.01,2013-04-01 05:09:00,
2013-04-01 02:10:00,44.4,42.2,28.50,WNW,292,1.3,3.4,92,0.00,,---,0.00,VWS V14.01,2013-04-01 05:10:00,
2013-04-01 02:11:00,44.4,42.2,28.50,SW,225,2.5,2.5,92,0.00,,---,0.00,VWS V14.01,2013-04-01 05:11:00,
2013-04-01 02:12:00,44.4,42.2,28.50,WNW,292,3.1,3.1,92,0.00,,---,0.00,VWS V14.01,2013-04-01 05:12:00,
2013-04-01 02:13:00,44.4,42.2,28.50,ESE,112,2.5,3.1,92,0.00,,---,0.00,VWS V14.01,2013-04-01 05:13:00,
2013-04-01 02:14:00,44.2,42.1,28.50,West,270,2.2,2.5,92,0.00,,---,0.00,VWS V14.01,2013-04-01 05:14:00,
2013-04-01 02:15:00,44.2,42.1,28.50,NW,315,4.3,4.3,92,0.00,,---,0.00,VWS V14.01,2013-04-01 05:15:00,
2013-04-01 02:16:00,44.4,42.0,28.50,West,270,4.3,4.3,91,0.00,,---,0.00,VWS V14.01,2013-04-01 05:16:00,
2013-04-01 02:17:00,44.4,42.0,28.50,South,180,1.3,4.3,91,0.00,,---,0.00,VWS V14.01,2013-04-01 05:17:00,
2013-04-01 02:18:00,44.2,41.8,28.50,East,90,2.7,2.7,91,0.00,,---,0.00,VWS V14.01,2013-04-01 05:18:00,
2013-04-01 02:19:00,44.4,41.7,28.50,South,180,3.8,3.8,90,0.00,,---,0.00,VWS V14.01,2013-04-01 05:19:00,
2013-04-01 02:20:00,44.4,41.7,28.50,South,180,2.5,3.8,90,0.00,,---,0.00,VWS V14.01,2013-04-01 05:20:00,
2013-04-01 02:21:00,44.4,41.7,28.50,West,270,1.1,2.5,90,0.00,,---,0.00,VWS V14.01,2013-04-01 05:21:00,
2013-04-01 02:22:00,44.4,41.7,28.50,East,90,3.4,3.4,90,0.00,,---,0.00,VWS V14.01,2013-04-01 05:22:00,
2013-04-01 02:23:00,44.4,41.7,28.50,West,270,3.1,3.4,90,0.00,,---,0.00,VWS V14.01,2013-04-01 05:23:00,
2013-04-01 02:24:00,44.6,41.6,28.50,SW,225,2.9,3.1,89,0.00,,---,0.00,VWS V14.01,2013-04-01 05:24:00,
2013-04-01 02:25:00,44.6,41.6,28.47,SW,225,1.3,2.9,89,0.00,,---,0.00,VWS V14.01,2013-04-01 05:25:00,
2013-04-01 02:26:00,44.6,41.6,28.47,ESE,112,1.3,1.3,89,0.00,,---,0.00,VWS V14.01,2013-04-01 05:26:00,
2013-04-01 02:27:00,44.6,41.6,28.47,WNW,292,9.2,9.2,89,0.00,,---,0.00,VWS V14.01,2013-04-01 05:27:00,
2013-04-01 02:28:00,44.6,41.3,28.47,West,270,3.8,9.2,88,0.00,,---,0.00,VWS V14.01,2013-04-01 05:28:00,
2013-04-01 02:29:00,44.8,41.5,28.47,SE,135,1.6,3.8,88,0.00,,---,0.00,VWS V14.01,2013-04-01 05:29:00,
2013-04-01 02:30:00,44.8,41.5,28.47,WNW,292,1.6,1.6,88,0.00,,---,0.00,VWS V14.01,2013-04-01 05:30:00,
2013-04-01 02:31:00,44.6,41.3,28.47,NE,45,0.9,1.6,88,0.00,,---,0.00,VWS V14.01,2013-04-01 05:31:00,
2013-04-01 02:32:00,44.6,41.3,28.47,NW,315,3.4,3.4,88,0.00,,---,0.00,VWS V14.01,2013-04-01 05:32:00,
2013-04-01 02:33:00,44.8,41.7,28.47,West,270,8.7,8.7,89,0.00,,---,0.00,VWS V14.01,2013-04-01 05:33:00,
2013-04-01 02:34:00,44.8,41.7,28.47,NNW,338,4.3,8.7,89,0.00,,---,0.00,VWS V14.01,2013-04-01 05:34:00,
2013-04-01 02:35:00,44.6,41.6,28.47,NW,315,4.3,4.3,89,0.00,,---,0.00,VWS V14.01,2013-04-01 05:35:00,
2013-04-01 02:37:00,44.6,41.6,28.47,NNW,338,2.0,4.3,89,0.00,,---,0.00,VWS V14.01,2013-04-01 05:37:00,
2013-04-01 02:38:00,44.6,41.6,28.47,North,0,2.5,2.5,89,0.00,,---,0.00,VWS V14.01,2013-04-01 05:38:00,
2013-04-01 02:40:00,44.4,41.7,28.47,South,180,1.3,2.5,90,0.00,,---,0.00,VWS V14.01,2013-04-01 05:40:00,
2013-04-01 02:41:00,44.2,41.5,28.47,SW,225,2.0,2.0,90,0.00,,---,0.00,VWS V14.01,2013-04-01 05:41:00,
2013-04-01 02:42:00,44.2,41.5,28.47,West,270,1.6,2.0,90,0.00,,---,0.00,VWS V14.01,2013-04-01 05:42:00,
2013-04-01 02:43:00,44.2,41.5,28.47,South,180,1.1,1.6,90,0.00,,---,0.00,VWS V14.01,2013-04-01 05:43:00,
2013-04-01 02:44:00,44.2,41.5,28.47,NW,315,4.3,4.3,90,0.00,,---,0.00,VWS V14.01,2013-04-01 05:44:00,
2013-04-01 02:45:00,44.4,41.7,28.47,West,270,2.9,4.3,90,0.00,,---,0.00,VWS V14.01,2013-04-01 05:45:00,
2013-04-01 02:46:00,44.4,41.7,28.47,SSE,158,2.0,2.9,90,0.00,,---,0.00,VWS V14.01,2013-04-01 05:46:00,
2013-04-01 02:47:00,44.4,41.7,28.47,NW,315,1.3,2.0,90,0.00,,---,0.00,VWS V14.01,2013-04-01 05:47:00,
2013-04-01 02:48:00,44.4,41.7,28.47,West,270,3.4,3.4,90,0.00,,---,0.00,VWS V14.01,2013-04-01 05:48:00,
2013-04-01 02:49:00,44.4,41.7,28.47,WNW,292,3.4,3.4,90,0.00,,---,0.00,VWS V14.01,2013-04-01 05:49:00,
2013-04-01 02:50:00,44.4,41.7,28.47,SW,225,1.3,3.4,90,0.00,,---,0.00,VWS V14.01,2013-04-01 05:50:00,
2013-04-01 02:51:00,44.4,41.7,28.47,NW,315,2.9,2.9,90,0.00,,---,0.00,VWS V14.01,2013-04-01 05:51:00,
2013-04-01 02:52:00,44.4,41.7,28.47,SW,225,2.7,2.9,90,0.00,,---,0.00,VWS V14.01,2013-04-01 05:52:00,
2013-04-01 02:53:00,44.4,41.7,28.47,NW,315,2.7,2.7,90,0.00,,---,0.00,VWS V14.01,2013-04-01 05:53:00,
2013-04-01 02:54:00,44.4,41.7,28.47,West,270,5.8,5.8,90,0.00,,---,0.00,VWS V14.01,2013-04-01 05:54:00,
2013-04-01 02:55:00,44.6,41.8,28.44,West,270,8.5,8.5,90,0.00,,---,0.00,VWS V14.01,2013-04-01 05:55:00,
2013-04-01 02:56:00,44.6,41.6,28.44,West,270,5.4,8.5,89,0.00,,---,0.00,VWS V14.01,2013-04-01 05:56:00,
2013-04-01 02:57:00,44.6,41.6,28.44,SW,225,4.0,5.4,89,0.00,,---,0.00,VWS V14.01,2013-04-01 05:57:00,
2013-04-01 02:58:00,44.8,41.7,28.44,WNW,292,4.0,4.0,89,0.00,,---,0.00,VWS V14.01,2013-04-01 05:58:00,
2013-04-01 02:59:00,44.8,41.7,28.44,West,270,4.9,4.9,89,0.00,,---,0.00,VWS V14.01,2013-04-01 05:59:00,
2013-04-01 03:00:00,44.6,41.6,28.44,NW,315,3.4,4.9,89,0.00,,---,0.00,VWS V14.01,2013-04-01 06:00:00,
2013-04-01 03:01:00,44.6,41.6,28.44,South,180,2.2,3.4,89,0.00,,---,0.00,VWS V14.01,2013-04-01 06:01:00,
2013-04-01 03:02:00,44.6,41.6,28.44,SW,225,1.3,2.2,89,0.00,,---,0.00,VWS V14.01,2013-04-01 06:02:00,
2013-04-01 03:03:00,44.6,41.6,28.44,NE,45,2.0,2.0,89,0.00,,---,0.00,VWS V14.01,2013-04-01 06:03:00,
2013-04-01 03:04:00,44.4,41.7,28.44,SW,225,3.6,3.6,90,0.00,,---,0.00,VWS V14.01,2013-04-01 06:04:00,
2013-04-01 03:05:00,44.4,41.7,28.44,West,270,2.7,3.6,90,0.00,,---,0.00,VWS V14.01,2013-04-01 06:05:00,
2013-04-01 03:06:00,44.6,41.6,28.44,SE,135,2.9,2.9,89,0.00,,---,0.00,VWS V14.01,2013-04-01 06:06:00,
2013-04-01 03:07:00,44.6,41.6,28.44,SE,135,5.4,5.4,89,0.00,,---,0.00,VWS V14.01,2013-04-01 06:07:00,
2013-04-01 03:08:00,44.6,41.6,28.44,SW,225,3.4,5.4,89,0.00,,---,0.00,VWS V14.01,2013-04-01 06:08:00,
2013-04-01 03:09:00,44.6,41.6,28.44,West,270,3.6,3.6,89,0.00,,---,0.00,VWS V14.01,2013-04-01 06:09:00,
2013-04-01 03:10:00,44.6,41.6,28.44,WNW,292,1.1,3.6,89,0.00,,---,0.00,VWS V14.01,2013-04-01 06:10:00,
2013-04-01 03:11:00,44.6,41.6,28.44,West,270,2.0,2.0,89,0.00,,---,0.00,VWS V14.01,2013-04-01 06:11:00,
2013-04-01 03:12:00,44.6,41.6,28.44,West,270,3.4,3.4,89,0.00,,---,0.00,VWS V14.01,2013-04-01 06:12:00,
2013-04-01 03:13:00,44.6,41.6,28.44,NW,315,9.6,9.6,89,0.00,,---,0.00,VWS V14.01,2013-04-01 06:13:00,
2013-04-01 03:14:00,44.6,41.6,28.44,SW,225,2.7,9.6,89,0.00,,---,0.00,VWS V14.01,2013-04-01 06:14:00,
2013-04-01 03:15:00,44.6,41.6,28.44,WNW,292,3.4,3.4,89,0.00,,---,0.00,VWS V14.01,2013-04-01 06:15:00,
2013-04-01 03:16:00,44.6,41.6,28.44,West,270,10.5,10.5,89,0.00,,---,0.00,VWS V14.01,2013-04-01 06:16:00,
2013-04-01 03:17:00,45.0,41.6,28.44,West,270,8.5,10.5,88,0.00,,---,0.00,VWS V14.01,2013-04-01 06:17:00,
2013-04-01 03:18:00,45.0,41.6,28.44,SW,225,3.8,8.5,88,0.00,,---,0.00,VWS V14.01,2013-04-01 06:18:00,
2013-04-01 03:19:00,45.0,41.3,28.44,WSW,248,8.5,8.5,87,0.00,,---,0.00,VWS V14.01,2013-04-01 06:19:00,
2013-04-01 03:20:00,45.0,41.3,28.44,West,270,7.2,8.5,87,0.00,,---,0.00,VWS V14.01,2013-04-01 06:20:00,
2013-04-01 03:21:00,45.0,41.3,28.44,NW,315,4.9,7.2,87,0.00,,---,0.00,VWS V14.01,2013-04-01 06:21:00,
2013-04-01 03:22:00,45.0,41.3,28.44,SW,225,9.8,9.8,87,0.00,,---,0.00,VWS V14.01,2013-04-01 06:22:00,
2013-04-01 03:24:00,45.1,41.5,28.44,West,270,5.8,9.8,87,0.00,,---,0.00,VWS V14.01,2013-04-01 06:24:00,
2013-04-01 03:25:00,45.1,41.5,28.44,SW,225,6.3,6.3,87,0.00,,---,0.00,VWS V14.01,2013-04-01 06:25:00,
2013-04-01 03:26:00,45.1,41.5,28.44,West,270,7.4,7.4,87,0.00,,---,0.00,VWS V14.01,2013-04-01 06:26:00,
2013-04-01 03:27:00,45.1,41.5,28.44,West,270,8.7,8.7,87,0.00,,---,0.00,VWS V14.01,2013-04-01 06:27:00,
2013-04-01 03:28:00,45.1,41.5,28.44,West,270,3.4,8.7,87,0.00,,---,0.00,VWS V14.01,2013-04-01 06:28:00,
2013-04-01 03:29:00,45.1,41.5,28.44,West,270,7.8,7.8,87,0.00,,---,0.00,VWS V14.01,2013-04-01 06:29:00,
2013-04-01 03:30:00,45.1,41.5,28.44,West,270,6.5,7.8,87,0.00,,---,0.00,VWS V14.01,2013-04-01 06:30:00,
2013-04-01 03:31:00,45.1,41.5,28.44,West,270,5.6,6.5,87,0.00,,---,0.00,VWS V14.01,2013-04-01 06:31:00,
2013-04-01 03:32:00,45.0,41.3,28.44,SW,225,3.8,5.6,87,0.00,,---,0.00,VWS V14.01,2013-04-01 06:32:00,
2013-04-01 03:33:00,45.0,41.3,28.44,SW,225,5.8,5.8,87,0.00,,---,0.00,VWS V14.01,2013-04-01 06:33:00,
2013-04-01 03:34:00,45.0,41.3,28.44,West,270,2.7,5.8,87,0.00,,---,0.00,VWS V14.01,2013-04-01 06:34:00,
2013-04-01 03:35:00,44.8,41.2,28.44,West,270,5.4,5.4,87,0.00,,---,0.00,VWS V14.01,2013-04-01 06:35:00,
2013-04-01 03:36:00,44.8,41.2,28.44,WSW,248,4.7,5.4,87,0.00,,---,0.00,VWS V14.01,2013-04-01 06:36:00,
2013-04-01 03:37:00,44.8,41.2,28.44,West,270,4.3,4.7,87,0.00,,---,0.00,VWS V14.01,2013-04-01 06:37:00,
2013-04-01 03:38:00,44.8,41.5,28.44,WNW,292,8.5,8.5,88,0.00,,---,0.00,VWS V14.01,2013-04-01 06:38:00,
2013-04-01 03:39:00,44.8,41.5,28.44,West,270,3.8,8.5,88,0.00,,---,0.00,VWS V14.01,2013-04-01 06:39:00,
2013-04-01 03:40:00,44.8,41.5,28.44,West,270,5.4,5.4,88,0.00,,---,0.00,VWS V14.01,2013-04-01 06:40:00,
2013-04-01 03:41:00,44.8,41.5,28.44,West,270,4.0,5.4,88,0.00,,---,0.00,VWS V14.01,2013-04-01 06:41:00,
2013-04-01 03:42:00,44.8,41.5,28.44,West,270,3.8,4.0,88,0.00,,---,0.00,VWS V14.01,2013-04-01 06:42:00,
2013-04-01 03:43:00,44.8,41.5,28.44,WNW,292,5.4,5.4,88,0.00,,---,0.00,VWS V14.01,2013-04-01 06:43:00,
2013-04-01 03:44:00,44.8,41.5,28.44,West,270,12.3,12.3,88,0.00,,---,0.00,VWS V14.01,2013-04-01 06:44:00,
2013-04-01 03:45:00,45.0,41.6,28.44,West,270,3.8,12.3,88,0.00,,---,0.00,VWS V14.01,2013-04-01 06:45:00,
2013-04-01 03:46:00,45.0,41.6,28.44,West,270,6.3,6.3,88,0.00,,---,0.00,VWS V14.01,2013-04-01 06:46:00,
2013-04-01 03:47:00,45.0,41.3,28.44,West,270,3.6,6.3,87,0.00,,---,0.00,VWS V14.01,2013-04-01 06:47:00,
2013-04-01 03:48:00,45.0,41.3,28.44,North,0,3.8,3.8,87,0.00,,---,0.00,VWS V14.01,2013-04-01 06:48:00,
2013-04-01 03:49:00,45.0,41.3,28.44,NW,315,4.9,4.9,87,0.00,,---,0.00,VWS V14.01,2013-04-01 06:49:00,
2013-04-01 03:50:00,45.0,41.3,28.44,West,270,4.3,4.9,87,0.00,,---,0.00,VWS V14.01,2013-04-01 06:50:00,
2013-04-01 03:51:00,45.0,41.3,28.44,West,270,5.4,5.4,87,0.00,,---,0.00,VWS V14.01,2013-04-01 06:51:00,
2013-04-01 03:52:00,45.0,41.3,28.44,West,270,5.4,5.4,87,0.00,,---,0.00,VWS V14.01,2013-04-01 06:52:00,
2013-04-01 03:53:00,45.0,41.3,28.44,NW,315,5.6,5.6,87,0.00,,---,0.00,VWS V14.01,2013-04-01 06:53:00,
2013-04-01 03:54:00,45.0,41.3,28.44,West,270,3.8,5.6,87,0.00,,---,0.00,VWS V14.01,2013-04-01 06:54:00,
2013-04-01 03:55:00,45.0,41.3,28.44,WSW,248,5.4,5.4,87,0.00,,---,0.00,VWS V14.01,2013-04-01 06:55:00,
2013-04-01 03:56:00,45.0,41.3,28.44,WSW,248,4.7,5.4,87,0.00,,---,0.00,VWS V14.01,2013-04-01 06:56:00,
2013-04-01 03:57:00,45.0,41.3,28.44,West,270,7.4,7.4,87,0.00,,---,0.00,VWS V14.01,2013-04-01 06:57:00,
2013-04-01 03:58:00,45.0,41.3,28.44,NNW,338,2.0,7.4,87,0.00,,---,0.00,VWS V14.01,2013-04-01 06:58:00,
2013-04-01 03:59:00,45.0,41.3,28.44,West,270,3.8,3.8,87,0.00,,---,0.00,VWS V14.01,2013-04-01 06:59:00,
2013-04-01 04:00:00,45.0,41.3,28.44,WSW,248,2.7,3.8,87,0.00,,---,0.00,VWS V14.01,2013-04-01 07:00:00,
2013-04-01 04:01:00,45.0,41.3,28.44,West,270,2.5,2.7,87,0.00,,---,0.00,VWS V14.01,2013-04-01 07:01:00,
2013-04-01 04:02:00,44.8,41.2,28.44,SW,225,2.9,2.9,87,0.00,,---,0.00,VWS V14.01,2013-04-01 07:02:00,
2013-04-01 04:03:00,44.8,41.2,28.44,SW,225,2.0,2.9,87,0.00,,---,0.00,VWS V14.01,2013-04-01 07:03:00,
2013-04-01 04:04:00,44.8,41.2,28.44,SW,225,2.5,2.5,87,0.00,,---,0.00,VWS V14.01,2013-04-01 07:04:00,
2013-04-01 04:05:00,44.8,41.5,28.44,West,270,4.0,4.0,88,0.00,,---,0.00,VWS V14.01,2013-04-01 07:05:00,
2013-04-01 04:06:00,44.8,41.5,28.44,West,270,2.0,4.0,88,0.00,,---,0.00,VWS V14.01,2013-04-01 07:06:00,
2013-04-01 04:07:00,44.8,41.5,28.44,WNW,292,1.6,2.0,88,0.00,,---,0.00,VWS V14.01,2013-04-01 07:07:00,
2013-04-01 04:08:00,44.8,41.5,28.44,West,270,3.1,3.1,88,0.00,,---,0.00,VWS V14.01,2013-04-01 07:08:00,
2013-04-01 04:09:00,44.8,41.5,28.44,West,270,1.6,3.1,88,0.00,,---,0.00,VWS V14.01,2013-04-01 07:09:00,
2013-04-01 04:10:00,44.8,41.5,28.44,West,270,2.9,2.9,88,0.00,,---,0.00,VWS V14.01,2013-04-01 07:10:00,
2013-04-01 04:11:00,44.6,41.3,28.44,SW,225,1.3,2.9,88,0.00,,---,0.00,VWS V14.01,2013-04-01 07:11:00,
2013-04-01 04:12:00,44.6,41.3,28.44,WSW,248,2.7,2.7,88,0.00,,---,0.00,VWS V14.01,2013-04-01 07:12:00,
2013-04-01 04:13:00,44.6,41.3,28.44,SW,225,3.1,3.1,88,0.00,,---,0.00,VWS V14.01,2013-04-01 07:13:00,
2013-04-01 04:14:00,44.6,41.3,28.44,WSW,248,4.0,4.0,88,0.00,,---,0.00,VWS V14.01,2013-04-01 07:14:00,
2013-04-01 04:15:00,44.6,41.6,28.44,NW,315,1.6,4.0,89,0.00,,---,0.00,VWS V14.01,2013-04-01 07:15:00,
2013-04-01 04:16:00,44.6,41.6,28.44,West,270,2.5,2.5,89,0.00,,---,0.00,VWS V14.01,2013-04-01 07:16:00,
2013-04-01 04:17:00,44.6,41.6,28.44,West,270,4.3,4.3,89,0.00,,---,0.00,VWS V14.01,2013-04-01 07:17:00,
2013-04-01 04:18:00,44.6,41.6,28.44,NW,315,2.5,4.3,89,0.00,,---,0.00,VWS V14.01,2013-04-01 07:18:00,
2013-04-01 04:19:00,44.6,41.6,28.44,West,270,3.4,3.4,89,0.00,,---,0.00,VWS V14.01,2013-04-01 07:19:00,
2013-04-01 04:20:00,44.6,41.6,28.44,SW,225,2.0,3.4,89,0.00,,---,0.00,VWS V14.01,2013-04-01 07:20:00,
2013-04-01 04:21:00,44.6,41.3,28.44,West,270,2.0,2.0,88,0.00,,---,0.00,VWS V14.01,2013-04-01 07:21:00,
2013-04-01 04:22:00,44.8,41.5,28.44,NW,315,3.8,3.8,88,0.00,,---,0.00,VWS V14.01,2013-04-01 07:22:00,
2013-04-01 04:23:00,44.8,41.5,28.44,WSW,248,3.1,3.8,88,0.00,,---,0.00,VWS V14.01,2013-04-01 07:23:00,
2013-04-01 04:24:00,44.8,41.5,28.44,SW,225,1.6,3.1,88,0.00,,---,0.00,VWS V14.01,2013-04-01 07:24:00,
2013-04-01 04:25:00,44.8,41.7,28.44,West,270,4.3,4.3,89,0.00,,---,0.00,VWS V14.01,2013-04-01 07:25:00,
2013-04-01 04:26:00,44.8,41.7,28.44,West,270,2.9,4.3,89,0.00,,---,0.00,VWS V14.01,2013-04-01 07:26:00,
2013-04-01 04:27:00,44.8,41.7,28.44,WNW,292,4.5,4.5,89,0.00,,---,0.00,VWS V14.01,2013-04-01 07:27:00,
2013-04-01 04:28:00,44.8,41.7,28.44,South,180,4.3,4.5,89,0.00,,---,0.00,VWS V14.01,2013-04-01 07:28:00,
2013-04-01 04:29:00,44.8,41.7,28.44,NW,315,1.6,4.3,89,0.00,,---,0.00,VWS V14.01,2013-04-01 07:29:00,
2013-04-01 04:30:00,44.8,41.5,28.44,West,270,4.5,4.5,88,0.00,,---,0.00,VWS V14.01,2013-04-01 07:30:00,
2013-04-01 04:31:00,44.8,41.5,28.44,West,270,3.4,4.5,88,0.00,,---,0.00,VWS V14.01,2013-04-01 07:31:00,
2013-04-01 04:32:00,44.8,41.5,28.44,WNW,292,4.3,4.3,88,0.00,,---,0.00,VWS V14.01,2013-04-01 07:32:00,
2013-04-01 04:33:00,44.8,41.5,28.44,SW,225,1.3,4.3,88,0.00,,---,0.00,VWS V14.01,2013-04-01 07:33:00,
2013-04-01 04:34:00,44.8,41.5,28.44,West,270,6.0,6.0,88,0.00,,---,0.00,VWS V14.01,2013-04-01 07:34:00,
2013-04-01 04:35:00,44.8,41.5,28.44,WNW,292,5.4,6.0,88,0.00,,---,0.00,VWS V14.01,2013-04-01 07:35:00,
2013-04-01 04:36:00,44.8,41.5,28.44,West,270,3.6,5.4,88,0.00,,---,0.00,VWS V14.01,2013-04-01 07:36:00,
2013-04-01 04:37:00,44.8,41.5,28.44,NNE,22,2.0,3.6,88,0.00,,---,0.00,VWS V14.01,2013-04-01 07:37:00,
2013-04-01 04:38:00,44.8,41.5,28.44,West,270,10.7,10.7,88,0.00,,---,0.00,VWS V14.01,2013-04-01 07:38:00,
2013-04-01 04:39:00,44.8,41.5,28.44,West,270,13.0,13.0,88,0.00,,---,0.00,VWS V14.01,2013-04-01 07:39:00,
2013-04-01 04:40:00,45.1,41.5,28.44,West,270,6.0,13.0,87,0.00,,---,0.00,VWS V14.01,2013-04-01 07:40:00,
2013-04-01 04:41:00,45.1,41.5,28.44,West,270,5.8,6.0,87,0.00,,---,0.00,VWS V14.01,2013-04-01 07:41:00,
2013-04-01 04:42:00,45.1,41.5,28.44,West,270,6.0,6.0,87,0.00,,---,0.00,VWS V14.01,2013-04-01 07:42:00,
2013-04-01 04:43:00,45.1,41.5,28.44,NW,315,8.5,8.5,87,0.00,,---,0.00,VWS V14.01,2013-04-01 07:43:00,
2013-04-01 04:44:00,45.1,41.5,28.44,SW,225,2.9,8.5,87,0.00,,---,0.00,VWS V14.01,2013-04-01 07:44:00,
2013-04-01 04:45:00,45.0,41.3,28.44,West,270,8.5,8.5,87,0.00,,---,0.00,VWS V14.01,2013-04-01 07:45:00,
2013-04-01 04:46:00,45.1,41.5,28.44,NW,315,4.0,8.5,87,0.00,,---,0.00,VWS V14.01,2013-04-01 07:46:00,
2013-04-01 04:47:00,45.0,41.3,28.44,South,180,4.0,4.0,87,0.00,,---,0.00,VWS V14.01,2013-04-01 07:47:00,
2013-04-01 04:48:00,45.0,41.3,28.44,West,270,7.2,7.2,87,0.00,,---,0.00,VWS V14.01,2013-04-01 07:48:00,
2013-04-01 04:49:00,45.1,41.2,28.44,West,270,6.5,7.2,86,0.00,,---,0.00,VWS V14.01,2013-04-01 07:49:00,
2013-04-01 04:50:00,45.1,41.2,28.44,West,270,7.6,7.6,86,0.00,,---,0.00,VWS V14.01,2013-04-01 07:50:00,
2013-04-01 04:51:00,45.1,41.2,28.44,SW,225,7.2,7.6,86,0.00,,---,0.00,VWS V14.01,2013-04-01 07:51:00,
2013-04-01 04:52:00,45.1,41.2,28.44,West,270,8.7,8.7,86,0.00,,---,0.00,VWS V14.01,2013-04-01 07:52:00,
2013-04-01 04:53:00,45.1,41.2,28.44,West,270,11.0,11.0,86,0.00,,---,0.00,VWS V14.01,2013-04-01 07:53:00,
2013-04-01 04:54:00,45.1,41.2,28.44,West,270,7.4,11.0,86,0.00,,---,0.00,VWS V14.01,2013-04-01 07:54:00,
2013-04-01 04:55:00,45.1,41.2,28.44,NW,315,6.3,7.4,86,0.00,,---,0.00,VWS V14.01,2013-04-01 07:55:00,
2013-04-01 04:56:00,45.1,41.2,28.44,WSW,248,8.7,8.7,86,0.00,,---,0.00,VWS V14.01,2013-04-01 07:56:00,
2013-04-01 04:57:00,45.1,41.2,28.44,West,270,3.8,8.7,86,0.00,,---,0.00,VWS V14.01,2013-04-01 07:57:00,
2013-04-01 04:58:00,45.1,41.2,28.44,WSW,248,8.7,8.7,86,0.00,,---,0.00,VWS V14.01,2013-04-01 07:58:00,
2013-04-01 04:59:00,45.1,41.2,28.44,NW,315,6.0,8.7,86,0.00,,---,0.00,VWS V14.01,2013-04-01 07:59:00,
2013-04-01 05:00:00,45.1,41.2,28.44,West,270,6.5,6.5,86,0.00,,---,0.00,VWS V14.01,2013-04-01 08:00:00,
2013-04-01 05:01:00,45.1,41.2,28.44,WSW,248,6.5,6.5,86,0.00,,---,0.00,VWS V14.01,2013-04-01 08:01:00,
2013-04-01 05:02:00,45.1,41.2,28.44,West,270,3.4,6.5,86,0.00,,---,0.00,VWS V14.01,2013-04-01 08:02:00,
2013-04-01 05:03:00,45.1,41.2,28.44,West,270,4.5,4.5,86,0.00,,---,0.00,VWS V14.01,2013-04-01 08:03:00,
2013-04-01 05:04:00,45.1,41.2,28.44,West,270,7.6,7.6,86,0.00,,---,0.00,VWS V14.01,2013-04-01 08:04:00,
2013-04-01 05:05:00,45.1,41.2,28.44,West,270,9.8,9.8,86,0.00,,---,0.00,VWS V14.01,2013-04-01 08:05:00,
2013-04-01 05:06:00,45.1,40.9,28.44,West,270,6.7,9.8,85,0.00,,---,0.00,VWS V14.01,2013-04-01 08:06:00,
2013-04-01 05:07:00,45.1,40.9,28.44,WNW,292,5.8,6.7,85,0.00,,---,0.00,VWS V14.01,2013-04-01 08:07:00,
2013-04-01 05:08:00,45.1,40.9,28.44,SW,225,8.7,8.7,85,0.00,,---,0.00,VWS V14.01,2013-04-01 08:08:00,
2013-04-01 05:09:00,45.1,40.9,28.44,West,270,9.8,9.8,85,0.00,,---,0.00,VWS V14.01,2013-04-01 08:09:00,
2013-04-01 05:10:00,45.1,40.9,28.44,West,270,8.1,9.8,85,0.00,,---,0.00,VWS V14.01,2013-04-01 08:10:00,
2013-04-01 05:11:00,45.1,40.9,28.44,West,270,7.2,8.1,85,0.00,,---,0.00,VWS V14.01,2013-04-01 08:11:00,
2013-04-01 05:12:00,45.1,40.9,28.44,SW,225,3.8,7.2,85,0.00,,---,0.00,VWS V14.01,2013-04-01 08:12:00,
2013-04-01 05:13:00,45.1,40.9,28.44,NW,315,5.8,5.8,85,0.00,,---,0.00,VWS V14.01,2013-04-01 08:13:00,
2013-04-01 05:14:00,45.1,40.9,28.44,WSW,248,4.9,5.8,85,0.00,,---,0.00,VWS V14.01,2013-04-01 08:14:00,
2013-04-01 05:15:00,45.1,40.9,28.44,NW,315,3.8,4.9,85,0.00,,---,0.00,VWS V14.01,2013-04-01 08:15:00,
2013-04-01 05:16:00,45.1,40.9,28.44,WSW,248,3.1,3.8,85,0.00,,---,0.00,VWS V14.01,2013-04-01 08:16:00,
2013-04-01 05:17:00,45.1,40.9,28.44,NW,315,2.9,3.1,85,0.00,,---,0.00,VWS V14.01,2013-04-01 08:17:00,
2013-04-01 05:18:00,45.1,40.9,28.44,West,270,4.7,4.7,85,0.00,,---,0.00,VWS V14.01,2013-04-01 08:18:00,
2013-04-01 05:19:00,45.1,40.9,28.44,West,270,4.3,4.7,85,0.00,,---,0.00,VWS V14.01,2013-04-01 08:19:00,
2013-04-01 05:20:00,45.0,40.7,28.44,WSW,248,3.8,4.3,85,0.00,,---,0.00,VWS V14.01,2013-04-01 08:20:00,
2013-04-01 05:21:00,45.0,40.7,28.44,West,270,5.8,5.8,85,0.00,,---,0.00,VWS V14.01,2013-04-01 08:21:00,
2013-04-01 05:22:00,45.0,40.7,28.44,SW,225,3.4,5.8,85,0.00,,---,0.00,VWS V14.01,2013-04-01 08:22:00,
2013-04-01 05:23:00,45.0,40.7,28.44,East,90,3.4,3.4,85,0.00,,---,0.00,VWS V14.01,2013-04-01 08:23:00,
2013-04-01 05:24:00,45.0,40.7,28.44,SW,225,5.4,5.4,85,0.00,,---,0.00,VWS V14.01,2013-04-01 08:24:00,
2013-04-01 05:25:00,44.8,40.5,28.44,West,270,3.6,5.4,85,0.00,,---,0.00,VWS V14.01,2013-04-01 08:25:00,
2013-04-01 05:26:00,44.8,40.5,28.44,West,270,9.0,9.0,85,0.00,,---,0.00,VWS V14.01,2013-04-01 08:26:00,
2013-04-01 05:27:00,44.8,40.2,28.44,West,270,5.4,9.0,84,0.00,,---,0.00,VWS V14.01,2013-04-01 08:27:00,
2013-04-01 05:28:00,45.0,40.4,28.44,West,270,6.5,6.5,84,0.00,,---,0.00,VWS V14.01,2013-04-01 08:28:00,
2013-04-01 05:29:00,45.0,40.4,28.44,West,270,6.3,6.5,84,0.00,,---,0.00,VWS V14.01,2013-04-01 08:29:00,
2013-04-01 05:30:00,45.0,40.4,28.44,West,270,22.2,22.2,84,0.00,,---,0.00,VWS V14.01,2013-04-01 08:30:00,
2013-04-01 05:31:00,45.1,40.3,28.44,WSW,248,6.5,22.2,83,0.00,,---,0.00,VWS V14.01,2013-04-01 08:31:00,
2013-04-01 05:32:00,45.1,40.0,28.44,West,270,10.7,10.7,82,0.00,,---,0.00,VWS V14.01,2013-04-01 08:32:00,
2013-04-01 05:33:00,45.1,40.3,28.44,NW,315,7.8,10.7,83,0.00,,---,0.00,VWS V14.01,2013-04-01 08:33:00,
2013-04-01 05:34:00,45.1,40.3,28.44,NW,315,7.6,7.8,83,0.00,,---,0.00,VWS V14.01,2013-04-01 08:34:00,
2013-04-01 05:35:00,45.0,40.1,28.44,NNW,338,7.8,7.8,83,0.00,,---,0.00,VWS V14.01,2013-04-01 08:35:00,
2013-04-01 05:37:00,44.6,39.1,28.44,NW,315,4.9,7.8,81,0.00,,---,0.00,VWS V14.01,2013-04-01 08:37:00,
2013-04-01 05:38:00,44.4,39.0,28.44,West,270,5.8,5.8,81,0.00,,---,0.00,VWS V14.01,2013-04-01 08:38:00,
2013-04-01 05:39:00,44.2,38.8,28.44,West,270,5.6,5.8,81,0.00,,---,0.00,VWS V14.01,2013-04-01 08:39:00,
2013-04-01 05:40:00,44.1,38.6,28.44,NW,315,3.8,5.6,81,0.00,,---,0.00,VWS V14.01,2013-04-01 08:40:00,
2013-04-01 05:41:00,43.9,38.4,28.44,NW,315,6.5,6.5,81,0.00,,---,0.00,VWS V14.01,2013-04-01 08:41:00,
2013-04-01 05:42:00,43.7,38.6,28.44,NW,315,2.9,6.5,82,0.00,,---,0.00,VWS V14.01,2013-04-01 08:42:00,
2013-04-01 05:43:00,43.7,38.6,28.44,North,0,5.8,5.8,82,0.00,,---,0.00,VWS V14.01,2013-04-01 08:43:00,
2013-04-01 05:44:00,43.7,38.6,28.44,North,0,4.9,5.8,82,0.00,,---,0.00,VWS V14.01,2013-04-01 08:44:00,
2013-04-01 05:45:00,43.5,38.4,28.44,NW,315,4.0,4.9,82,0.00,,---,0.00,VWS V14.01,2013-04-01 08:45:00,
2013-04-01 05:46:00,43.5,38.4,28.44,NW,315,6.3,6.3,82,0.00,,---,0.00,VWS V14.01,2013-04-01 08:46:00,
2013-04-01 05:47:00,43.3,38.5,28.44,NW,315,7.4,7.4,83,0.00,,---,0.00,VWS V14.01,2013-04-01 08:47:00,
2013-04-01 05:48:00,43.2,38.4,28.44,West,270,6.0,7.4,83,0.00,,---,0.00,VWS V14.01,2013-04-01 08:48:00,
2013-04-01 05:49:00,43.2,38.4,28.44,NW,315,5.4,6.0,83,0.00,,---,0.00,VWS V14.01,2013-04-01 08:49:00,
2013-04-01 05:50:00,43.0,38.2,28.44,WNW,292,5.6,5.6,83,0.00,,---,0.00,VWS V14.01,2013-04-01 08:50:00,
2013-04-01 05:51:00,43.0,38.5,28.44,NW,315,4.0,5.6,84,0.00,,---,0.00,VWS V14.01,2013-04-01 08:51:00,
2013-04-01 05:52:00,43.0,38.5,28.44,West,270,4.3,4.3,84,0.00,,---,0.00,VWS V14.01,2013-04-01 08:52:00,
2013-04-01 05:53:00,42.8,38.3,28.44,West,270,3.4,4.3,84,0.00,,---,0.00,VWS V14.01,2013-04-01 08:53:00,
2013-04-01 05:54:00,42.8,38.3,28.44,NW,315,6.5,6.5,84,0.00,,---,0.00,VWS V14.01,2013-04-01 08:54:00,
2013-04-01 05:55:00,42.8,38.6,28.44,NW,315,5.8,6.5,85,0.00,,---,0.00,VWS V14.01,2013-04-01 08:55:00,
2013-04-01 05:56:00,42.6,38.4,28.44,North,0,5.4,5.8,85,0.00,,---,0.00,VWS V14.01,2013-04-01 08:56:00,
2013-04-01 05:57:00,42.6,38.4,28.44,NW,315,3.4,5.4,85,0.00,,---,0.00,VWS V14.01,2013-04-01 08:57:00,
2013-04-01 05:58:00,42.6,38.7,28.44,NNW,338,2.7,3.4,86,0.00,,---,0.00,VWS V14.01,2013-04-01 08:58:00,
2013-04-01 05:59:00,42.4,38.6,28.44,West,270,3.4,3.4,86,0.00,,---,0.00,VWS V14.01,2013-04-01 08:59:00,
2013-04-01 06:00:00,42.4,38.6,28.44,NW,315,5.6,5.6,86,0.00,,---,0.00,VWS V14.01,2013-04-01 09:00:00,
2013-04-01 06:01:00,42.4,38.6,28.44,WNW,292,3.1,5.6,86,0.00,,---,0.00,VWS V14.01,2013-04-01 09:01:00,
2013-04-01 06:02:00,42.4,38.6,28.44,West,270,5.6,5.6,86,0.00,,---,0.00,VWS V14.01,2013-04-01 09:02:00,
2013-04-01 06:03:00,42.4,38.8,28.44,WNW,292,4.0,5.6,87,0.00,,---,0.00,VWS V14.01,2013-04-01 09:03:00,
2013-04-01 06:04:00,42.4,38.6,28.44,NW,315,5.8,5.8,86,0.00,,---,0.00,VWS V14.01,2013-04-01 09:04:00,
2013-04-01 06:05:00,42.3,38.4,28.44,West,270,5.4,5.8,86,0.00,,---,0.00,VWS V14.01,2013-04-01 09:05:00,
2013-04-01 06:06:00,42.3,38.7,28.44,NW,315,3.4,5.4,87,0.00,,---,0.00,VWS V14.01,2013-04-01 09:06:00,
2013-04-01 06:07:00,42.3,38.7,28.44,NW,315,6.3,6.3,87,0.00,,---,0.00,VWS V14.01,2013-04-01 09:07:00,
2013-04-01 06:08:00,42.3,38.7,28.44,NW,315,4.9,6.3,87,0.00,,---,0.00,VWS V14.01,2013-04-01 09:08:00,
2013-04-01 06:09:00,42.3,38.7,28.44,West,270,6.3,6.3,87,0.00,,---,0.00,VWS V14.01,2013-04-01 09:09:00,
2013-04-01 06:10:00,42.3,38.7,28.47,WNW,292,4.9,6.3,87,0.00,,---,0.00,VWS V14.01,2013-04-01 09:10:00,
2013-04-01 06:11:00,42.3,38.7,28.47,West,270,5.8,5.8,87,0.00,,---,0.00,VWS V14.01,2013-04-01 09:11:00,
2013-04-01 06:12:00,42.1,38.8,28.47,NW,315,9.8,9.8,88,0.00,,---,0.00,VWS V14.01,2013-04-01 09:12:00,
2013-04-01 06:13:00,42.1,38.5,28.47,WNW,292,10.7,10.7,87,0.00,,---,0.00,VWS V14.01,2013-04-01 09:13:00,
2013-04-01 06:14:00,42.1,38.8,28.47,West,270,4.0,10.7,88,0.00,,---,0.00,VWS V14.01,2013-04-01 09:14:00,
2013-04-01 06:15:00,42.1,38.8,28.47,NNW,338,5.4,5.4,88,0.00,,---,0.00,VWS V14.01,2013-04-01 09:15:00,
2013-04-01 06:16:00,41.9,38.6,28.47,WNW,292,7.8,7.8,88,0.00,,---,0.00,VWS V14.01,2013-04-01 09:16:00,
2013-04-01 06:17:00,41.9,38.6,28.47,West,270,12.1,12.1,88,0.00,,---,0.00,VWS V14.01,2013-04-01 09:17:00,
2013-04-01 06:18:00,41.9,38.3,28.47,NW,315,8.7,12.1,87,0.00,,---,0.00,VWS V14.01,2013-04-01 09:18:00,
2013-04-01 06:20:00,41.7,38.1,28.47,WNW,292,6.5,8.7,87,0.00,,---,0.00,VWS V14.01,2013-04-01 09:20:00,
2013-04-01 06:21:00,41.7,38.1,28.47,NW,315,8.1,8.1,87,0.00,,---,0.00,VWS V14.01,2013-04-01 09:21:00,
2013-04-01 06:22:00,41.7,38.1,28.47,NNW,338,6.5,8.1,87,0.00,,---,0.00,VWS V14.01,2013-04-01 09:22:00,
2013-04-01 06:23:00,41.7,38.4,28.47,West,270,11.0,11.0,88,0.00,,---,0.00,VWS V14.01,2013-04-01 09:23:00,
2013-04-01 06:24:00,41.7,38.4,28.47,NW,315,7.2,11.0,88,0.00,,---,0.00,VWS V14.01,2013-04-01 09:24:00,
2013-04-01 06:25:00,41.7,38.4,28.47,NW,315,6.5,7.2,88,0.00,,---,0.00,VWS V14.01,2013-04-01 09:25:00,
2013-04-01 06:26:00,41.5,38.3,28.47,NW,315,6.3,6.5,88,0.00,,---,0.00,VWS V14.01,2013-04-01 09:26:00,
2013-04-01 06:27:00,41.5,38.3,28.47,West,270,6.5,6.5,88,0.00,,---,0.00,VWS V14.01,2013-04-01 09:27:00,
2013-04-01 06:28:00,41.5,38.3,28.47,NW,315,5.8,6.5,88,0.00,,---,0.00,VWS V14.01,2013-04-01 09:28:00,
2013-04-01 06:29:00,41.5,38.3,28.47,West,270,17.0,17.0,88,0.00,,---,0.00,VWS V14.01,2013-04-01 09:29:00,
2013-04-01 06:30:00,41.5,37.7,28.47,NW,315,9.4,17.0,86,0.00,,---,0.00,VWS V14.01,2013-04-01 09:30:00,
2013-04-01 06:31:00,41.5,37.7,28.47,NW,315,7.6,9.4,86,0.00,,---,0.00,VWS V14.01,2013-04-01 09:31:00,
2013-04-01 06:32:00,41.4,37.5,28.47,West,270,12.8,12.8,86,0.00,,---,0.00,VWS V14.01,2013-04-01 09:32:00,
2013-04-01 06:33:00,41.2,36.4,28.47,NW,315,13.4,13.4,83,0.00,,---,0.00,VWS V14.01,2013-04-01 09:33:00,
2013-04-01 06:34:00,41.2,36.1,28.47,NNW,338,11.0,13.4,82,0.00,,---,0.00,VWS V14.01,2013-04-01 09:34:00,
2013-04-01 06:35:00,41.2,35.8,28.47,NW,315,8.7,11.0,81,0.00,,---,0.00,VWS V14.01,2013-04-01 09:35:00,
2013-04-01 06:36:00,41.0,35.9,28.47,North,0,9.6,9.6,82,0.00,,---,0.00,VWS V14.01,2013-04-01 09:36:00,
2013-04-01 06:37:00,41.0,35.6,28.47,West,270,5.4,9.6,81,0.00,,---,0.00,VWS V14.01,2013-04-01 09:37:00,
2013-04-01 06:38:00,41.0,35.6,28.47,NW,315,4.9,5.4,81,0.00,,---,0.00,VWS V14.01,2013-04-01 09:38:00,
2013-04-01 06:39:00,41.0,35.6,28.47,NW,315,6.5,6.5,81,0.00,,---,0.00,VWS V14.01,2013-04-01 09:39:00,
2013-04-01 06:40:00,40.8,36.1,28.50,NW,315,6.5,6.5,83,0.00,,---,0.00,VWS V14.01,2013-04-01 09:40:00,
2013-04-01 06:41:00,40.6,35.6,28.50,NNW,338,7.6,7.6,82,0.00,,---,0.00,VWS V14.01,2013-04-01 09:41:00,
2013-04-01 06:42:00,40.6,35.6,28.50,West,270,7.6,7.6,82,0.00,,---,0.00,VWS V14.01,2013-04-01 09:42:00,
2013-04-01 06:43:00,40.6,35.6,28.50,NNW,338,5.6,7.6,82,0.00,,---,0.00,VWS V14.01,2013-04-01 09:43:00,
2013-04-01 06:44:00,40.5,35.4,28.50,NW,315,5.4,5.6,82,0.00,,---,0.00,VWS V14.01,2013-04-01 09:44:00,
2013-04-01 06:46:00,40.5,35.4,28.50,West,270,6.3,6.3,82,0.00,,---,0.00,VWS V14.01,2013-04-01 09:46:00,
2013-04-01 06:47:00,40.3,35.2,28.50,West,270,4.0,6.3,82,0.00,,---,0.00,VWS V14.01,2013-04-01 09:47:00,
2013-04-01 06:48:00,40.3,35.2,28.50,WNW,292,6.3,6.3,82,0.00,,---,0.00,VWS V14.01,2013-04-01 09:48:00,
2013-04-01 06:49:00,40.3,35.5,28.50,WNW,292,6.5,6.5,83,0.00,,---,0.00,VWS V14.01,2013-04-01 09:49:00,
2013-04-01 06:50:00,40.3,35.2,28.50,WNW,292,6.5,6.5,82,0.00,,---,0.00,VWS V14.01,2013-04-01 09:50:00,
2013-04-01 06:51:00,40.3,35.2,28.50,NNE,22,5.4,6.5,82,0.00,,---,0.00,VWS V14.01,2013-04-01 09:51:00,
2013-04-01 06:52:00,40.1,35.1,28.50,NW,315,6.3,6.3,82,0.00,,---,0.00,VWS V14.01,2013-04-01 09:52:00,
2013-04-01 06:53:00,40.1,35.1,28.50,West,270,8.7,8.7,82,0.00,,---,0.00,VWS V14.01,2013-04-01 09:53:00,
2013-04-01 06:55:00,40.1,35.1,28.50,NW,315,5.6,8.7,82,0.00,,---,0.00,VWS V14.01,2013-04-01 09:55:00,
2013-04-01 06:56:00,39.9,34.9,28.50,West,270,5.4,5.6,82,0.00,,---,0.00,VWS V14.01,2013-04-01 09:56:00,
2013-04-01 06:57:00,39.9,34.9,28.50,NW,315,6.0,6.0,82,0.00,,---,0.00,VWS V14.01,2013-04-01 09:57:00,
2013-04-01 06:58:00,39.9,35.2,28.50,WNW,292,4.3,6.0,83,0.00,,---,0.00,VWS V14.01,2013-04-01 09:58:00,
2013-04-01 06:59:00,39.9,35.2,28.50,WNW,292,4.3,4.3,83,0.00,,---,0.00,VWS V14.01,2013-04-01 09:59:00,
2013-04-01 07:00:00,39.7,35.0,28.50,WNW,292,5.8,5.8,83,0.00,,---,0.00,VWS V14.01,2013-04-01 10:00:00,
2013-04-01 07:01:00,39.7,35.0,28.50,NW,315,3.8,5.8,83,0.00,,---,0.00,VWS V14.01,2013-04-01 10:01:00,
2013-04-01 07:02:00,39.7,35.0,28.50,NW,315,4.3,4.3,83,0.00,,---,0.00,VWS V14.01,2013-04-01 10:02:00,
2013-04-01 07:03:00,39.7,35.0,28.50,NW,315,4.9,4.9,83,0.00,,---,0.00,VWS V14.01,2013-04-01 10:03:00,
2013-04-01 07:04:00,39.7,35.0,28.50,WNW,292,6.5,6.5,83,0.00,,---,0.00,VWS V14.01,2013-04-01 10:04:00,
2013-04-01 07:05:00,39.7,35.0,28.50,NW,315,4.3,6.5,83,0.00,,---,0.00,VWS V14.01,2013-04-01 10:05:00,
2013-04-01 07:06:00,39.7,35.0,28.50,NW,315,5.4,5.4,83,0.00,,---,0.00,VWS V14.01,2013-04-01 10:06:00,
2013-04-01 07:07:00,39.6,34.8,28.50,WNW,292,5.6,5.6,83,0.00,,---,0.00,VWS V14.01,2013-04-01 10:07:00,
2013-04-01 07:08:00,39.6,35.1,28.50,West,270,5.6,5.6,84,0.00,,---,0.00,VWS V14.01,2013-04-01 10:08:00,
2013-04-01 07:09:00,39.6,34.8,28.50,West,270,2.9,5.6,83,0.00,,---,0.00,VWS V14.01,2013-04-01 10:09:00,
2013-04-01 07:10:00,39.6,34.8,28.50,NW,315,3.8,3.8,83,0.00,,---,0.00,VWS V14.01,2013-04-01 10:10:00,
2013-04-01 07:11:00,39.4,35.0,28.50,NW,315,4.0,4.0,84,0.00,,---,0.00,VWS V14.01,2013-04-01 10:11:00,
2013-04-01 07:12:00,39.4,35.0,28.50,NW,315,2.9,4.0,84,0.00,,---,0.00,VWS V14.01,2013-04-01 10:12:00,
2013-04-01 07:13:00,39.4,35.0,28.50,NW,315,3.4,3.4,84,0.00,,---,0.00,VWS V14.01,2013-04-01 10:13:00,
2013-04-01 07:14:00,39.2,34.8,28.50,West,270,3.8,3.8,84,0.00,,---,0.00,VWS V14.01,2013-04-01 10:14:00,
2013-04-01 07:15:00,39.2,34.8,28.50,West,270,3.8,3.8,84,0.00,,---,0.00,VWS V14.01,2013-04-01 10:15:00,
2013-04-01 07:16:00,39.4,35.0,28.50,WNW,292,3.6,3.8,84,0.00,,---,0.00,VWS V14.01,2013-04-01 10:16:00,
2013-04-01 07:17:00,39.2,35.1,28.50,West,270,2.7,3.6,85,0.00,,---,0.00,VWS V14.01,2013-04-01 10:17:00,
2013-04-01 07:18:00,39.2,35.1,28.50,West,270,2.7,2.7,85,0.00,,---,0.00,VWS V14.01,2013-04-01 10:18:00,
2013-04-01 07:19:00,39.2,35.1,28.50,WNW,292,5.4,5.4,85,0.00,,---,0.00,VWS V14.01,2013-04-01 10:19:00,
2013-04-01 07:20:00,39.2,35.1,28.50,West,270,6.0,6.0,85,0.00,,---,0.00,VWS V14.01,2013-04-01 10:20:00,
2013-04-01 07:21:00,39.2,35.1,28.50,NW,315,4.0,6.0,85,0.00,,---,0.00,VWS V14.01,2013-04-01 10:21:00,
2013-04-01 07:22:00,39.2,35.1,28.50,West,270,4.7,4.7,85,0.00,,---,0.00,VWS V14.01,2013-04-01 10:22:00,
2013-04-01 07:23:00,39.2,35.1,28.50,NW,315,3.6,4.7,85,0.00,,---,0.00,VWS V14.01,2013-04-01 10:23:00,
2013-04-01 07:24:00,39.2,35.1,28.50,NNW,338,3.6,3.6,85,0.00,,---,0.00,VWS V14.01,2013-04-01 10:24:00,
2013-04-01 07:25:00,39.2,35.1,28.50,WNW,292,3.8,3.8,85,0.00,,---,0.00,VWS V14.01,2013-04-01 10:25:00,
2013-04-01 07:26:00,39.2,35.1,28.50,NW,315,2.9,3.8,85,0.00,,---,0.00,VWS V14.01,2013-04-01 10:26:00,
2013-04-01 07:27:00,39.0,34.9,28.50,West,270,2.0,2.9,85,0.00,,---,0.00,VWS V14.01,2013-04-01 10:27:00,
2013-04-01 07:28:00,39.0,34.9,28.50,NW,315,2.7,2.7,85,0.00,,---,0.00,VWS V14.01,2013-04-01 10:28:00,
2013-04-01 07:29:00,39.0,35.2,28.50,WSW,248,3.4,3.4,86,0.00,,---,0.00,VWS V14.01,2013-04-01 10:29:00,
2013-04-01 07:30:00,39.0,35.2,28.50,West,270,6.0,6.0,86,0.00,,---,0.00,VWS V14.01,2013-04-01 10:30:00,
2013-04-01 07:31:00,39.0,34.9,28.50,West,270,4.3,6.0,85,0.00,,---,0.00,VWS V14.01,2013-04-01 10:31:00,
2013-04-01 07:32:00,39.0,35.2,28.50,West,270,4.0,4.3,86,0.00,,---,0.00,VWS V14.01,2013-04-01 10:32:00,
2013-04-01 07:33:00,39.0,35.2,28.50,West,270,4.0,4.0,86,0.00,,---,0.00,VWS V14.01,2013-04-01 10:33:00,
2013-04-01 07:34:00,39.0,35.2,28.50,WNW,292,3.8,4.0,86,0.00,,---,0.00,VWS V14.01,2013-04-01 10:34:00,
2013-04-01 07:35:00,39.0,35.2,28.50,West,270,4.9,4.9,86,0.00,,---,0.00,VWS V14.01,2013-04-01 10:35:00,
2013-04-01 07:36:00,38.8,35.0,28.50,West,270,3.4,4.9,86,0.00,,---,0.00,VWS V14.01,2013-04-01 10:36:00,
2013-04-01 07:37:00,39.0,35.2,28.50,West,270,4.9,4.9,86,0.00,,---,0.00,VWS V14.01,2013-04-01 10:37:00,
2013-04-01 07:38:00,38.8,35.0,28.50,West,270,3.1,4.9,86,0.00,,---,0.00,VWS V14.01,2013-04-01 10:38:00,
2013-04-01 07:39:00,38.8,35.0,28.50,WNW,292,3.8,3.8,86,0.00,,---,0.00,VWS V14.01,2013-04-01 10:39:00,
2013-04-01 07:40:00,38.8,35.0,28.50,NW,315,3.4,3.8,86,0.00,,---,0.00,VWS V14.01,2013-04-01 10:40:00,
2013-04-01 07:41:00,38.8,34.7,28.50,West,270,2.7,3.4,85,0.00,,---,0.00,VWS V14.01,2013-04-01 10:41:00,
2013-04-01 07:42:00,38.8,34.7,28.50,NW,315,4.0,4.0,85,0.00,,---,0.00,VWS V14.01,2013-04-01 10:42:00,
2013-04-01 07:43:00,38.8,34.7,28.50,WNW,292,2.7,4.0,85,0.00,,---,0.00,VWS V14.01,2013-04-01 10:43:00,
2013-04-01 07:44:00,38.8,34.7,28.50,NW,315,4.7,4.7,85,0.00,,---,0.00,VWS V14.01,2013-04-01 10:44:00,
2013-04-01 07:45:00,38.8,34.7,28.50,NW,315,2.9,4.7,85,0.00,,---,0.00,VWS V14.01,2013-04-01 10:45:00,
2013-04-01 07:46:00,38.8,34.7,28.50,NW,315,4.0,4.0,85,0.00,,---,0.00,VWS V14.01,2013-04-01 10:46:00,
2013-04-01 07:47:00,38.8,34.7,28.50,NW,315,3.1,4.0,85,0.00,,---,0.00,VWS V14.01,2013-04-01 10:47:00,
2013-04-01 07:48:00,38.8,34.7,28.50,WNW,292,4.9,4.9,85,0.00,,---,0.00,VWS V14.01,2013-04-01 10:48:00,
2013-04-01 07:49:00,38.8,34.7,28.50,WNW,292,4.9,4.9,85,0.00,,---,0.00,VWS V14.01,2013-04-01 10:49:00,
2013-04-01 07:50:00,38.8,34.7,28.50,WNW,292,4.9,4.9,85,0.00,,---,0.00,VWS V14.01,2013-04-01 10:50:00,
2013-04-01 07:51:00,38.8,34.7,28.50,West,270,4.3,4.9,85,0.00,,---,0.00,VWS V14.01,2013-04-01 10:51:00,
2013-04-01 07:52:00,38.8,34.7,28.50,West,270,4.3,4.3,85,0.00,,---,0.00,VWS V14.01,2013-04-01 10:52:00,
2013-04-01 07:53:00,38.8,34.7,28.50,West,270,3.6,4.3,85,0.00,,---,0.00,VWS V14.01,2013-04-01 10:53:00,
2013-04-01 07:54:00,38.8,34.4,28.50,West,270,3.6,3.6,84,0.00,,---,0.00,VWS V14.01,2013-04-01 10:54:00,
2013-04-01 07:55:00,38.8,34.4,28.50,West,270,3.6,3.6,84,0.00,,---,0.00,VWS V14.01,2013-04-01 10:55:00,
2013-04-01 07:56:00,38.8,34.7,28.50,West,270,3.6,3.6,85,0.00,,---,0.00,VWS V14.01,2013-04-01 10:56:00,
2013-04-01 07:57:00,38.8,34.4,28.50,SW,225,4.0,4.0,84,0.00,,---,0.00,VWS V14.01,2013-04-01 10:57:00,
2013-04-01 07:58:00,38.8,34.4,28.50,SW,225,4.0,4.0,84,0.00,,---,0.00,VWS V14.01,2013-04-01 10:58:00,
2013-04-01 07:59:00,38.8,34.4,28.50,SW,225,4.0,4.0,84,0.00,,---,0.00,VWS V14.01,2013-04-01 10:59:00,
2013-04-01 08:00:00,38.8,34.4,28.50,West,270,11.0,11.0,84,0.00,,---,0.00,VWS V14.01,2013-04-01 11:00:00,
2013-04-01 08:01:00,38.8,34.1,28.50,NW,315,15.4,15.4,83,0.00,,---,0.00,VWS V14.01,2013-04-01 11:01:00,
2013-04-01 08:02:00,38.8,33.8,28.50,NW,315,15.4,15.4,82,0.00,,---,0.00,VWS V14.01,2013-04-01 11:02:00,
2013-04-01 08:03:00,38.8,33.8,28.50,NW,315,7.2,15.4,82,0.00,,---,0.00,VWS V14.01,2013-04-01 11:03:00,
2013-04-01 08:04:00,39.0,34.0,28.50,SW,225,5.6,7.2,82,0.00,,---,0.00,VWS V14.01,2013-04-01 11:04:00,
2013-04-01 08:05:00,39.0,34.0,28.50,NW,315,4.3,5.6,82,0.00,,---,0.00,VWS V14.01,2013-04-01 11:05:00,
2013-04-01 08:06:00,38.8,34.1,28.50,NW,315,3.6,4.3,83,0.00,,---,0.00,VWS V14.01,2013-04-01 11:06:00,
2013-04-01 08:07:00,38.8,34.1,28.50,West,270,4.9,4.9,83,0.00,,---,0.00,VWS V14.01,2013-04-01 11:07:00,
2013-04-01 08:08:00,38.8,34.1,28.50,West,270,5.8,5.8,83,0.00,,---,0.00,VWS V14.01,2013-04-01 11:08:00,
2013-04-01 08:09:00,38.8,34.1,28.50,West,270,3.8,5.8,83,0.00,,---,0.00,VWS V14.01,2013-04-01 11:09:00,
2013-04-01 08:10:00,38.8,34.1,28.50,West,270,4.0,4.0,83,0.00,,---,0.00,VWS V14.01,2013-04-01 11:10:00,
2013-04-01 08:11:00,38.8,34.1,28.50,WSW,248,8.1,8.1,83,0.00,,---,0.00,VWS V14.01,2013-04-01 11:11:00,
2013-04-01 08:12:00,38.8,33.8,28.50,NW,315,5.8,8.1,82,0.00,,---,0.00,VWS V14.01,2013-04-01 11:12:00,
2013-04-01 08:13:00,38.8,33.8,28.50,NNW,338,6.3,6.3,82,0.00,,---,0.00,VWS V14.01,2013-04-01 11:13:00,
2013-04-01 08:14:00,38.8,34.1,28.50,North,0,6.5,6.5,83,0.00,,---,0.00,VWS V14.01,2013-04-01 11:14:00,
2013-04-01 08:15:00,38.8,34.1,28.50,NNW,338,7.2,7.2,83,0.00,,---,0.00,VWS V14.01,2013-04-01 11:15:00,
2013-04-01 08:16:00,38.7,34.2,28.50,North,0,8.5,8.5,84,0.00,,---,0.00,VWS V14.01,2013-04-01 11:16:00,
2013-04-01 08:17:00,38.5,34.4,28.50,NNW,338,10.5,10.5,85,0.00,,---,0.00,VWS V14.01,2013-04-01 11:17:00,
2013-04-01 08:18:00,38.1,34.3,28.50,WNW,292,10.3,10.5,86,0.00,,---,0.00,VWS V14.01,2013-04-01 11:18:00,
2013-04-01 08:19:00,37.8,33.4,28.50,NW,315,15.2,15.2,84,0.00,,---,0.00,VWS V14.01,2013-04-01 11:19:00,
2013-04-01 08:20:00,37.6,33.2,28.50,NW,315,15.2,15.2,84,0.00,,---,0.00,VWS V14.01,2013-04-01 11:20:00,
2013-04-01 08:21:00,37.4,33.0,28.50,NW,315,15.2,15.2,84,0.00,,---,0.00,VWS V14.01,2013-04-01 11:21:00,
2013-04-01 08:22:00,37.4,33.0,28.50,NW,315,15.2,15.2,84,0.00,,---,0.00,VWS V14.01,2013-04-01 11:22:00,
2013-04-01 08:23:00,37.2,33.1,28.50,NW,315,15.2,15.2,85,0.00,,---,0.00,VWS V14.01,2013-04-01 11:23:00,
2013-04-01 08:24:00,37.0,33.0,28.50,NW,315,15.2,15.2,85,0.00,,---,0.00,VWS V14.01,2013-04-01 11:24:00,
2013-04-01 08:25:00,37.0,33.0,28.52,SW,225,5.8,15.2,85,0.00,,---,0.00,VWS V14.01,2013-04-01 11:25:00,
2013-04-01 08:26:00,37.0,33.0,28.52,SW,225,5.8,5.8,85,0.00,,---,0.00,VWS V14.01,2013-04-01 11:26:00,
2013-04-01 08:27:00,36.7,32.6,28.52,North,0,10.7,10.7,85,0.00,,---,0.00,VWS V14.01,2013-04-01 11:27:00,
2013-04-01 08:28:00,36.7,32.3,28.52,NW,315,8.5,10.7,84,0.00,,---,0.00,VWS V14.01,2013-04-01 11:28:00,
2013-04-01 08:29:00,36.7,32.0,28.52,North,0,10.7,10.7,83,0.00,,---,0.00,VWS V14.01,2013-04-01 11:29:00,
2013-04-01 08:30:00,36.5,31.8,28.52,North,0,10.7,10.7,83,0.00,,---,0.00,VWS V14.01,2013-04-01 11:30:00,
2013-04-01 08:31:00,36.5,32.1,28.52,NW,315,7.2,10.7,84,0.00,,---,0.00,VWS V14.01,2013-04-01 11:31:00,
2013-04-01 08:32:00,36.5,32.1,28.52,North,0,3.4,7.2,84,0.00,,---,0.00,VWS V14.01,2013-04-01 11:32:00,
2013-04-01 08:33:00,36.5,32.4,28.52,North,0,3.4,3.4,85,0.00,,---,0.00,VWS V14.01,2013-04-01 11:33:00,
2013-04-01 08:34:00,36.3,32.5,28.52,North,0,5.6,5.6,86,0.00,,---,0.00,VWS V14.01,2013-04-01 11:34:00,
2013-04-01 08:36:00,36.3,32.8,28.52,WNW,292,4.9,5.6,87,0.00,,---,0.00,VWS V14.01,2013-04-01 11:36:00,
2013-04-01 08:37:00,36.1,32.7,28.52,SE,135,7.8,7.8,87,0.00,,---,0.00,VWS V14.01,2013-04-01 11:37:00,
2013-04-01 08:38:00,36.1,32.4,28.52,West,270,6.0,7.8,86,0.00,,---,0.00,VWS V14.01,2013-04-01 11:38:00,
2013-04-01 08:40:00,36.0,32.2,28.55,West,270,6.0,6.0,86,0.00,,---,0.00,VWS V14.01,2013-04-01 11:40:00,
2013-04-01 08:41:00,36.0,31.9,28.55,NW,315,6.9,6.9,85,0.00,,---,0.00,VWS V14.01,2013-04-01 11:41:00,
2013-04-01 08:42:00,36.0,31.0,28.55,NNW,338,7.4,7.4,82,0.00,,---,0.00,VWS V14.01,2013-04-01 11:42:00,
2013-04-01 08:43:00,35.8,30.8,28.55,NNW,338,7.4,7.4,82,0.00,,---,0.00,VWS V14.01,2013-04-01 11:43:00,
2013-04-01 08:44:00,35.8,30.8,28.55,SW,225,11.0,11.0,82,0.00,,---,0.00,VWS V14.01,2013-04-01 11:44:00,
2013-04-01 08:45:00,35.8,30.8,28.55,NW,315,7.4,11.0,82,0.00,,---,0.00,VWS V14.01,2013-04-01 11:45:00,
2013-04-01 08:46:00,35.8,30.8,28.55,NW,315,8.1,8.1,82,0.00,,---,0.00,VWS V14.01,2013-04-01 11:46:00,
2013-04-01 08:47:00,35.8,31.1,28.55,NW,315,8.1,8.1,83,0.00,,---,0.00,VWS V14.01,2013-04-01 11:47:00,
2013-04-01 08:48:00,35.8,31.1,28.55,NW,315,8.1,8.1,83,0.00,,---,0.00,VWS V14.01,2013-04-01 11:48:00,
2013-04-01 08:49:00,35.8,31.1,28.55,NW,315,8.1,8.1,83,0.00,,---,0.00,VWS V14.01,2013-04-01 11:49:00,
2013-04-01 08:50:00,35.6,31.2,28.55,NW,315,8.1,8.1,84,0.00,,---,0.00,VWS V14.01,2013-04-01 11:50:00,
2013-04-01 08:51:00,35.6,31.0,28.55,NW,315,8.1,8.1,83,0.00,,---,0.00,VWS V14.01,2013-04-01 11:51:00,
2013-04-01 08:52:00,35.6,30.7,28.55,NW,315,8.1,8.1,82,0.00,,---,0.00,VWS V14.01,2013-04-01 11:52:00,
2013-04-01 08:53:00,35.6,30.7,28.55,NW,315,8.1,8.1,82,0.00,,---,0.00,VWS V14.01,2013-04-01 11:53:00,
2013-04-01 08:54:00,35.6,30.7,28.55,NW,315,8.1,8.1,82,0.00,,---,0.00,VWS V14.01,2013-04-01 11:54:00,
2013-04-01 08:55:00,35.4,30.5,28.55,NW,315,8.1,8.1,82,0.00,,---,0.00,VWS V14.01,2013-04-01 11:55:00,
2013-04-01 08:56:00,35.4,30.5,28.55,NW,315,8.1,8.1,82,0.00,,---,0.00,VWS V14.01,2013-04-01 11:56:00,
2013-04-01 08:57:00,35.4,30.5,28.55,NW,315,8.1,8.1,82,0.00,,---,0.00,VWS V14.01,2013-04-01 11:57:00,
2013-04-01 08:58:00,35.4,30.5,28.55,NW,315,9.0,9.0,82,0.00,,---,0.00,VWS V14.01,2013-04-01 11:58:00,
2013-04-01 08:59:00,35.4,30.5,28.55,NW,315,9.0,9.0,82,0.00,,---,0.00,VWS V14.01,2013-04-01 11:59:00,
2013-04-01 09:00:00,35.4,30.8,28.55,NNW,338,6.7,9.0,83,0.00,,---,0.00,VWS V14.01,2013-04-01 12:00:00,
2013-04-01 09:01:00,35.4,31.1,28.55,NNW,338,6.7,6.7,84,0.00,,---,0.00,VWS V14.01,2013-04-01 12:01:00,
2013-04-01 09:02:00,35.4,31.1,28.55,WNW,292,6.3,6.7,84,0.00,,---,0.00,VWS V14.01,2013-04-01 12:02:00,
2013-04-01 09:03:00,35.2,30.9,28.55,North,0,10.3,10.3,84,0.00,,---,0.00,VWS V14.01,2013-04-01 12:03:00,
2013-04-01 09:04:00,35.2,30.9,28.55,North,0,7.4,10.3,84,0.00,,---,0.00,VWS V14.01,2013-04-01 12:04:00,
2013-04-01 09:05:00,35.1,31.0,28.55,West,270,8.7,8.7,85,0.00,,---,0.00,VWS V14.01,2013-04-01 12:05:00,
2013-04-01 09:07:00,34.5,28.7,28.55,NW,315,10.7,10.7,79,0.00,,---,0.00,VWS V14.01,2013-04-01 12:07:00,
2013-04-01 09:08:00,34.5,28.7,28.55,NW,315,10.7,10.7,79,0.00,,---,0.00,VWS V14.01,2013-04-01 12:08:00,
2013-04-01 09:09:00,34.2,28.0,28.55,NW,315,10.7,10.7,78,0.00,,---,0.00,VWS V14.01,2013-04-01 12:09:00,
2013-04-01 09:10:00,34.0,28.2,28.55,North,0,10.1,10.7,79,0.00,,---,0.00,VWS V14.01,2013-04-01 12:10:00,
2013-04-01 09:11:00,34.0,28.5,28.55,North,0,10.1,10.1,80,0.00,,---,0.00,VWS V14.01,2013-04-01 12:11:00,
2013-04-01 09:12:00,33.8,28.6,28.55,North,0,10.1,10.1,81,0.00,,---,0.00,VWS V14.01,2013-04-01 12:12:00,
2013-04-01 09:13:00,33.8,28.6,28.55,North,0,10.1,10.1,81,0.00,,---,0.00,VWS V14.01,2013-04-01 12:13:00,
2013-04-01 09:14:00,33.6,28.7,28.55,North,0,10.1,10.1,82,0.00,,---,0.00,VWS V14.01,2013-04-01 12:14:00,
2013-04-01 09:15:00,33.6,28.7,28.55,NNW,338,15.4,15.4,82,0.00,,---,0.00,VWS V14.01,2013-04-01 12:15:00,
2013-04-01 09:16:00,33.4,27.9,28.55,NNW,338,15.4,15.4,80,0.00,,---,0.00,VWS V14.01,2013-04-01 12:16:00,
2013-04-01 09:17:00,33.3,27.8,28.55,NNW,338,15.4,15.4,80,0.00,,---,0.00,VWS V14.01,2013-04-01 12:17:00,
2013-04-01 09:18:00,33.3,27.8,28.55,NNW,338,15.4,15.4,80,0.00,,---,0.00,VWS V14.01,2013-04-01 12:18:00,
2013-04-01 09:19:00,33.3,28.1,28.55,NNW,338,15.4,15.4,81,0.00,,---,0.00,VWS V14.01,2013-04-01 12:19:00,
2013-04-01 09:20:00,33.1,27.6,28.55,NNW,338,15.4,15.4,80,0.00,,---,0.00,VWS V14.01,2013-04-01 12:20:00,
2013-04-01 09:21:00,33.1,27.3,28.55,NNW,338,15.4,15.4,79,0.00,,---,0.00,VWS V14.01,2013-04-01 12:21:00,
2013-04-01 09:22:00,33.1,27.3,28.55,NW,315,5.6,15.4,79,0.00,,---,0.00,VWS V14.01,2013-04-01 12:22:00,
2013-04-01 09:23:00,33.3,28.1,28.55,NW,315,7.6,7.6,81,0.00,,---,0.00,VWS V14.01,2013-04-01 12:23:00,
2013-04-01 09:24:00,33.1,27.6,28.55,NW,315,7.6,7.6,80,0.00,,---,0.00,VWS V14.01,2013-04-01 12:24:00,
2013-04-01 09:25:00,32.9,26.8,28.61,NW,315,7.6,7.6,78,0.00,,---,0.00,VWS V14.01,2013-04-01 12:25:00,
2013-04-01 09:26:00,32.9,26.5,28.61,NW,315,8.7,8.7,77,0.00,,---,0.00,VWS V14.01,2013-04-01 12:26:00,
2013-04-01 09:27:00,32.9,26.8,28.61,NW,315,8.7,8.7,78,0.00,,---,0.00,VWS V14.01,2013-04-01 12:27:00,
2013-04-01 09:28:00,32.9,27.1,28.61,NW,315,7.6,8.7,79,0.00,,---,0.00,VWS V14.01,2013-04-01 12:28:00,
2013-04-01 09:29:00,32.7,26.6,28.61,NNW,338,9.8,9.8,78,0.00,,---,0.00,VWS V14.01,2013-04-01 12:29:00,
2013-04-01 09:30:00,32.7,26.3,28.61,NW,315,10.1,10.1,77,0.00,,---,0.00,VWS V14.01,2013-04-01 12:30:00,
2013-04-01 09:31:00,32.7,26.3,28.61,NW,315,10.1,10.1,77,0.00,,---,0.00,VWS V14.01,2013-04-01 12:31:00,
2013-04-01 09:32:00,32.9,26.8,28.61,North,0,7.8,10.1,78,0.00,,---,0.00,VWS V14.01,2013-04-01 12:32:00,
2013-04-01 09:33:00,32.9,26.8,28.61,North,0,7.8,7.8,78,0.00,,---,0.00,VWS V14.01,2013-04-01 12:33:00,
2013-04-01 09:34:00,32.9,27.1,28.61,North,0,7.8,7.8,79,0.00,,---,0.00,VWS V14.01,2013-04-01 12:34:00,
2013-04-01 09:35:00,32.7,26.6,28.61,NW,315,6.9,7.8,78,0.00,,---,0.00,VWS V14.01,2013-04-01 12:35:00,
2013-04-01 09:36:00,32.7,26.6,28.61,NW,315,7.8,7.8,78,0.00,,---,0.00,VWS V14.01,2013-04-01 12:36:00,
2013-04-01 09:37:00,32.7,26.9,28.61,NNW,338,4.9,7.8,79,0.00,,---,0.00,VWS V14.01,2013-04-01 12:37:00,
2013-04-01 09:38:00,32.7,26.9,28.61,NNW,338,4.9,4.9,79,0.00,,---,0.00,VWS V14.01,2013-04-01 12:38:00,
2013-04-01 09:39:00,32.7,26.9,28.61,NW,315,6.3,6.3,79,0.00,,---,0.00,VWS V14.01,2013-04-01 12:39:00,
2013-04-01 09:40:00,32.7,26.9,28.61,NW,315,6.5,6.5,79,0.00,,---,0.00,VWS V14.01,2013-04-01 12:40:00,
2013-04-01 09:41:00,32.7,26.9,28.61,NW,315,6.5,6.5,79,0.00,,---,0.00,VWS V14.01,2013-04-01 12:41:00,
2013-04-01 09:42:00,32.7,26.6,28.61,West,270,10.3,10.3,78,0.00,,---,0.00,VWS V14.01,2013-04-01 12:42:00,
2013-04-01 09:43:00,32.5,25.8,28.61,WNW,292,6.7,10.3,76,0.00,,---,0.00,VWS V14.01,2013-04-01 12:43:00,
2013-04-01 09:44:00,32.5,25.8,28.61,WNW,292,6.7,6.7,76,0.00,,---,0.00,VWS V14.01,2013-04-01 12:44:00,
2013-04-01 09:45:00,32.7,26.3,28.61,NW,315,5.8,6.7,77,0.00,,---,0.00,VWS V14.01,2013-04-01 12:45:00,
2013-04-01 09:46:00,32.7,26.3,28.61,NNW,338,5.6,5.8,77,0.00,,---,0.00,VWS V14.01,2013-04-01 12:46:00,
2013-04-01 09:47:00,32.5,25.8,28.61,NNW,338,10.5,10.5,76,0.00,,---,0.00,VWS V14.01,2013-04-01 12:47:00,
2013-04-01 09:48:00,32.5,25.5,28.61,NW,315,7.4,10.5,75,0.00,,---,0.00,VWS V14.01,2013-04-01 12:48:00,
2013-04-01 09:49:00,32.5,25.8,28.61,NW,315,8.5,8.5,76,0.00,,---,0.00,VWS V14.01,2013-04-01 12:49:00,
2013-04-01 09:50:00,32.5,26.1,28.61,NW,315,8.5,8.5,77,0.00,,---,0.00,VWS V14.01,2013-04-01 12:50:00,
2013-04-01 09:51:00,32.5,25.8,28.61,NW,315,7.6,8.5,76,0.00,,---,0.00,VWS V14.01,2013-04-01 12:51:00,
2013-04-01 09:52:00,32.5,25.8,28.61,West,270,7.6,7.6,76,0.00,,---,0.00,VWS V14.01,2013-04-01 12:52:00,
2013-04-01 09:53:00,32.5,25.8,28.61,NW,315,9.8,9.8,76,0.00,,---,0.00,VWS V14.01,2013-04-01 12:53:00,
2013-04-01 09:54:00,32.5,26.1,28.61,WSW,248,7.4,9.8,77,0.00,,---,0.00,VWS V14.01,2013-04-01 12:54:00,
2013-04-01 09:55:00,32.5,26.1,28.64,North,0,7.6,7.6,77,0.00,,---,0.00,VWS V14.01,2013-04-01 12:55:00,
2013-04-01 09:56:00,32.5,26.1,28.64,North,0,7.4,7.6,77,0.00,,---,0.00,VWS V14.01,2013-04-01 12:56:00,
2013-04-01 09:57:00,32.5,26.1,28.64,NW,315,6.7,7.4,77,0.00,,---,0.00,VWS V14.01,2013-04-01 12:57:00,
2013-04-01 09:58:00,32.5,26.5,28.64,West,270,8.1,8.1,78,0.00,,---,0.00,VWS V14.01,2013-04-01 12:58:00,
2013-04-01 09:59:00,32.5,26.5,28.64,NNW,338,5.8,8.1,78,0.00,,---,0.00,VWS V14.01,2013-04-01 12:59:00,
2013-04-01 10:00:00,32.5,26.8,28.64,NW,315,6.0,6.0,79,0.00,,---,0.00,VWS V14.01,2013-04-01 13:00:00,
2013-04-01 10:01:00,32.7,26.9,28.64,NNW,338,3.6,6.0,79,0.00,,---,0.00,VWS V14.01,2013-04-01 13:01:00,
2013-04-01 10:02:00,32.7,26.9,28.64,North,0,5.6,5.6,79,0.00,,---,0.00,VWS V14.01,2013-04-01 13:02:00,
2013-04-01 10:03:00,32.7,26.9,28.64,WNW,292,3.6,5.6,79,0.00,,---,0.00,VWS V14.01,2013-04-01 13:03:00,
2013-04-01 10:04:00,32.9,27.1,28.64,West,270,6.5,6.5,79,0.00,,---,0.00,VWS V14.01,2013-04-01 13:04:00,
2013-04-01 10:05:00,32.9,26.8,28.64,NW,315,10.1,10.1,78,0.00,,---,0.00,VWS V14.01,2013-04-01 13:05:00,
2013-04-01 10:06:00,32.9,26.5,28.64,NW,315,8.7,10.1,77,0.00,,---,0.00,VWS V14.01,2013-04-01 13:06:00,
2013-04-01 10:07:00,32.9,26.2,28.64,NW,315,8.7,8.7,76,0.00,,---,0.00,VWS V14.01,2013-04-01 13:07:00,
2013-04-01 10:08:00,32.9,26.2,28.64,North,0,4.3,8.7,76,0.00,,---,0.00,VWS V14.01,2013-04-01 13:08:00,
2013-04-01 10:09:00,32.9,26.2,28.64,West,270,4.9,4.9,76,0.00,,---,0.00,VWS V14.01,2013-04-01 13:09:00,
2013-04-01 10:10:00,32.9,26.5,28.61,West,270,6.3,6.3,77,0.00,,---,0.00,VWS V14.01,2013-04-01 13:10:00,
2013-04-01 10:11:00,32.9,26.5,28.61,NW,315,3.6,6.3,77,0.00,,---,0.00,VWS V14.01,2013-04-01 13:11:00,
2013-04-01 10:12:00,32.9,26.8,28.61,NW,315,5.6,5.6,78,0.00,,---,0.00,VWS V14.01,2013-04-01 13:12:00,
2013-04-01 10:13:00,32.9,26.8,28.61,West,270,10.5,10.5,78,0.00,,---,0.00,VWS V14.01,2013-04-01 13:13:00,
2013-04-01 10:14:00,32.9,26.8,28.61,West,270,8.5,10.5,78,0.00,,---,0.00,VWS V14.01,2013-04-01 13:14:00,
2013-04-01 10:15:00,32.9,26.8,28.61,North,0,6.3,8.5,78,0.00,,---,0.00,VWS V14.01,2013-04-01 13:15:00,
2013-04-01 10:16:00,32.7,26.0,28.61,NW,315,3.1,6.3,76,0.00,,---,0.00,VWS V14.01,2013-04-01 13:16:00,
2013-04-01 10:17:00,32.7,26.3,28.61,NW,315,4.0,4.0,77,0.00,,---,0.00,VWS V14.01,2013-04-01 13:17:00,
2013-04-01 10:18:00,32.7,26.6,28.61,NW,315,4.0,4.0,78,0.00,,---,0.00,VWS V14.01,2013-04-01 13:18:00,
2013-04-01 10:19:00,32.7,26.6,28.61,WNW,292,6.0,6.0,78,0.00,,---,0.00,VWS V14.01,2013-04-01 13:19:00,
2013-04-01 10:20:00,32.7,26.9,28.61,North,0,5.6,6.0,79,0.00,,---,0.00,VWS V14.01,2013-04-01 13:20:00,
2013-04-01 10:21:00,32.7,26.6,28.61,NNW,338,6.0,6.0,78,0.00,,---,0.00,VWS V14.01,2013-04-01 13:21:00,
2013-04-01 10:22:00,32.7,26.6,28.61,NW,315,4.7,6.0,78,0.00,,---,0.00,VWS V14.01,2013-04-01 13:22:00,
2013-04-01 10:23:00,32.7,26.6,28.61,West,270,5.8,5.8,78,0.00,,---,0.00,VWS V14.01,2013-04-01 13:23:00,
2013-04-01 10:24:00,32.7,26.6,28.61,NW,315,3.8,5.8,78,0.00,,---,0.00,VWS V14.01,2013-04-01 13:24:00,
2013-04-01 10:25:00,32.7,26.6,28.61,NW,315,9.6,9.6,78,0.00,,---,0.00,VWS V14.01,2013-04-01 13:25:00,
2013-04-01 10:26:00,32.5,25.8,28.61,NW,315,5.6,9.6,76,0.00,,---,0.00,VWS V14.01,2013-04-01 13:26:00,
2013-04-01 10:27:00,32.7,26.0,28.61,WNW,292,6.0,6.0,76,0.00,,---,0.00,VWS V14.01,2013-04-01 13:27:00,
2013-04-01 10:28:00,32.7,26.3,28.61,North,0,6.5,6.5,77,0.00,,---,0.00,VWS V14.01,2013-04-01 13:28:00,
2013-04-01 10:29:00,32.7,25.7,28.61,NW,315,7.4,7.4,75,0.00,,---,0.00,VWS V14.01,2013-04-01 13:29:00,
2013-04-01 10:30:00,32.9,26.2,28.61,NNW,338,9.8,9.8,76,0.00,,---,0.00,VWS V14.01,2013-04-01 13:30:00,
2013-04-01 10:31:00,32.9,25.9,28.61,West,270,6.9,9.8,75,0.00,,---,0.00,VWS V14.01,2013-04-01 13:31:00,
2013-04-01 10:32:00,33.1,26.4,28.61,North,0,5.8,6.9,76,0.00,,---,0.00,VWS V14.01,2013-04-01 13:32:00,
2013-04-01 10:33:00,33.1,26.4,28.61,NNW,338,10.7,10.7,76,0.00,,---,0.00,VWS V14.01,2013-04-01 13:33:00,
2013-04-01 10:34:00,33.1,24.7,28.61,NNW,338,10.7,10.7,71,0.00,,---,0.00,VWS V14.01,2013-04-01 13:34:00,
2013-04-01 10:35:00,33.1,24.7,28.61,NNW,338,4.9,10.7,71,0.00,,---,0.00,VWS V14.01,2013-04-01 13:35:00,
2013-04-01 10:36:00,33.3,25.6,28.61,NNW,338,6.0,6.0,73,0.00,,---,0.00,VWS V14.01,2013-04-01 13:36:00,
2013-04-01 10:37:00,33.4,25.7,28.61,NW,315,8.1,8.1,73,0.00,,---,0.00,VWS V14.01,2013-04-01 13:37:00,
2013-04-01 10:38:00,33.4,25.1,28.61,West,270,13.0,13.0,71,0.00,,---,0.00,VWS V14.01,2013-04-01 13:38:00,
2013-04-01 10:39:00,33.6,24.5,28.61,West,270,15.2,15.2,69,0.00,,---,0.00,VWS V14.01,2013-04-01 13:39:00,
2013-04-01 10:40:00,33.4,23.7,28.61,NW,315,11.4,15.2,67,0.00,,---,0.00,VWS V14.01,2013-04-01 13:40:00,
2013-04-01 10:41:00,33.4,23.0,28.61,North,0,5.8,11.4,65,0.00,,---,0.00,VWS V14.01,2013-04-01 13:41:00,
2013-04-01 10:42:00,33.4,23.0,28.61,WNW,292,13.0,13.0,65,0.00,,---,0.00,VWS V14.01,2013-04-01 13:42:00,
2013-04-01 10:43:00,33.4,24.0,28.61,NW,315,7.4,13.0,68,0.00,,---,0.00,VWS V14.01,2013-04-01 13:43:00,
2013-04-01 10:44:00,33.4,22.6,28.61,NNW,338,13.2,13.2,64,0.00,,---,0.00,VWS V14.01,2013-04-01 13:44:00,
2013-04-01 10:45:00,33.4,23.0,28.61,NW,315,10.7,13.2,65,0.00,,---,0.00,VWS V14.01,2013-04-01 13:45:00,
2013-04-01 10:46:00,33.4,23.0,28.61,NW,315,10.7,10.7,65,0.00,,---,0.00,VWS V14.01,2013-04-01 13:46:00,
2013-04-01 10:47:00,33.4,23.0,28.61,NW,315,11.9,11.9,65,0.00,,---,0.00,VWS V14.01,2013-04-01 13:47:00,
2013-04-01 10:48:00,33.4,23.0,28.61,NW,315,7.2,11.9,65,0.00,,---,0.00,VWS V14.01,2013-04-01 13:48:00,
2013-04-01 10:49:00,33.4,22.6,28.61,NW,315,7.2,7.2,64,0.00,,---,0.00,VWS V14.01,2013-04-01 13:49:00,
2013-04-01 10:50:00,33.4,22.6,28.61,NW,315,7.2,7.2,64,0.00,,---,0.00,VWS V14.01,2013-04-01 13:50:00,
2013-04-01 10:51:00,33.6,22.8,28.61,NW,315,7.2,7.2,64,0.00,,---,0.00,VWS V14.01,2013-04-01 13:51:00,
2013-04-01 10:52:00,33.8,22.9,28.61,WNW,292,7.8,7.8,64,0.00,,---,0.00,VWS V14.01,2013-04-01 13:52:00,
2013-04-01 10:53:00,34.2,21.7,28.61,West,270,9.6,9.6,60,0.00,,---,0.00,VWS V14.01,2013-04-01 13:53:00,
2013-04-01 10:54:00,34.5,21.7,28.61,WNW,292,8.1,9.6,59,0.00,,---,0.00,VWS V14.01,2013-04-01 13:54:00,
2013-04-01 10:55:00,34.7,22.6,28.61,North,0,17.7,17.7,61,0.00,,---,0.00,VWS V14.01,2013-04-01 13:55:00,
2013-04-01 10:56:00,34.7,22.6,28.61,NW,315,11.0,17.7,61,0.00,,---,0.00,VWS V14.01,2013-04-01 13:56:00,
2013-04-01 10:57:00,34.5,22.1,28.61,NNW,338,12.1,12.1,60,0.00,,---,0.00,VWS V14.01,2013-04-01 13:57:00,
2013-04-01 10:58:00,34.2,20.5,28.61,West,270,12.5,12.5,57,0.00,,---,0.00,VWS V14.01,2013-04-01 13:58:00,
2013-04-01 10:59:00,34.2,20.5,28.61,NW,315,8.5,12.5,57,0.00,,---,0.00,VWS V14.01,2013-04-01 13:59:00,
2013-04-01 11:00:00,34.3,21.5,28.61,NW,315,7.6,8.5,59,0.00,,---,0.00,VWS V14.01,2013-04-01 14:00:00,
2013-04-01 11:01:00,34.3,21.1,28.61,NW,315,10.1,10.1,58,0.00,,---,0.00,VWS V14.01,2013-04-01 14:01:00,
2013-04-01 11:02:00,34.3,21.1,28.61,West,270,6.9,10.1,58,0.00,,---,0.00,VWS V14.01,2013-04-01 14:02:00,
2013-04-01 11:03:00,34.3,21.5,28.61,South,180,6.5,6.9,59,0.00,,---,0.00,VWS V14.01,2013-04-01 14:03:00,
2013-04-01 11:04:00,34.5,22.1,28.61,South,180,6.5,6.5,60,0.00,,---,0.00,VWS V14.01,2013-04-01 14:04:00,
2013-04-01 11:05:00,34.5,22.5,28.61,NW,315,8.1,8.1,61,0.00,,---,0.00,VWS V14.01,2013-04-01 14:05:00,
2013-04-01 11:06:00,34.3,22.3,28.61,NNW,338,6.3,8.1,61,0.00,,---,0.00,VWS V14.01,2013-04-01 14:06:00,
2013-04-01 11:07:00,34.3,21.9,28.61,NW,315,7.4,7.4,60,0.00,,---,0.00,VWS V14.01,2013-04-01 14:07:00,
2013-04-01 11:08:00,34.3,21.5,28.61,NW,315,4.0,7.4,59,0.00,,---,0.00,VWS V14.01,2013-04-01 14:08:00,
2013-04-01 11:09:00,34.3,21.9,28.61,NW,315,7.8,7.8,60,0.00,,---,0.00,VWS V14.01,2013-04-01 14:09:00,
2013-04-01 11:10:00,34.3,21.9,28.61,NW,315,10.5,10.5,60,0.00,,---,0.00,VWS V14.01,2013-04-01 14:10:00,
2013-04-01 11:11:00,34.2,20.9,28.61,North,0,7.8,10.5,58,0.00,,---,0.00,VWS V14.01,2013-04-01 14:11:00,
2013-04-01 11:12:00,34.2,20.5,28.61,North,0,10.5,10.5,57,0.00,,---,0.00,VWS V14.01,2013-04-01 14:12:00,
2013-04-01 11:13:00,34.0,19.5,28.61,North,0,13.2,13.2,55,0.00,,---,0.00,VWS V14.01,2013-04-01 14:13:00,
2013-04-01 11:14:00,34.0,19.5,28.61,WNW,292,8.5,13.2,55,0.00,,---,0.00,VWS V14.01,2013-04-01 14:14:00,
2013-04-01 11:15:00,34.5,20.5,28.61,West,270,8.5,8.5,56,0.00,,---,0.00,VWS V14.01,2013-04-01 14:15:00,
2013-04-01 11:16:00,34.3,19.4,28.61,West,270,10.5,10.5,54,0.00,,---,0.00,VWS V14.01,2013-04-01 14:16:00,
2013-04-01 11:17:00,34.3,19.4,28.61,West,270,6.5,10.5,54,0.00,,---,0.00,VWS V14.01,2013-04-01 14:17:00,
2013-04-01 11:18:00,34.5,20.0,28.61,WNW,292,8.5,8.5,55,0.00,,---,0.00,VWS V14.01,2013-04-01 14:18:00,
2013-04-01 11:19:00,34.5,20.0,28.61,West,270,10.7,10.7,55,0.00,,---,0.00,VWS V14.01,2013-04-01 14:19:00,
2013-04-01 11:20:00,34.5,18.7,28.61,NW,315,16.1,16.1,52,0.00,,---,0.00,VWS V14.01,2013-04-01 14:20:00,
2013-04-01 11:21:00,34.3,18.5,28.61,West,270,11.0,16.1,52,0.00,,---,0.00,VWS V14.01,2013-04-01 14:21:00,
2013-04-01 11:22:00,34.7,18.4,28.61,WNW,292,12.1,12.1,51,0.00,,---,0.00,VWS V14.01,2013-04-01 14:22:00,
2013-04-01 11:23:00,34.7,18.4,28.61,NW,315,10.3,12.1,51,0.00,,---,0.00,VWS V14.01,2013-04-01 14:23:00,
2013-04-01 11:24:00,34.5,18.3,28.61,North,0,4.3,10.3,51,0.00,,---,0.00,VWS V14.01,2013-04-01 14:24:00,
2013-04-01 11:25:00,34.9,17.7,28.64,NW,315,8.5,8.5,49,0.00,,---,0.00,VWS V14.01,2013-04-01 14:25:00,
2013-04-01 11:26:00,34.9,18.1,28.64,West,270,10.1,10.1,50,0.00,,---,0.00,VWS V14.01,2013-04-01 14:26:00,
2013-04-01 11:27:00,34.9,18.6,28.64,NW,315,10.1,10.1,51,0.00,,---,0.00,VWS V14.01,2013-04-01 14:27:00,
2013-04-01 11:28:00,34.9,18.1,28.64,NW,315,12.8,12.8,50,0.00,,---,0.00,VWS V14.01,2013-04-01 14:28:00,
2013-04-01 11:29:00,34.9,18.6,28.64,WNW,292,9.8,12.8,51,0.00,,---,0.00,VWS V14.01,2013-04-01 14:29:00,
2013-04-01 11:30:00,34.5,17.8,28.64,NW,315,12.8,12.8,50,0.00,,---,0.00,VWS V14.01,2013-04-01 14:30:00,
2013-04-01 11:31:00,34.5,17.8,28.64,WNW,292,10.1,12.8,50,0.00,,---,0.00,VWS V14.01,2013-04-01 14:31:00,
2013-04-01 11:32:00,35.1,18.8,28.64,North,0,9.8,10.1,51,0.00,,---,0.00,VWS V14.01,2013-04-01 14:32:00,
2013-04-01 11:33:00,35.4,19.1,28.64,NW,315,8.5,9.8,51,0.00,,---,0.00,VWS V14.01,2013-04-01 14:33:00,
2013-04-01 11:34:00,35.1,17.4,28.64,NW,315,7.8,8.5,48,0.00,,---,0.00,VWS V14.01,2013-04-01 14:34:00,
2013-04-01 11:35:00,35.1,17.8,28.64,WNW,292,14.8,14.8,49,0.00,,---,0.00,VWS V14.01,2013-04-01 14:35:00,
2013-04-01 11:36:00,35.1,17.8,28.64,NW,315,9.8,14.8,49,0.00,,---,0.00,VWS V14.01,2013-04-01 14:36:00,
2013-04-01 11:37:00,35.2,17.5,28.64,NW,315,9.8,9.8,48,0.00,,---,0.00,VWS V14.01,2013-04-01 14:37:00,
2013-04-01 11:38:00,35.4,18.2,28.64,WNW,292,10.5,10.5,49,0.00,,---,0.00,VWS V14.01,2013-04-01 14:38:00,
2013-04-01 11:39:00,35.4,18.6,28.64,NW,315,8.5,10.5,50,0.00,,---,0.00,VWS V14.01,2013-04-01 14:39:00,
2013-04-01 11:40:00,35.2,18.0,28.64,NW,315,13.6,13.6,49,0.00,,---,0.00,VWS V14.01,2013-04-01 14:40:00,
2013-04-01 11:41:00,35.1,17.4,28.64,North,0,10.5,13.6,48,0.00,,---,0.00,VWS V14.01,2013-04-01 14:41:00,
2013-04-01 11:42:00,35.1,16.9,28.64,WNW,292,10.7,10.7,47,0.00,,---,0.00,VWS V14.01,2013-04-01 14:42:00,
2013-04-01 11:43:00,34.9,17.2,28.64,West,270,12.5,12.5,48,0.00,,---,0.00,VWS V14.01,2013-04-01 14:43:00,
2013-04-01 11:44:00,35.6,18.3,28.64,NW,315,5.4,12.5,49,0.00,,---,0.00,VWS V14.01,2013-04-01 14:44:00,
2013-04-01 11:45:00,35.6,18.8,28.64,West,270,10.3,10.3,50,0.00,,---,0.00,VWS V14.01,2013-04-01 14:45:00,
2013-04-01 11:46:00,35.8,18.5,28.64,West,270,10.3,10.3,49,0.00,,---,0.00,VWS V14.01,2013-04-01 14:46:00,
2013-04-01 11:47:00,36.0,18.7,28.64,WNW,292,9.8,10.3,49,0.00,,---,0.00,VWS V14.01,2013-04-01 14:47:00,
2013-04-01 11:48:00,35.6,17.4,28.64,WNW,292,10.3,10.3,47,0.00,,---,0.00,VWS V14.01,2013-04-01 14:48:00,
2013-04-01 11:49:00,35.2,17.0,28.64,West,270,13.2,13.2,47,0.00,,---,0.00,VWS V14.01,2013-04-01 14:49:00,
2013-04-01 11:50:00,35.6,17.9,28.64,NW,315,13.6,13.6,48,0.00,,---,0.00,VWS V14.01,2013-04-01 14:50:00,
2013-04-01 11:51:00,35.4,17.7,28.64,West,270,14.5,14.5,48,0.00,,---,0.00,VWS V14.01,2013-04-01 14:51:00,
2013-04-01 11:52:00,35.6,18.3,28.64,West,270,10.1,14.5,49,0.00,,---,0.00,VWS V14.01,2013-04-01 14:52:00,
2013-04-01 11:53:00,35.4,17.7,28.64,West,270,9.8,10.1,48,0.00,,---,0.00,VWS V14.01,2013-04-01 14:53:00,
2013-04-01 11:54:00,35.2,18.5,28.64,West,270,8.7,9.8,50,0.00,,---,0.00,VWS V14.01,2013-04-01 14:54:00,
2013-04-01 11:55:00,35.4,18.2,28.64,West,270,14.8,14.8,49,0.00,,---,0.00,VWS V14.01,2013-04-01 14:55:00,
2013-04-01 11:56:00,35.4,18.2,28.64,West,270,9.6,14.8,49,0.00,,---,0.00,VWS V14.01,2013-04-01 14:56:00,
2013-04-01 11:57:00,35.6,17.9,28.64,NW,315,10.5,10.5,48,0.00,,---,0.00,VWS V14.01,2013-04-01 14:57:00,
2013-04-01 11:58:00,35.6,16.9,28.64,NW,315,8.1,10.5,46,0.00,,---,0.00,VWS V14.01,2013-04-01 14:58:00,
2013-04-01 11:59:00,35.6,16.4,28.64,West,270,15.4,15.4,45,0.00,,---,0.00,VWS V14.01,2013-04-01 14:59:00,
2013-04-01 12:00:00,35.4,15.7,28.64,West,270,15.4,15.4,44,0.00,,---,0.00,VWS V14.01,2013-04-01 15:00:00,
2013-04-01 12:01:00,35.6,16.4,28.64,West,270,15.4,15.4,45,0.00,,---,0.00,VWS V14.01,2013-04-01 15:01:00,
2013-04-01 12:02:00,36.1,17.9,28.64,West,270,15.4,15.4,47,0.00,,---,0.00,VWS V14.01,2013-04-01 15:02:00,
2013-04-01 12:03:00,36.1,16.9,28.64,West,270,10.7,15.4,45,0.00,,---,0.00,VWS V14.01,2013-04-01 15:03:00,
2013-04-01 12:04:00,36.1,15.8,28.64,West,270,10.7,10.7,43,0.00,,---,0.00,VWS V14.01,2013-04-01 15:04:00,
2013-04-01 12:05:00,36.1,15.8,28.64,West,270,17.5,17.5,43,0.00,,---,0.00,VWS V14.01,2013-04-01 15:05:00,
2013-04-01 12:06:00,36.3,16.5,28.64,NW,315,10.5,17.5,44,0.00,,---,0.00,VWS V14.01,2013-04-01 15:06:00,
2013-04-01 12:07:00,36.1,15.8,28.64,NNW,338,11.0,11.0,43,0.00,,---,0.00,VWS V14.01,2013-04-01 15:07:00,
2013-04-01 12:08:00,36.1,15.8,28.64,West,270,8.7,11.0,43,0.00,,---,0.00,VWS V14.01,2013-04-01 15:08:00,
2013-04-01 12:09:00,36.1,16.4,28.64,West,270,8.7,8.7,44,0.00,,---,0.00,VWS V14.01,2013-04-01 15:09:00,
2013-04-01 12:10:00,36.1,16.4,28.67,West,270,14.5,14.5,44,0.00,,---,0.00,VWS V14.01,2013-04-01 15:10:00,
2013-04-01 12:11:00,36.3,17.0,28.67,West,270,14.8,14.8,45,0.00,,---,0.00,VWS V14.01,2013-04-01 15:11:00,
2013-04-01 12:12:00,36.7,16.8,28.67,NW,315,10.7,14.8,44,0.00,,---,0.00,VWS V14.01,2013-04-01 15:12:00,
2013-04-01 12:13:00,36.3,16.5,28.67,NW,315,8.7,10.7,44,0.00,,---,0.00,VWS V14.01,2013-04-01 15:13:00,
2013-04-01 12:14:00,36.7,16.8,28.67,West,270,10.1,10.1,44,0.00,,---,0.00,VWS V14.01,2013-04-01 15:14:00,
2013-04-01 12:15:00,36.7,16.8,28.67,NW,315,17.0,17.0,44,0.00,,---,0.00,VWS V14.01,2013-04-01 15:15:00,
2013-04-01 12:16:00,36.5,16.7,28.67,WNW,292,10.7,17.0,44,0.00,,---,0.00,VWS V14.01,2013-04-01 15:16:00,
2013-04-01 12:17:00,36.9,18.0,28.67,WNW,292,9.8,10.7,46,0.00,,---,0.00,VWS V14.01,2013-04-01 15:17:00,
2013-04-01 12:18:00,36.3,17.0,28.67,SW,225,19.0,19.0,45,0.00,,---,0.00,VWS V14.01,2013-04-01 15:18:00,
2013-04-01 12:19:00,35.6,15.9,28.67,WNW,292,15.4,19.0,44,0.00,,---,0.00,VWS V14.01,2013-04-01 15:19:00,
2013-04-01 12:20:00,35.6,15.9,28.67,WNW,292,10.7,15.4,44,0.00,,---,0.00,VWS V14.01,2013-04-01 15:20:00,
2013-04-01 12:21:00,34.9,15.2,28.67,NW,315,7.6,10.7,44,0.00,,---,0.00,VWS V14.01,2013-04-01 15:21:00,
2013-04-01 12:22:00,34.9,15.2,28.67,NNW,338,13.2,13.2,44,0.00,,---,0.00,VWS V14.01,2013-04-01 15:22:00,
2013-04-01 12:23:00,34.9,15.2,28.67,West,270,14.5,14.5,44,0.00,,---,0.00,VWS V14.01,2013-04-01 15:23:00,
2013-04-01 12:24:00,34.9,15.2,28.67,NW,315,12.5,14.5,44,0.00,,---,0.00,VWS V14.01,2013-04-01 15:24:00,
2013-04-01 12:25:00,34.7,15.0,28.67,NNW,338,12.1,12.5,44,0.00,,---,0.00,VWS V14.01,2013-04-01 15:25:00,
2013-04-01 12:26:00,34.7,15.0,28.67,NNW,338,8.7,12.1,44,0.00,,---,0.00,VWS V14.01,2013-04-01 15:26:00,
2013-04-01 12:27:00,34.7,14.5,28.67,NW,315,15.2,15.2,43,0.00,,---,0.00,VWS V14.01,2013-04-01 15:27:00,
2013-04-01 12:28:00,34.9,15.2,28.67,NW,315,12.5,15.2,44,0.00,,---,0.00,VWS V14.01,2013-04-01 15:28:00,
2013-04-01 12:30:00,35.1,14.8,28.67,NW,315,13.2,13.2,43,0.00,,---,0.00,VWS V14.01,2013-04-01 15:30:00,
2013-04-01 12:31:00,35.1,15.4,28.67,NW,315,14.8,14.8,44,0.00,,---,0.00,VWS V14.01,2013-04-01 15:31:00,
2013-04-01 12:32:00,34.9,14.7,28.67,NW,315,12.5,14.8,43,0.00,,---,0.00,VWS V14.01,2013-04-01 15:32:00,
2013-04-01 12:33:00,34.5,14.9,28.67,NW,315,12.1,12.5,44,0.00,,---,0.00,VWS V14.01,2013-04-01 15:33:00,
2013-04-01 12:34:00,34.7,14.5,28.67,NNW,338,19.9,19.9,43,0.00,,---,0.00,VWS V14.01,2013-04-01 15:34:00,
2013-04-01 12:35:00,34.9,14.7,28.67,NNW,338,19.9,19.9,43,0.00,,---,0.00,VWS V14.01,2013-04-01 15:35:00,
2013-04-01 12:36:00,34.7,14.5,28.67,West,270,12.3,19.9,43,0.00,,---,0.00,VWS V14.01,2013-04-01 15:36:00,
2013-04-01 12:37:00,35.4,16.2,28.67,West,270,8.5,12.3,45,0.00,,---,0.00,VWS V14.01,2013-04-01 15:37:00,
2013-04-01 12:39:00,36.3,17.0,28.67,NW,315,12.1,12.1,45,0.00,,---,0.00,VWS V14.01,2013-04-01 15:39:00,
2013-04-01 12:40:00,36.1,15.8,28.67,NW,315,12.1,12.1,43,0.00,,---,0.00,VWS V14.01,2013-04-01 15:40:00,
2013-04-01 12:41:00,36.1,15.8,28.67,West,270,12.1,12.1,43,0.00,,---,0.00,VWS V14.01,2013-04-01 15:41:00,
2013-04-01 12:42:00,36.3,16.0,28.67,West,270,17.7,17.7,43,0.00,,---,0.00,VWS V14.01,2013-04-01 15:42:00,
2013-04-01 12:43:00,36.1,15.8,28.67,NW,315,10.3,17.7,43,0.00,,---,0.00,VWS V14.01,2013-04-01 15:43:00,
2013-04-01 12:44:00,36.0,15.6,28.67,NW,315,19.5,19.5,43,0.00,,---,0.00,VWS V14.01,2013-04-01 15:44:00,
2013-04-01 12:45:00,36.1,15.8,28.67,NW,315,8.7,19.5,43,0.00,,---,0.00,VWS V14.01,2013-04-01 15:45:00,
2013-04-01 12:46:00,35.8,14.9,28.67,NW,315,8.7,8.7,42,0.00,,---,0.00,VWS V14.01,2013-04-01 15:46:00,
2013-04-01 12:47:00,35.6,15.3,28.67,NW,315,5.8,8.7,43,0.00,,---,0.00,VWS V14.01,2013-04-01 15:47:00,
2013-04-01 12:48:00,36.1,16.4,28.67,NNW,338,7.4,7.4,44,0.00,,---,0.00,VWS V14.01,2013-04-01 15:48:00,
2013-04-01 12:49:00,36.1,16.4,28.67,SW,225,7.6,7.6,44,0.00,,---,0.00,VWS V14.01,2013-04-01 15:49:00,
2013-04-01 12:50:00,36.1,16.4,28.67,NW,315,11.0,11.0,44,0.00,,---,0.00,VWS V14.01,2013-04-01 15:50:00,
2013-04-01 12:51:00,36.1,15.8,28.67,NW,315,12.8,12.8,43,0.00,,---,0.00,VWS V14.01,2013-04-01 15:51:00,
2013-04-01 12:52:00,35.4,15.2,28.67,NW,315,15.4,15.4,43,0.00,,---,0.00,VWS V14.01,2013-04-01 15:52:00,
2013-04-01 12:53:00,35.1,14.8,28.67,WNW,292,14.3,15.4,43,0.00,,---,0.00,VWS V14.01,2013-04-01 15:53:00,
2013-04-01 12:54:00,34.9,14.7,28.67,NW,315,10.7,14.3,43,0.00,,---,0.00,VWS V14.01,2013-04-01 15:54:00,
2013-04-01 12:55:00,35.2,15.5,28.64,North,0,11.0,11.0,44,0.00,,---,0.00,VWS V14.01,2013-04-01 15:55:00,
2013-04-01 12:56:00,35.6,16.4,28.64,West,270,10.1,11.0,45,0.00,,---,0.00,VWS V14.01,2013-04-01 15:56:00,
2013-04-01 12:57:00,35.6,16.4,28.64,NW,315,13.0,13.0,45,0.00,,---,0.00,VWS V14.01,2013-04-01 15:57:00,
2013-04-01 12:58:00,35.6,14.8,28.64,SW,225,19.5,19.5,42,0.00,,---,0.00,VWS V14.01,2013-04-01 15:58:00,
2013-04-01 12:59:00,35.4,15.2,28.64,West,270,15.4,19.5,43,0.00,,---,0.00,VWS V14.01,2013-04-01 15:59:00,
2013-04-01 13:00:00,35.6,14.8,28.64,NW,315,13.6,15.4,42,0.00,,---,0.00,VWS V14.01,2013-04-01 16:00:00,
2013-04-01 13:01:00,35.1,14.3,28.64,NW,315,14.8,14.8,42,0.00,,---,0.00,VWS V14.01,2013-04-01 16:01:00,
2013-04-01 13:02:00,35.1,14.8,28.64,NW,315,12.5,14.8,43,0.00,,---,0.00,VWS V14.01,2013-04-01 16:02:00,
2013-04-01 13:03:00,34.9,14.1,28.64,NNW,338,10.3,12.5,42,0.00,,---,0.00,VWS V14.01,2013-04-01 16:03:00,
2013-04-01 13:04:00,34.7,14.0,28.64,WNW,292,8.7,10.3,42,0.00,,---,0.00,VWS V14.01,2013-04-01 16:04:00,
2013-04-01 13:05:00,34.3,13.6,28.64,NW,315,12.8,12.8,42,0.00,,---,0.00,VWS V14.01,2013-04-01 16:05:00,
2013-04-01 13:06:00,34.3,14.2,28.64,NW,315,16.8,16.8,43,0.00,,---,0.00,VWS V14.01,2013-04-01 16:06:00,
2013-04-01 13:07:00,34.0,13.3,28.64,NW,315,17.0,17.0,42,0.00,,---,0.00,VWS V14.01,2013-04-01 16:07:00,
2013-04-01 13:08:00,34.3,13.6,28.64,West,270,12.8,17.0,42,0.00,,---,0.00,VWS V14.01,2013-04-01 16:08:00,
2013-04-01 13:09:00,34.2,13.5,28.64,West,270,12.8,12.8,42,0.00,,---,0.00,VWS V14.01,2013-04-01 16:09:00,
2013-04-01 13:10:00,34.7,14.0,28.67,NNW,338,10.3,12.8,42,0.00,,---,0.00,VWS V14.01,2013-04-01 16:10:00,
2013-04-01 13:11:00,34.9,14.7,28.67,WNW,292,15.4,15.4,43,0.00,,---,0.00,VWS V14.01,2013-04-01 16:11:00,
2013-04-01 13:12:00,35.1,14.8,28.67,WNW,292,10.3,15.4,43,0.00,,---,0.00,VWS V14.01,2013-04-01 16:12:00,
2013-04-01 13:13:00,35.1,14.3,28.67,WNW,292,10.3,10.3,42,0.00,,---,0.00,VWS V14.01,2013-04-01 16:13:00,
2013-04-01 13:14:00,35.4,14.6,28.67,NNW,338,12.8,12.8,42,0.00,,---,0.00,VWS V14.01,2013-04-01 16:14:00,
2013-04-01 13:15:00,35.4,14.6,28.67,NNW,338,12.8,12.8,42,0.00,,---,0.00,VWS V14.01,2013-04-01 16:15:00,
2013-04-01 13:16:00,35.6,14.8,28.67,NW,315,11.9,12.8,42,0.00,,---,0.00,VWS V14.01,2013-04-01 16:16:00,
2013-04-01 13:17:00,35.8,14.4,28.67,NW,315,11.9,11.9,41,0.00,,---,0.00,VWS V14.01,2013-04-01 16:17:00,
2013-04-01 13:18:00,36.1,15.8,28.67,NW,315,11.9,11.9,43,0.00,,---,0.00,VWS V14.01,2013-04-01 16:18:00,
2013-04-01 13:19:00,36.1,15.8,28.67,NW,315,16.8,16.8,43,0.00,,---,0.00,VWS V14.01,2013-04-01 16:19:00,
2013-04-01 13:20:00,36.0,14.0,28.67,WNW,292,13.0,16.8,40,0.00,,---,0.00,VWS V14.01,2013-04-01 16:20:00,
2013-04-01 13:21:00,35.8,13.8,28.67,WNW,292,13.0,13.0,40,0.00,,---,0.00,VWS V14.01,2013-04-01 16:21:00,
2013-04-01 13:23:00,36.1,14.7,28.67,WSW,248,14.5,14.5,41,0.00,,---,0.00,VWS V14.01,2013-04-01 16:23:00,
2013-04-01 13:24:00,36.3,14.9,28.67,West,270,8.1,14.5,41,0.00,,---,0.00,VWS V14.01,2013-04-01 16:24:00,
2013-04-01 13:25:00,36.5,15.1,28.64,West,270,10.1,10.1,41,0.00,,---,0.00,VWS V14.01,2013-04-01 16:25:00,
2013-04-01 13:26:00,36.5,15.1,28.64,West,270,10.1,10.1,41,0.00,,---,0.00,VWS V14.01,2013-04-01 16:26:00,
2013-04-01 13:27:00,36.7,15.8,28.64,West,270,10.1,10.1,42,0.00,,---,0.00,VWS V14.01,2013-04-01 16:27:00,
2013-04-01 13:28:00,36.7,15.2,28.64,West,270,10.7,10.7,41,0.00,,---,0.00,VWS V14.01,2013-04-01 16:28:00,
2013-04-01 13:29:00,36.7,15.2,28.64,West,270,11.0,11.0,41,0.00,,---,0.00,VWS V14.01,2013-04-01 16:29:00,
2013-04-01 13:30:00,36.5,14.5,28.64,West,270,10.3,11.0,40,0.00,,---,0.00,VWS V14.01,2013-04-01 16:30:00,
2013-04-01 13:31:00,36.5,14.5,28.64,SW,225,10.5,10.5,40,0.00,,---,0.00,VWS V14.01,2013-04-01 16:31:00,
2013-04-01 13:32:00,36.7,15.2,28.64,NW,315,13.2,13.2,41,0.00,,---,0.00,VWS V14.01,2013-04-01 16:32:00,
2013-04-01 13:33:00,36.7,15.2,28.64,NW,315,12.8,13.2,41,0.00,,---,0.00,VWS V14.01,2013-04-01 16:33:00,
2013-04-01 13:34:00,36.3,14.9,28.64,NW,315,10.7,12.8,41,0.00,,---,0.00,VWS V14.01,2013-04-01 16:34:00,
2013-04-01 13:35:00,35.8,14.4,28.64,West,270,10.7,10.7,41,0.00,,---,0.00,VWS V14.01,2013-04-01 16:35:00,
2013-04-01 13:36:00,36.0,14.6,28.64,NW,315,6.5,10.7,41,0.00,,---,0.00,VWS V14.01,2013-04-01 16:36:00,
2013-04-01 13:37:00,35.2,13.9,28.64,West,270,13.2,13.2,41,0.00,,---,0.00,VWS V14.01,2013-04-01 16:37:00,
2013-04-01 13:38:00,35.1,13.8,28.64,NW,315,6.5,13.2,41,0.00,,---,0.00,VWS V14.01,2013-04-01 16:38:00,
2013-04-01 13:39:00,35.1,13.8,28.64,NNW,338,9.6,9.6,41,0.00,,---,0.00,VWS V14.01,2013-04-01 16:39:00,
2013-04-01 13:40:00,35.1,13.8,28.67,West,270,17.7,17.7,41,0.00,,---,0.00,VWS V14.01,2013-04-01 16:40:00,
2013-04-01 13:41:00,34.9,13.6,28.67,NW,315,6.3,17.7,41,0.00,,---,0.00,VWS V14.01,2013-04-01 16:41:00,
2013-04-01 13:42:00,34.9,13.6,28.67,West,270,9.2,9.2,41,0.00,,---,0.00,VWS V14.01,2013-04-01 16:42:00,
2013-04-01 13:43:00,35.6,14.8,28.67,NW,315,6.3,9.2,42,0.00,,---,0.00,VWS V14.01,2013-04-01 16:43:00,
2013-04-01 13:44:00,36.1,15.3,28.67,WNW,292,11.9,11.9,42,0.00,,---,0.00,VWS V14.01,2013-04-01 16:44:00,
2013-04-01 13:45:00,36.5,16.1,28.67,NW,315,7.8,11.9,43,0.00,,---,0.00,VWS V14.01,2013-04-01 16:45:00,
2013-04-01 13:46:00,36.3,15.4,28.67,West,270,13.0,13.0,42,0.00,,---,0.00,VWS V14.01,2013-04-01 16:46:00,
2013-04-01 13:47:00,35.6,14.2,28.67,WNW,292,12.8,13.0,41,0.00,,---,0.00,VWS V14.01,2013-04-01 16:47:00,
2013-04-01 13:48:00,35.4,14.1,28.67,NW,315,7.4,12.8,41,0.00,,---,0.00,VWS V14.01,2013-04-01 16:48:00,
2013-04-01 13:49:00,35.2,15.0,28.67,West,270,16.3,16.3,43,0.00,,---,0.00,VWS V14.01,2013-04-01 16:49:00,
2013-04-01 13:50:00,35.4,14.6,28.67,NW,315,15.7,16.3,42,0.00,,---,0.00,VWS V14.01,2013-04-01 16:50:00,
2013-04-01 13:51:00,34.9,13.6,28.67,West,270,13.2,15.7,41,0.00,,---,0.00,VWS V14.01,2013-04-01 16:51:00,
2013-04-01 13:52:00,34.5,13.3,28.67,NW,315,11.9,13.2,41,0.00,,---,0.00,VWS V14.01,2013-04-01 16:52:00,
2013-04-01 13:53:00,34.7,13.4,28.67,NW,315,13.0,13.0,41,0.00,,---,0.00,VWS V14.01,2013-04-01 16:53:00,
2013-04-01 13:54:00,34.5,13.3,28.67,North,0,10.5,13.0,41,0.00,,---,0.00,VWS V14.01,2013-04-01 16:54:00,
2013-04-01 13:55:00,34.9,13.6,28.70,NW,315,10.3,10.5,41,0.00,,---,0.00,VWS V14.01,2013-04-01 16:55:00,
2013-04-01 13:56:00,34.9,13.6,28.70,NW,315,13.0,13.0,41,0.00,,---,0.00,VWS V14.01,2013-04-01 16:56:00,
2013-04-01 13:57:00,35.1,13.8,28.70,NNW,338,6.7,13.0,41,0.00,,---,0.00,VWS V14.01,2013-04-01 16:57:00,
2013-04-01 13:58:00,34.9,13.6,28.70,NW,315,9.8,9.8,41,0.00,,---,0.00,VWS V14.01,2013-04-01 16:58:00,
2013-04-01 13:59:00,34.7,14.0,28.70,West,270,13.4,13.4,42,0.00,,---,0.00,VWS V14.01,2013-04-01 16:59:00,
2013-04-01 14:00:00,34.5,13.8,28.70,NW,315,10.5,13.4,42,0.00,,---,0.00,VWS V14.01,2013-04-01 17:00:00,
2013-04-01 14:01:00,34.3,13.1,28.70,NW,315,10.1,10.5,41,0.00,,---,0.00,VWS V14.01,2013-04-01 17:01:00,
2013-04-01 14:02:00,34.3,13.1,28.70,NW,315,13.2,13.2,41,0.00,,---,0.00,VWS V14.01,2013-04-01 17:02:00,
2013-04-01 14:03:00,35.1,13.8,28.70,WNW,292,10.7,13.2,41,0.00,,---,0.00,VWS V14.01,2013-04-01 17:03:00,
2013-04-01 14:04:00,35.6,13.7,28.70,WNW,292,10.7,10.7,40,0.00,,---,0.00,VWS V14.01,2013-04-01 17:04:00,
2013-04-01 14:05:00,35.8,14.4,28.70,WNW,292,10.7,10.7,41,0.00,,---,0.00,VWS V14.01,2013-04-01 17:05:00,
2013-04-01 14:06:00,36.0,14.0,28.70,West,270,16.8,16.8,40,0.00,,---,0.00,VWS V14.01,2013-04-01 17:06:00,
2013-04-01 14:07:00,36.3,14.9,28.70,North,0,10.3,16.8,41,0.00,,---,0.00,VWS V14.01,2013-04-01 17:07:00,
2013-04-01 14:08:00,36.7,14.6,28.70,West,270,13.0,13.0,40,0.00,,---,0.00,VWS V14.01,2013-04-01 17:08:00,
2013-04-01 14:09:00,36.7,15.2,28.70,West,270,10.1,13.0,41,0.00,,---,0.00,VWS V14.01,2013-04-01 17:09:00,
2013-04-01 14:10:00,36.3,14.3,28.70,SW,225,14.8,14.8,40,0.00,,---,0.00,VWS V14.01,2013-04-01 17:10:00,
2013-04-01 14:11:00,36.1,14.2,28.70,WNW,292,8.5,14.8,40,0.00,,---,0.00,VWS V14.01,2013-04-01 17:11:00,
2013-04-01 14:12:00,36.0,14.0,28.70,NNW,338,12.8,12.8,40,0.00,,---,0.00,VWS V14.01,2013-04-01 17:12:00,
2013-04-01 14:13:00,36.7,14.6,28.70,West,270,13.2,13.2,40,0.00,,---,0.00,VWS V14.01,2013-04-01 17:13:00,
2013-04-01 14:14:00,36.9,15.4,28.70,NW,315,7.4,13.2,41,0.00,,---,0.00,VWS V14.01,2013-04-01 17:14:00,
2013-04-01 14:15:00,37.0,15.5,28.70,NW,315,7.6,7.6,41,0.00,,---,0.00,VWS V14.01,2013-04-01 17:15:00,
2013-04-01 14:16:00,36.5,15.1,28.70,West,270,13.6,13.6,41,0.00,,---,0.00,VWS V14.01,2013-04-01 17:16:00,
2013-04-01 14:17:00,36.5,15.1,28.70,NW,315,10.5,13.6,41,0.00,,---,0.00,VWS V14.01,2013-04-01 17:17:00,
2013-04-01 14:18:00,36.5,15.1,28.70,NNW,338,9.4,10.5,41,0.00,,---,0.00,VWS V14.01,2013-04-01 17:18:00,
2013-04-01 14:19:00,35.4,14.1,28.70,North,0,10.5,10.5,41,0.00,,---,0.00,VWS V14.01,2013-04-01 17:19:00,
2013-04-01 14:20:00,35.2,14.5,28.70,NNW,338,7.4,10.5,42,0.00,,---,0.00,VWS V14.01,2013-04-01 17:20:00,
2013-04-01 14:21:00,34.7,13.4,28.70,NW,315,16.6,16.6,41,0.00,,---,0.00,VWS V14.01,2013-04-01 17:21:00,
2013-04-01 14:22:00,34.7,13.4,28.70,NW,315,8.5,16.6,41,0.00,,---,0.00,VWS V14.01,2013-04-01 17:22:00,
2013-04-01 14:23:00,35.1,13.8,28.70,North,0,11.0,11.0,41,0.00,,---,0.00,VWS V14.01,2013-04-01 17:23:00,
2013-04-01 14:24:00,35.1,13.8,28.70,NW,315,7.8,11.0,41,0.00,,---,0.00,VWS V14.01,2013-04-01 17:24:00,
2013-04-01 14:25:00,34.9,13.6,28.70,West,270,8.7,8.7,41,0.00,,---,0.00,VWS V14.01,2013-04-01 17:25:00,
2013-04-01 14:26:00,34.9,13.6,28.70,North,0,13.0,13.0,41,0.00,,---,0.00,VWS V14.01,2013-04-01 17:26:00,
2013-04-01 14:27:00,34.5,13.3,28.70,NNW,338,7.4,13.0,41,0.00,,---,0.00,VWS V14.01,2013-04-01 17:27:00,
2013-04-01 14:28:00,34.3,13.1,28.70,North,0,10.3,10.3,41,0.00,,---,0.00,VWS V14.01,2013-04-01 17:28:00,
2013-04-01 14:29:00,34.2,12.9,28.70,North,0,6.3,10.3,41,0.00,,---,0.00,VWS V14.01,2013-04-01 17:29:00,
2013-04-01 14:30:00,34.2,12.9,28.70,NW,315,10.7,10.7,41,0.00,,---,0.00,VWS V14.01,2013-04-01 17:30:00,
2013-04-01 14:31:00,34.2,12.9,28.70,North,0,7.8,10.7,41,0.00,,---,0.00,VWS V14.01,2013-04-01 17:31:00,
2013-04-01 14:32:00,34.3,13.1,28.70,North,0,5.4,7.8,41,0.00,,---,0.00,VWS V14.01,2013-04-01 17:32:00,
2013-04-01 14:33:00,35.2,13.9,28.70,WNW,292,8.7,8.7,41,0.00,,---,0.00,VWS V14.01,2013-04-01 17:33:00,
2013-04-01 14:34:00,35.4,14.1,28.70,NW,315,7.6,8.7,41,0.00,,---,0.00,VWS V14.01,2013-04-01 17:34:00,
2013-04-01 14:35:00,35.4,14.1,28.70,West,270,15.2,15.2,41,0.00,,---,0.00,VWS V14.01,2013-04-01 17:35:00,
2013-04-01 14:36:00,36.1,14.2,28.70,West,270,7.6,15.2,40,0.00,,---,0.00,VWS V14.01,2013-04-01 17:36:00,
2013-04-01 14:37:00,36.1,14.2,28.70,SW,225,12.8,12.8,40,0.00,,---,0.00,VWS V14.01,2013-04-01 17:37:00,
2013-04-01 14:38:00,35.4,14.1,28.70,West,270,10.7,12.8,41,0.00,,---,0.00,VWS V14.01,2013-04-01 17:38:00,
2013-04-01 14:39:00,35.2,13.4,28.70,West,270,8.1,10.7,40,0.00,,---,0.00,VWS V14.01,2013-04-01 17:39:00,
2013-04-01 14:40:00,34.9,13.0,28.70,NW,315,6.7,8.1,40,0.00,,---,0.00,VWS V14.01,2013-04-01 17:40:00,
2013-04-01 14:41:00,35.1,13.2,28.70,North,0,8.5,8.5,40,0.00,,---,0.00,VWS V14.01,2013-04-01 17:41:00,
2013-04-01 14:42:00,35.1,13.2,28.70,North,0,8.5,8.5,40,0.00,,---,0.00,VWS V14.01,2013-04-01 17:42:00,
2013-04-01 14:43:00,34.9,13.6,28.70,North,0,3.8,8.5,41,0.00,,---,0.00,VWS V14.01,2013-04-01 17:43:00,
2013-04-01 14:44:00,35.1,13.8,28.70,North,0,3.8,3.8,41,0.00,,---,0.00,VWS V14.01,2013-04-01 17:44:00,
2013-04-01 14:45:00,35.1,13.8,28.70,NNW,338,15.2,15.2,41,0.00,,---,0.00,VWS V14.01,2013-04-01 17:45:00,
2013-04-01 14:46:00,34.3,13.1,28.70,NW,315,11.0,15.2,41,0.00,,---,0.00,VWS V14.01,2013-04-01 17:46:00,
2013-04-01 14:47:00,34.3,13.1,28.70,North,0,12.1,12.1,41,0.00,,---,0.00,VWS V14.01,2013-04-01 17:47:00,
2013-04-01 14:48:00,34.2,12.9,28.70,NNW,338,6.5,12.1,41,0.00,,---,0.00,VWS V14.01,2013-04-01 17:48:00,
2013-04-01 14:49:00,34.0,12.8,28.70,West,270,10.5,10.5,41,0.00,,---,0.00,VWS V14.01,2013-04-01 17:49:00,
2013-04-01 14:50:00,34.2,12.9,28.70,West,270,10.5,10.5,41,0.00,,---,0.00,VWS V14.01,2013-04-01 17:50:00,
2013-04-01 14:51:00,34.0,12.8,28.70,NNW,338,14.8,14.8,41,0.00,,---,0.00,VWS V14.01,2013-04-01 17:51:00,
2013-04-01 14:52:00,34.0,12.8,28.70,NW,315,9.8,14.8,41,0.00,,---,0.00,VWS V14.01,2013-04-01 17:52:00,
2013-04-01 14:53:00,34.9,13.6,28.70,NW,315,8.5,9.8,41,0.00,,---,0.00,VWS V14.01,2013-04-01 17:53:00,
2013-04-01 14:54:00,34.5,13.3,28.70,NW,315,11.0,11.0,41,0.00,,---,0.00,VWS V14.01,2013-04-01 17:54:00,
2013-04-01 14:55:00,34.2,12.4,28.73,NW,315,13.2,13.2,40,0.00,,---,0.00,VWS V14.01,2013-04-01 17:55:00,
2013-04-01 14:56:00,34.2,12.9,28.73,NW,315,8.7,13.2,41,0.00,,---,0.00,VWS V14.01,2013-04-01 17:56:00,
2013-04-01 14:57:00,34.0,12.2,28.73,North,0,15.4,15.4,40,0.00,,---,0.00,VWS V14.01,2013-04-01 17:57:00,
2013-04-01 14:58:00,33.8,12.1,28.73,NW,315,9.6,15.4,40,0.00,,---,0.00,VWS V14.01,2013-04-01 17:58:00,
2013-04-01 14:59:00,33.6,12.4,28.73,NNW,338,13.2,13.2,41,0.00,,---,0.00,VWS V14.01,2013-04-01 17:59:00,
2013-04-01 15:00:00,33.6,12.4,28.73,North,0,13.6,13.6,41,0.00,,---,0.00,VWS V14.01,2013-04-01 18:00:00,
2013-04-01 15:01:00,34.0,12.8,28.73,WNW,292,10.7,13.6,41,0.00,,---,0.00,VWS V14.01,2013-04-01 18:01:00,
2013-04-01 15:02:00,33.6,11.9,28.73,West,270,9.8,10.7,40,0.00,,---,0.00,VWS V14.01,2013-04-01 18:02:00,
2013-04-01 15:03:00,34.0,12.2,28.73,WSW,248,7.8,9.8,40,0.00,,---,0.00,VWS V14.01,2013-04-01 18:03:00,
2013-04-01 15:04:00,34.5,12.7,28.73,West,270,12.8,12.8,40,0.00,,---,0.00,VWS V14.01,2013-04-01 18:04:00,
2013-04-01 15:05:00,35.1,13.8,28.73,NNW,338,7.2,12.8,41,0.00,,---,0.00,VWS V14.01,2013-04-01 18:05:00,
2013-04-01 15:06:00,35.4,13.5,28.73,NW,315,11.0,11.0,40,0.00,,---,0.00,VWS V14.01,2013-04-01 18:06:00,
2013-04-01 15:07:00,35.8,13.8,28.73,NW,315,12.8,12.8,40,0.00,,---,0.00,VWS V14.01,2013-04-01 18:07:00,
2013-04-01 15:08:00,36.3,14.9,28.73,NW,315,7.4,12.8,41,0.00,,---,0.00,VWS V14.01,2013-04-01 18:08:00,
2013-04-01 15:09:00,35.6,13.1,28.73,West,270,14.8,14.8,39,0.00,,---,0.00,VWS V14.01,2013-04-01 18:09:00,
2013-04-01 15:10:00,35.2,11.6,28.73,West,270,10.1,14.8,37,0.00,,---,0.00,VWS V14.01,2013-04-01 18:10:00,
2013-04-01 15:11:00,35.4,13.5,28.73,West,270,13.2,13.2,40,0.00,,---,0.00,VWS V14.01,2013-04-01 18:11:00,
2013-04-01 15:12:00,35.8,13.3,28.73,West,270,9.6,13.2,39,0.00,,---,0.00,VWS V14.01,2013-04-01 18:12:00,
2013-04-01 15:14:00,36.0,14.0,28.73,West,270,9.2,9.6,40,0.00,,---,0.00,VWS V14.01,2013-04-01 18:14:00,
2013-04-01 15:15:00,35.8,13.8,28.73,West,270,7.8,9.2,40,0.00,,---,0.00,VWS V14.01,2013-04-01 18:15:00,
2013-04-01 15:16:00,37.0,15.0,28.73,West,270,7.4,7.8,40,0.00,,---,0.00,VWS V14.01,2013-04-01 18:16:00,
2013-04-01 15:17:00,36.9,14.8,28.73,NW,315,5.6,7.4,40,0.00,,---,0.00,VWS V14.01,2013-04-01 18:17:00,
2013-04-01 15:18:00,36.7,14.6,28.73,West,270,19.2,19.2,40,0.00,,---,0.00,VWS V14.01,2013-04-01 18:18:00,
2013-04-01 15:19:00,36.7,14.6,28.73,WNW,292,13.0,19.2,40,0.00,,---,0.00,VWS V14.01,2013-04-01 18:19:00,
2013-04-01 15:20:00,36.7,14.6,28.73,West,270,13.0,13.0,40,0.00,,---,0.00,VWS V14.01,2013-04-01 18:20:00,
2013-04-01 15:21:00,36.3,14.3,28.73,NW,315,7.6,13.0,40,0.00,,---,0.00,VWS V14.01,2013-04-01 18:21:00,
2013-04-01 15:22:00,36.3,14.3,28.73,West,270,8.5,8.5,40,0.00,,---,0.00,VWS V14.01,2013-04-01 18:22:00,
2013-04-01 15:23:00,36.0,14.0,28.73,NW,315,12.1,12.1,40,0.00,,---,0.00,VWS V14.01,2013-04-01 18:23:00,
2013-04-01 15:24:00,35.4,13.5,28.73,WNW,292,10.7,12.1,40,0.00,,---,0.00,VWS V14.01,2013-04-01 18:24:00,
2013-04-01 15:25:00,36.0,14.0,28.73,NNW,338,5.8,10.7,40,0.00,,---,0.00,VWS V14.01,2013-04-01 18:25:00,
2013-04-01 15:26:00,36.1,13.6,28.73,NW,315,6.9,6.9,39,0.00,,---,0.00,VWS V14.01,2013-04-01 18:26:00,
2013-04-01 15:27:00,36.3,14.3,28.73,North,0,10.1,10.1,40,0.00,,---,0.00,VWS V14.01,2013-04-01 18:27:00,
2013-04-01 15:29:00,35.4,12.9,28.73,North,0,7.4,10.1,39,0.00,,---,0.00,VWS V14.01,2013-04-01 18:29:00,
2013-04-01 15:30:00,35.1,13.2,28.73,NW,315,7.6,7.6,40,0.00,,---,0.00,VWS V14.01,2013-04-01 18:30:00,
2013-04-01 15:31:00,34.7,12.9,28.73,NW,315,13.0,13.0,40,0.00,,---,0.00,VWS V14.01,2013-04-01 18:31:00,
2013-04-01 15:32:00,34.5,12.1,28.73,North,0,12.3,13.0,39,0.00,,---,0.00,VWS V14.01,2013-04-01 18:32:00,
2013-04-01 15:33:00,34.7,12.9,28.73,North,0,6.3,12.3,40,0.00,,---,0.00,VWS V14.01,2013-04-01 18:33:00,
2013-04-01 15:34:00,34.3,12.0,28.73,NW,315,7.4,7.4,39,0.00,,---,0.00,VWS V14.01,2013-04-01 18:34:00,
2013-04-01 15:35:00,34.3,12.5,28.73,NW,315,8.1,8.1,40,0.00,,---,0.00,VWS V14.01,2013-04-01 18:35:00,
2013-04-01 15:36:00,34.5,12.7,28.73,NW,315,7.8,8.1,40,0.00,,---,0.00,VWS V14.01,2013-04-01 18:36:00,
2013-04-01 15:37:00,34.3,12.5,28.73,West,270,10.7,10.7,40,0.00,,---,0.00,VWS V14.01,2013-04-01 18:37:00,
2013-04-01 15:38:00,34.3,12.5,28.73,West,270,10.3,10.7,40,0.00,,---,0.00,VWS V14.01,2013-04-01 18:38:00,
2013-04-01 15:39:00,34.0,12.2,28.73,NW,315,6.5,10.3,40,0.00,,---,0.00,VWS V14.01,2013-04-01 18:39:00,
2013-04-01 15:40:00,34.0,12.2,28.73,NW,315,12.1,12.1,40,0.00,,---,0.00,VWS V14.01,2013-04-01 18:40:00,
2013-04-01 15:41:00,34.2,12.4,28.73,NW,315,12.1,12.1,40,0.00,,---,0.00,VWS V14.01,2013-04-01 18:41:00,
2013-04-01 15:42:00,34.0,12.2,28.73,NW,315,8.5,12.1,40,0.00,,---,0.00,VWS V14.01,2013-04-01 18:42:00,
2013-04-01 15:43:00,34.0,12.2,28.73,NNW,338,9.6,9.6,40,0.00,,---,0.00,VWS V14.01,2013-04-01 18:43:00,
2013-04-01 15:44:00,34.5,12.7,28.73,North,0,7.4,9.6,40,0.00,,---,0.00,VWS V14.01,2013-04-01 18:44:00,
2013-04-01 15:45:00,35.4,13.5,28.73,NW,315,7.6,7.6,40,0.00,,---,0.00,VWS V14.01,2013-04-01 18:45:00,
2013-04-01 15:46:00,36.7,14.6,28.73,NW,315,6.5,7.6,40,0.00,,---,0.00,VWS V14.01,2013-04-01 18:46:00,
2013-04-01 15:47:00,37.2,15.1,28.73,NW,315,12.8,12.8,40,0.00,,---,0.00,VWS V14.01,2013-04-01 18:47:00,
2013-04-01 15:48:00,37.4,15.3,28.73,North,0,8.7,12.8,40,0.00,,---,0.00,VWS V14.01,2013-04-01 18:48:00,
2013-04-01 15:49:00,37.6,14.9,28.73,North,0,15.4,15.4,39,0.00,,---,0.00,VWS V14.01,2013-04-01 18:49:00,
2013-04-01 15:50:00,37.6,14.9,28.73,NW,315,13.4,15.4,39,0.00,,---,0.00,VWS V14.01,2013-04-01 18:50:00,
2013-04-01 15:51:00,36.9,14.8,28.73,NW,315,13.4,13.4,40,0.00,,---,0.00,VWS V14.01,2013-04-01 18:51:00,
2013-04-01 15:52:00,36.5,14.5,28.73,NW,315,13.2,13.4,40,0.00,,---,0.00,VWS V14.01,2013-04-01 18:52:00,
2013-04-01 15:53:00,36.1,14.2,28.73,North,0,10.3,13.2,40,0.00,,---,0.00,VWS V14.01,2013-04-01 18:53:00,
2013-04-01 15:54:00,36.1,14.2,28.73,NW,315,13.2,13.2,40,0.00,,---,0.00,VWS V14.01,2013-04-01 18:54:00,
2013-04-01 15:55:00,35.2,13.4,28.73,North,0,10.5,13.2,40,0.00,,---,0.00,VWS V14.01,2013-04-01 18:55:00,
2013-04-01 15:56:00,34.9,13.0,28.73,NW,315,10.3,10.5,40,0.00,,---,0.00,VWS V14.01,2013-04-01 18:56:00,
2013-04-01 15:57:00,35.2,13.9,28.73,NW,315,13.2,13.2,41,0.00,,---,0.00,VWS V14.01,2013-04-01 18:57:00,
2013-04-01 15:58:00,34.9,13.0,28.73,NW,315,14.1,14.1,40,0.00,,---,0.00,VWS V14.01,2013-04-01 18:58:00,
2013-04-01 15:59:00,34.7,12.9,28.73,West,270,6.3,14.1,40,0.00,,---,0.00,VWS V14.01,2013-04-01 18:59:00,
2013-04-01 16:00:00,34.5,12.7,28.73,NNW,338,11.4,11.4,40,0.00,,---,0.00,VWS V14.01,2013-04-01 19:00:00,
2013-04-01 16:01:00,34.5,12.7,28.73,NW,315,9.8,11.4,40,0.00,,---,0.00,VWS V14.01,2013-04-01 19:01:00,
2013-04-01 16:02:00,34.3,12.5,28.73,NNW,338,9.8,9.8,40,0.00,,---,0.00,VWS V14.01,2013-04-01 19:02:00,
2013-04-01 16:03:00,34.5,12.7,28.73,NNW,338,7.2,9.8,40,0.00,,---,0.00,VWS V14.01,2013-04-01 19:03:00,
2013-04-01 16:05:00,34.5,12.7,28.73,West,270,13.9,13.9,40,0.00,,---,0.00,VWS V14.01,2013-04-01 19:05:00,
2013-04-01 16:06:00,34.2,12.4,28.73,NW,315,5.4,13.9,40,0.00,,---,0.00,VWS V14.01,2013-04-01 19:06:00,
2013-04-01 16:07:00,34.0,12.2,28.73,NNW,338,10.7,10.7,40,0.00,,---,0.00,VWS V14.01,2013-04-01 19:07:00,
2013-04-01 16:08:00,33.8,12.1,28.73,NW,315,10.5,10.7,40,0.00,,---,0.00,VWS V14.01,2013-04-01 19:08:00,
2013-04-01 16:09:00,33.6,11.9,28.73,NNW,338,7.6,10.5,40,0.00,,---,0.00,VWS V14.01,2013-04-01 19:09:00,
2013-04-01 16:10:00,33.6,11.3,28.73,NW,315,9.0,9.0,39,0.00,,---,0.00,VWS V14.01,2013-04-01 19:10:00,
2013-04-01 16:11:00,33.6,11.9,28.73,NW,315,12.3,12.3,40,0.00,,---,0.00,VWS V14.01,2013-04-01 19:11:00,
2013-04-01 16:12:00,33.6,11.9,28.73,NW,315,18.8,18.8,40,0.00,,---,0.00,VWS V14.01,2013-04-01 19:12:00,
2013-04-01 16:13:00,33.6,11.9,28.73,NW,315,14.8,18.8,40,0.00,,---,0.00,VWS V14.01,2013-04-01 19:13:00,
2013-04-01 16:15:00,34.0,12.2,28.73,West,270,10.1,14.8,40,0.00,,---,0.00,VWS V14.01,2013-04-01 19:15:00,
2013-04-01 16:16:00,34.0,12.2,28.73,West,270,6.9,10.1,40,0.00,,---,0.00,VWS V14.01,2013-04-01 19:16:00,
2013-04-01 16:17:00,34.0,12.2,28.73,NW,315,10.7,10.7,40,0.00,,---,0.00,VWS V14.01,2013-04-01 19:17:00,
2013-04-01 16:18:00,34.0,11.1,28.73,WNW,292,8.7,10.7,38,0.00,,---,0.00,VWS V14.01,2013-04-01 19:18:00,
2013-04-01 16:19:00,34.0,12.2,28.73,West,270,6.7,8.7,40,0.00,,---,0.00,VWS V14.01,2013-04-01 19:19:00,
2013-04-01 16:20:00,34.2,12.4,28.73,West,270,8.7,8.7,40,0.00,,---,0.00,VWS V14.01,2013-04-01 19:20:00,
2013-04-01 16:21:00,34.3,12.5,28.73,NNW,338,10.7,10.7,40,0.00,,---,0.00,VWS V14.01,2013-04-01 19:21:00,
2013-04-01 16:22:00,34.9,13.0,28.73,West,270,13.2,13.2,40,0.00,,---,0.00,VWS V14.01,2013-04-01 19:22:00,
2013-04-01 16:23:00,34.9,13.0,28.73,WNW,292,11.0,13.2,40,0.00,,---,0.00,VWS V14.01,2013-04-01 19:23:00,
2013-04-01 16:24:00,35.6,13.7,28.73,NW,315,6.0,11.0,40,0.00,,---,0.00,VWS V14.01,2013-04-01 19:24:00,
2013-04-01 16:25:00,35.8,12.7,28.73,NW,315,15.4,15.4,38,0.00,,---,0.00,VWS V14.01,2013-04-01 19:25:00,
2013-04-01 16:26:00,36.0,12.2,28.73,NNW,338,8.5,15.4,37,0.00,,---,0.00,VWS V14.01,2013-04-01 19:26:00,
2013-04-01 16:27:00,36.1,13.0,28.73,NW,315,12.5,12.5,38,0.00,,---,0.00,VWS V14.01,2013-04-01 19:27:00,
2013-04-01 16:28:00,36.1,13.0,28.73,NW,315,6.5,12.5,38,0.00,,---,0.00,VWS V14.01,2013-04-01 19:28:00,
2013-04-01 16:29:00,36.0,11.6,28.73,NW,315,9.8,9.8,36,0.00,,---,0.00,VWS V14.01,2013-04-01 19:29:00,
2013-04-01 16:30:00,35.8,12.1,28.73,WNW,292,8.1,9.8,37,0.00,,---,0.00,VWS V14.01,2013-04-01 19:30:00,
2013-04-01 16:31:00,35.6,11.9,28.73,West,270,6.5,8.1,37,0.00,,---,0.00,VWS V14.01,2013-04-01 19:31:00,
2013-04-01 16:32:00,35.2,12.2,28.73,NNW,338,10.5,10.5,38,0.00,,---,0.00,VWS V14.01,2013-04-01 19:32:00,
2013-04-01 16:33:00,34.9,12.4,28.73,NW,315,8.5,10.5,39,0.00,,---,0.00,VWS V14.01,2013-04-01 19:33:00,
2013-04-01 16:34:00,34.7,12.9,28.73,NW,315,6.0,8.5,40,0.00,,---,0.00,VWS V14.01,2013-04-01 19:34:00,
2013-04-01 16:35:00,34.5,12.1,28.73,NW,315,9.8,9.8,39,0.00,,---,0.00,VWS V14.01,2013-04-01 19:35:00,
2013-04-01 16:36:00,34.9,13.0,28.73,North,0,15.2,15.2,40,0.00,,---,0.00,VWS V14.01,2013-04-01 19:36:00,
2013-04-01 16:37:00,34.7,11.7,28.73,North,0,10.7,15.2,38,0.00,,---,0.00,VWS V14.01,2013-04-01 19:37:00,
2013-04-01 16:38:00,34.7,12.9,28.73,WNW,292,12.3,12.3,40,0.00,,---,0.00,VWS V14.01,2013-04-01 19:38:00,
2013-04-01 16:39:00,35.1,13.2,28.73,WNW,292,5.6,12.3,40,0.00,,---,0.00,VWS V14.01,2013-04-01 19:39:00,
2013-04-01 16:40:00,34.9,12.4,28.73,NW,315,10.7,10.7,39,0.00,,---,0.00,VWS V14.01,2013-04-01 19:40:00,
2013-04-01 16:41:00,35.1,13.2,28.73,West,270,13.0,13.0,40,0.00,,---,0.00,VWS V14.01,2013-04-01 19:41:00,
2013-04-01 16:42:00,34.7,12.3,28.73,West,270,10.5,13.0,39,0.00,,---,0.00,VWS V14.01,2013-04-01 19:42:00,
2013-04-01 16:43:00,34.5,12.7,28.73,West,270,12.8,12.8,40,0.00,,---,0.00,VWS V14.01,2013-04-01 19:43:00,
2013-04-01 16:44:00,34.3,12.0,28.73,NNW,338,12.3,12.8,39,0.00,,---,0.00,VWS V14.01,2013-04-01 19:44:00,
2013-04-01 16:45:00,34.5,12.7,28.73,NW,315,12.3,12.3,40,0.00,,---,0.00,VWS V14.01,2013-04-01 19:45:00,
2013-04-01 16:46:00,34.5,12.7,28.73,West,270,9.4,12.3,40,0.00,,---,0.00,VWS V14.01,2013-04-01 19:46:00,
2013-04-01 16:47:00,35.6,13.1,28.73,West,270,9.4,9.4,39,0.00,,---,0.00,VWS V14.01,2013-04-01 19:47:00,
2013-04-01 16:48:00,35.1,12.0,28.73,WSW,248,9.8,9.8,38,0.00,,---,0.00,VWS V14.01,2013-04-01 19:48:00,
2013-04-01 16:49:00,34.9,12.4,28.73,WSW,248,9.8,9.8,39,0.00,,---,0.00,VWS V14.01,2013-04-01 19:49:00,
2013-04-01 16:50:00,35.1,12.0,28.73,WSW,248,9.8,9.8,38,0.00,,---,0.00,VWS V14.01,2013-04-01 19:50:00,
2013-04-01 16:51:00,35.6,12.5,28.73,WSW,248,9.8,9.8,38,0.00,,---,0.00,VWS V14.01,2013-04-01 19:51:00,
2013-04-01 16:52:00,35.8,12.1,28.73,NW,315,6.7,9.8,37,0.00,,---,0.00,VWS V14.01,2013-04-01 19:52:00,
2013-04-01 16:53:00,36.0,13.4,28.73,WNW,292,8.7,8.7,39,0.00,,---,0.00,VWS V14.01,2013-04-01 19:53:00,
2013-04-01 16:54:00,36.5,14.5,28.73,West,270,9.8,9.8,40,0.00,,---,0.00,VWS V14.01,2013-04-01 19:54:00,
2013-04-01 16:55:00,36.5,12.7,28.70,West,270,9.8,9.8,37,0.00,,---,0.00,VWS V14.01,2013-04-01 19:55:00,
2013-04-01 16:56:00,36.3,13.8,28.70,NW,315,9.8,9.8,39,0.00,,---,0.00,VWS V14.01,2013-04-01 19:56:00,
2013-04-01 16:57:00,35.8,12.1,28.70,North,0,13.2,13.2,37,0.00,,---,0.00,VWS V14.01,2013-04-01 19:57:00,
2013-04-01 16:58:00,35.4,11.1,28.70,NW,315,9.0,13.2,36,0.00,,---,0.00,VWS V14.01,2013-04-01 19:58:00,
2013-04-01 16:59:00,35.4,11.8,28.70,NW,315,10.7,10.7,37,0.00,,---,0.00,VWS V14.01,2013-04-01 19:59:00,
2013-04-01 17:00:00,35.8,11.4,28.70,NNW,338,10.3,10.7,36,0.00,,---,0.00,VWS V14.01,2013-04-01 20:00:00,
2013-04-01 17:01:00,35.8,11.4,28.70,SW,225,16.8,16.8,36,0.00,,---,0.00,VWS V14.01,2013-04-01 20:01:00,
2013-04-01 17:02:00,35.6,11.9,28.70,West,270,10.3,16.8,37,0.00,,---,0.00,VWS V14.01,2013-04-01 20:02:00,
2013-04-01 17:03:00,35.2,12.2,28.70,West,270,12.3,12.3,38,0.00,,---,0.00,VWS V14.01,2013-04-01 20:03:00,
2013-04-01 17:04:00,35.1,12.6,28.70,NNW,338,10.1,12.3,39,0.00,,---,0.00,VWS V14.01,2013-04-01 20:04:00,
2013-04-01 17:05:00,34.9,13.0,28.70,WNW,292,6.3,10.1,40,0.00,,---,0.00,VWS V14.01,2013-04-01 20:05:00,
2013-04-01 17:06:00,34.9,12.4,28.70,North,0,6.5,6.5,39,0.00,,---,0.00,VWS V14.01,2013-04-01 20:06:00,
2013-04-01 17:07:00,34.7,11.7,28.70,NW,315,10.5,10.5,38,0.00,,---,0.00,VWS V14.01,2013-04-01 20:07:00,
2013-04-01 17:08:00,34.7,12.9,28.70,NW,315,8.1,10.5,40,0.00,,---,0.00,VWS V14.01,2013-04-01 20:08:00,
2013-04-01 17:09:00,35.1,13.8,28.70,WNW,292,8.5,8.5,41,0.00,,---,0.00,VWS V14.01,2013-04-01 20:09:00,
2013-04-01 17:10:00,34.9,13.0,28.73,West,270,8.5,8.5,40,0.00,,---,0.00,VWS V14.01,2013-04-01 20:10:00,
2013-04-01 17:11:00,34.7,12.3,28.73,West,270,8.5,8.5,39,0.00,,---,0.00,VWS V14.01,2013-04-01 20:11:00,
2013-04-01 17:12:00,34.7,12.9,28.73,West,270,8.5,8.5,40,0.00,,---,0.00,VWS V14.01,2013-04-01 20:12:00,
2013-04-01 17:13:00,34.7,12.9,28.73,West,270,8.5,8.5,40,0.00,,---,0.00,VWS V14.01,2013-04-01 20:13:00,
2013-04-01 17:14:00,34.7,12.9,28.73,West,270,8.5,8.5,40,0.00,,---,0.00,VWS V14.01,2013-04-01 20:14:00,
2013-04-01 17:15:00,34.3,12.5,28.73,West,270,8.5,8.5,40,0.00,,---,0.00,VWS V14.01,2013-04-01 20:15:00,
2013-04-01 17:16:00,34.3,12.5,28.73,West,270,8.5,8.5,40,0.00,,---,0.00,VWS V14.01,2013-04-01 20:16:00,
2013-04-01 17:17:00,34.3,12.5,28.73,NNW,338,8.1,8.5,40,0.00,,---,0.00,VWS V14.01,2013-04-01 20:17:00,
2013-04-01 17:18:00,34.3,12.5,28.73,NNW,338,8.1,8.1,40,0.00,,---,0.00,VWS V14.01,2013-04-01 20:18:00,
2013-04-01 17:19:00,34.2,12.4,28.73,NNW,338,8.1,8.1,40,0.00,,---,0.00,VWS V14.01,2013-04-01 20:19:00,
2013-04-01 17:20:00,34.3,12.5,28.73,NNW,338,8.1,8.1,40,0.00,,---,0.00,VWS V14.01,2013-04-01 20:20:00,
2013-04-01 17:21:00,34.5,13.3,28.73,NNW,338,8.1,8.1,41,0.00,,---,0.00,VWS V14.01,2013-04-01 20:21:00,
2013-04-01 17:22:00,34.5,13.3,28.73,NNW,338,8.1,8.1,41,0.00,,---,0.00,VWS V14.01,2013-04-01 20:22:00,
2013-04-01 17:23:00,34.3,12.5,28.73,WSW,248,9.6,9.6,40,0.00,,---,0.00,VWS V14.01,2013-04-01 20:23:00,
2013-04-01 17:24:00,34.2,12.4,28.73,WSW,248,9.6,9.6,40,0.00,,---,0.00,VWS V14.01,2013-04-01 20:24:00,
2013-04-01 17:25:00,34.5,12.7,28.73,NW,315,7.8,9.6,40,0.00,,---,0.00,VWS V14.01,2013-04-01 20:25:00,
2013-04-01 17:26:00,34.5,12.7,28.73,NW,315,7.8,7.8,40,0.00,,---,0.00,VWS V14.01,2013-04-01 20:26:00,
2013-04-01 17:27:00,34.5,12.7,28.73,NW,315,7.8,7.8,40,0.00,,---,0.00,VWS V14.01,2013-04-01 20:27:00,
2013-04-01 17:28:00,34.5,12.7,28.73,NW,315,7.8,7.8,40,0.00,,---,0.00,VWS V14.01,2013-04-01 20:28:00,
2013-04-01 17:29:00,35.8,13.8,28.73,North,0,6.3,7.8,40,0.00,,---,0.00,VWS V14.01,2013-04-01 20:29:00,
2013-04-01 17:30:00,35.2,13.4,28.73,North,0,6.3,6.3,40,0.00,,---,0.00,VWS V14.01,2013-04-01 20:30:00,
2013-04-01 17:31:00,35.2,13.4,28.73,North,0,6.3,6.3,40,0.00,,---,0.00,VWS V14.01,2013-04-01 20:31:00,
2013-04-01 17:32:00,34.7,12.9,28.73,North,0,6.3,6.3,40,0.00,,---,0.00,VWS V14.01,2013-04-01 20:32:00,
2013-04-01 17:33:00,34.5,12.7,28.73,North,0,6.3,6.3,40,0.00,,---,0.00,VWS V14.01,2013-04-01 20:33:00,
2013-04-01 17:34:00,34.5,12.7,28.73,North,0,6.3,6.3,40,0.00,,---,0.00,VWS V14.01,2013-04-01 20:34:00,
2013-04-01 17:35:00,34.5,12.7,28.73,North,0,6.3,6.3,40,0.00,,---,0.00,VWS V14.01,2013-04-01 20:35:00,
2013-04-01 17:36:00,35.8,13.8,28.73,North,0,6.3,6.3,40,0.00,,---,0.00,VWS V14.01,2013-04-01 20:36:00,
2013-04-01 17:37:00,36.1,14.2,28.73,North,0,6.3,6.3,40,0.00,,---,0.00,VWS V14.01,2013-04-01 20:37:00,
2013-04-01 17:38:00,36.0,14.0,28.73,North,0,6.3,6.3,40,0.00,,---,0.00,VWS V14.01,2013-04-01 20:38:00,
2013-04-01 17:39:00,36.0,14.0,28.73,North,0,6.3,6.3,40,0.00,,---,0.00,VWS V14.01,2013-04-01 20:39:00,
2013-04-01 17:40:00,36.9,14.8,28.73,North,0,6.3,6.3,40,0.00,,---,0.00,VWS V14.01,2013-04-01 20:40:00,
2013-04-01 17:41:00,36.5,13.9,28.73,North,0,6.3,6.3,39,0.00,,---,0.00,VWS V14.01,2013-04-01 20:41:00,
2013-04-01 17:42:00,36.5,13.9,28.73,North,0,6.3,6.3,39,0.00,,---,0.00,VWS V14.01,2013-04-01 20:42:00,
2013-04-01 17:43:00,35.6,13.1,28.73,North,0,6.3,6.3,39,0.00,,---,0.00,VWS V14.01,2013-04-01 20:43:00,
2013-04-01 17:44:00,35.6,13.1,28.73,North,0,6.3,6.3,39,0.00,,---,0.00,VWS V14.01,2013-04-01 20:44:00,
2013-04-01 17:45:00,36.0,13.4,28.73,North,0,6.3,6.3,39,0.00,,---,0.00,VWS V14.01,2013-04-01 20:45:00,
2013-04-01 17:46:00,35.8,13.3,28.73,North,0,6.3,6.3,39,0.00,,---,0.00,VWS V14.01,2013-04-01 20:46:00,
2013-04-01 17:47:00,35.6,13.7,28.73,North,0,6.3,6.3,40,0.00,,---,0.00,VWS V14.01,2013-04-01 20:47:00,
2013-04-01 17:48:00,35.1,12.6,28.73,North,0,6.3,6.3,39,0.00,,---,0.00,VWS V14.01,2013-04-01 20:48:00,
2013-04-01 17:49:00,34.9,13.0,28.73,North,0,6.3,6.3,40,0.00,,---,0.00,VWS V14.01,2013-04-01 20:49:00,
2013-04-01 17:50:00,34.7,12.9,28.73,North,0,6.3,6.3,40,0.00,,---,0.00,VWS V14.01,2013-04-01 20:50:00,
2013-04-01 17:51:00,34.7,12.9,28.73,North,0,6.3,6.3,40,0.00,,---,0.00,VWS V14.01,2013-04-01 20:51:00,
2013-04-01 17:52:00,34.3,12.5,28.73,North,0,6.3,6.3,40,0.00,,---,0.00,VWS V14.01,2013-04-01 20:52:00,
2013-04-01 17:53:00,34.3,12.5,28.73,North,0,6.3,6.3,40,0.00,,---,0.00,VWS V14.01,2013-04-01 20:53:00,
2013-04-01 17:54:00,34.2,12.4,28.73,North,0,6.3,6.3,40,0.00,,---,0.00,VWS V14.01,2013-04-01 20:54:00,
2013-04-01 17:55:00,34.0,12.2,28.73,North,0,6.3,6.3,40,0.00,,---,0.00,VWS V14.01,2013-04-01 20:55:00,
2013-04-01 17:56:00,33.8,12.1,28.73,North,0,6.3,6.3,40,0.00,,---,0.00,VWS V14.01,2013-04-01 20:56:00,
2013-04-01 17:57:00,33.8,12.1,28.73,North,0,6.3,6.3,40,0.00,,---,0.00,VWS V14.01,2013-04-01 20:57:00,
2013-04-01 17:58:00,33.8,12.1,28.73,North,0,6.3,6.3,40,0.00,,---,0.00,VWS V14.01,2013-04-01 20:58:00,
2013-04-01 17:59:00,33.8,12.1,28.73,North,0,6.3,6.3,40,0.00,,---,0.00,VWS V14.01,2013-04-01 20:59:00,
2013-04-01 18:00:00,33.6,11.9,28.73,North,0,6.3,6.3,40,0.00,,---,0.00,VWS V14.01,2013-04-01 21:00:00,
2013-04-01 18:01:00,33.6,11.9,28.73,North,0,6.3,6.3,40,0.00,,---,0.00,VWS V14.01,2013-04-01 21:01:00,
2013-04-01 18:02:00,33.4,11.7,28.73,NNW,338,7.8,7.8,40,0.00,,---,0.00,VWS V14.01,2013-04-01 21:02:00,
2013-04-01 18:03:00,33.4,11.7,28.73,NNW,338,7.8,7.8,40,0.00,,---,0.00,VWS V14.01,2013-04-01 21:03:00,
2013-04-01 18:04:00,33.4,11.7,28.73,NNW,338,8.5,8.5,40,0.00,,---,0.00,VWS V14.01,2013-04-01 21:04:00,
2013-04-01 18:05:00,33.6,11.9,28.73,NNW,338,8.5,8.5,40,0.00,,---,0.00,VWS V14.01,2013-04-01 21:05:00,
2013-04-01 18:06:00,33.6,11.9,28.73,NW,315,7.4,8.5,40,0.00,,---,0.00,VWS V14.01,2013-04-01 21:06:00,
2013-04-01 18:07:00,33.6,11.9,28.73,North,0,3.6,7.4,40,0.00,,---,0.00,VWS V14.01,2013-04-01 21:07:00,
2013-04-01 18:08:00,33.6,12.4,28.73,West,270,3.8,3.8,41,0.00,,---,0.00,VWS V14.01,2013-04-01 21:08:00,
2013-04-01 18:09:00,33.6,12.4,28.73,West,270,3.8,3.8,41,0.00,,---,0.00,VWS V14.01,2013-04-01 21:09:00,
2013-04-01 18:10:00,33.6,12.4,28.73,West,270,3.8,3.8,41,0.00,,---,0.00,VWS V14.01,2013-04-01 21:10:00,
2013-04-01 18:11:00,33.6,12.4,28.73,WNW,292,7.2,7.2,41,0.00,,---,0.00,VWS V14.01,2013-04-01 21:11:00,
2013-04-01 18:12:00,33.6,12.4,28.73,WNW,292,7.2,7.2,41,0.00,,---,0.00,VWS V14.01,2013-04-01 21:12:00,
2013-04-01 18:13:00,33.6,11.9,28.73,NW,315,10.1,10.1,40,0.00,,---,0.00,VWS V14.01,2013-04-01 21:13:00,
2013-04-01 18:14:00,33.6,11.9,28.73,NW,315,10.1,10.1,40,0.00,,---,0.00,VWS V14.01,2013-04-01 21:14:00,
2013-04-01 18:15:00,33.6,11.9,28.73,NW,315,10.1,10.1,40,0.00,,---,0.00,VWS V14.01,2013-04-01 21:15:00,
2013-04-01 18:16:00,33.6,11.9,28.73,NW,315,10.1,10.1,40,0.00,,---,0.00,VWS V14.01,2013-04-01 21:16:00,
2013-04-01 18:17:00,33.6,11.9,28.73,NW,315,10.1,10.1,40,0.00,,---,0.00,VWS V14.01,2013-04-01 21:17:00,
2013-04-01 18:18:00,33.4,11.2,28.73,NW,315,10.1,10.1,39,0.00,,---,0.00,VWS V14.01,2013-04-01 21:18:00,
2013-04-01 18:19:00,33.4,11.7,28.73,NW,315,8.7,10.1,40,0.00,,---,0.00,VWS V14.01,2013-04-01 21:19:00,
2013-04-01 18:20:00,33.6,12.4,28.73,NW,315,4.9,8.7,41,0.00,,---,0.00,VWS V14.01,2013-04-01 21:20:00,
2013-04-01 18:21:00,33.6,11.9,28.73,WNW,292,11.2,11.2,40,0.00,,---,0.00,VWS V14.01,2013-04-01 21:21:00,
2013-04-01 18:22:00,33.6,11.9,28.73,WNW,292,11.2,11.2,40,0.00,,---,0.00,VWS V14.01,2013-04-01 21:22:00,
2013-04-01 18:23:00,33.6,11.9,28.73,WNW,292,11.2,11.2,40,0.00,,---,0.00,VWS V14.01,2013-04-01 21:23:00,
2013-04-01 18:24:00,33.6,11.9,28.73,WNW,292,11.2,11.2,40,0.00,,---,0.00,VWS V14.01,2013-04-01 21:24:00,
2013-04-01 18:25:00,33.4,11.2,28.73,WNW,292,11.2,11.2,39,0.00,,---,0.00,VWS V14.01,2013-04-01 21:25:00,
2013-04-01 18:26:00,33.3,11.6,28.73,WNW,292,11.2,11.2,40,0.00,,---,0.00,VWS V14.01,2013-04-01 21:26:00,
2013-04-01 18:27:00,33.4,11.7,28.73,WNW,292,11.2,11.2,40,0.00,,---,0.00,VWS V14.01,2013-04-01 21:27:00,
2013-04-01 18:28:00,33.4,11.7,28.73,WNW,292,11.2,11.2,40,0.00,,---,0.00,VWS V14.01,2013-04-01 21:28:00,
2013-04-01 18:29:00,33.4,11.7,28.73,WNW,292,11.2,11.2,40,0.00,,---,0.00,VWS V14.01,2013-04-01 21:29:00,
2013-04-01 18:30:00,33.3,11.6,28.73,WNW,292,11.2,11.2,40,0.00,,---,0.00,VWS V14.01,2013-04-01 21:30:00,
2013-04-01 18:31:00,33.3,11.6,28.73,WNW,292,11.2,11.2,40,0.00,,---,0.00,VWS V14.01,2013-04-01 21:31:00,
2013-04-01 18:32:00,33.4,11.7,28.73,WNW,292,11.2,11.2,40,0.00,,---,0.00,VWS V14.01,2013-04-01 21:32:00,
2013-04-01 18:33:00,33.3,12.1,28.73,WNW,292,11.2,11.2,41,0.00,,---,0.00,VWS V14.01,2013-04-01 21:33:00,
2013-04-01 18:34:00,33.4,11.7,28.73,WNW,292,11.2,11.2,40,0.00,,---,0.00,VWS V14.01,2013-04-01 21:34:00,
2013-04-01 18:35:00,33.4,11.7,28.73,WNW,292,11.2,11.2,40,0.00,,---,0.00,VWS V14.01,2013-04-01 21:35:00,
2013-04-01 18:36:00,33.3,12.1,28.73,WNW,292,11.2,11.2,41,0.00,,---,0.00,VWS V14.01,2013-04-01 21:36:00,
2013-04-01 18:37:00,33.3,11.6,28.73,WNW,292,11.2,11.2,40,0.00,,---,0.00,VWS V14.01,2013-04-01 21:37:00,
2013-04-01 18:38:00,33.3,11.6,28.73,WNW,292,11.2,11.2,40,0.00,,---,0.00,VWS V14.01,2013-04-01 21:38:00,
2013-04-01 18:39:00,33.3,11.6,28.73,WNW,292,11.2,11.2,40,0.00,,---,0.00,VWS V14.01,2013-04-01 21:39:00,
2013-04-01 18:40:00,33.6,12.4,28.73,WNW,292,11.2,11.2,41,0.00,,---,0.00,VWS V14.01,2013-04-01 21:40:00,
2013-04-01 18:41:00,33.6,12.4,28.73,North,0,7.6,11.2,41,0.00,,---,0.00,VWS V14.01,2013-04-01 21:41:00,
2013-04-01 18:42:00,33.6,11.9,28.73,NW,315,5.8,7.6,40,0.00,,---,0.00,VWS V14.01,2013-04-01 21:42:00,
2013-04-01 18:43:00,33.6,12.4,28.73,NW,315,5.6,5.8,41,0.00,,---,0.00,VWS V14.01,2013-04-01 21:43:00,
2013-04-01 18:44:00,34.2,12.9,28.73,NW,315,5.6,5.6,41,0.00,,---,0.00,VWS V14.01,2013-04-01 21:44:00,
2013-04-01 18:45:00,34.3,12.5,28.73,West,270,6.9,6.9,40,0.00,,---,0.00,VWS V14.01,2013-04-01 21:45:00,
2013-04-01 18:46:00,34.3,12.5,28.73,West,270,6.9,6.9,40,0.00,,---,0.00,VWS V14.01,2013-04-01 21:46:00,
2013-04-01 18:47:00,34.3,12.5,28.73,NW,315,5.4,6.9,40,0.00,,---,0.00,VWS V14.01,2013-04-01 21:47:00,
2013-04-01 18:48:00,34.3,12.5,28.73,NNW,338,8.1,8.1,40,0.00,,---,0.00,VWS V14.01,2013-04-01 21:48:00,
2013-04-01 18:49:00,34.3,12.5,28.73,NNW,338,8.1,8.1,40,0.00,,---,0.00,VWS V14.01,2013-04-01 21:49:00,
2013-04-01 18:50:00,34.2,12.4,28.73,North,0,4.9,8.1,40,0.00,,---,0.00,VWS V14.01,2013-04-01 21:50:00,
2013-04-01 18:51:00,34.2,12.4,28.73,North,0,4.9,4.9,40,0.00,,---,0.00,VWS V14.01,2013-04-01 21:51:00,
2013-04-01 18:52:00,34.2,12.4,28.73,North,0,4.9,4.9,40,0.00,,---,0.00,VWS V14.01,2013-04-01 21:52:00,
2013-04-01 18:53:00,34.2,12.4,28.73,North,0,4.9,4.9,40,0.00,,---,0.00,VWS V14.01,2013-04-01 21:53:00,
2013-04-01 18:54:00,34.0,12.2,28.73,SW,225,7.6,7.6,40,0.00,,---,0.00,VWS V14.01,2013-04-01 21:54:00,
2013-04-01 18:55:00,34.0,12.2,28.76,WNW,292,5.4,7.6,40,0.00,,---,0.00,VWS V14.01,2013-04-01 21:55:00,
2013-04-01 18:56:00,34.0,12.2,28.76,WNW,292,5.4,5.4,40,0.00,,---,0.00,VWS V14.01,2013-04-01 21:56:00,
2013-04-01 18:57:00,34.0,12.2,28.76,NW,315,5.6,5.6,40,0.00,,---,0.00,VWS V14.01,2013-04-01 21:57:00,
2013-04-01 18:58:00,34.0,12.2,28.76,NW,315,5.6,5.6,40,0.00,,---,0.00,VWS V14.01,2013-04-01 21:58:00,
2013-04-01 18:59:00,34.0,12.2,28.76,WNW,292,7.4,7.4,40,0.00,,---,0.00,VWS V14.01,2013-04-01 21:59:00,
2013-04-01 19:00:00,34.0,12.2,28.76,NW,315,7.8,7.8,40,0.00,,---,0.00,VWS V14.01,2013-04-01 22:00:00,
2013-04-01 19:01:00,34.0,12.2,28.76,NW,315,7.8,7.8,40,0.00,,---,0.00,VWS V14.01,2013-04-01 22:01:00,
2013-04-01 19:02:00,34.2,12.9,28.76,NW,315,4.9,7.8,41,0.00,,---,0.00,VWS V14.01,2013-04-01 22:02:00,
2013-04-01 19:03:00,34.0,12.2,28.76,NW,315,8.7,8.7,40,0.00,,---,0.00,VWS V14.01,2013-04-01 22:03:00,
2013-04-01 19:04:00,33.8,12.1,28.76,NW,315,12.5,12.5,40,0.00,,---,0.00,VWS V14.01,2013-04-01 22:04:00,
2013-04-01 19:05:00,33.8,12.1,28.76,SW,225,10.5,12.5,40,0.00,,---,0.00,VWS V14.01,2013-04-01 22:05:00,
2013-04-01 19:06:00,33.6,12.4,28.76,WNW,292,10.3,10.5,41,0.00,,---,0.00,VWS V14.01,2013-04-01 22:06:00,
2013-04-01 19:07:00,33.6,12.4,28.76,WNW,292,10.3,10.3,41,0.00,,---,0.00,VWS V14.01,2013-04-01 22:07:00,
2013-04-01 19:08:00,33.8,12.6,28.76,WNW,292,10.3,10.3,41,0.00,,---,0.00,VWS V14.01,2013-04-01 22:08:00,
2013-04-01 19:09:00,33.8,12.1,28.76,WNW,292,10.3,10.3,40,0.00,,---,0.00,VWS V14.01,2013-04-01 22:09:00,
2013-04-01 19:10:00,33.6,11.3,28.76,WNW,292,10.3,10.3,39,0.00,,---,0.00,VWS V14.01,2013-04-01 22:10:00,
2013-04-01 19:11:00,33.6,12.4,28.76,WNW,292,10.3,10.3,41,0.00,,---,0.00,VWS V14.01,2013-04-01 22:11:00,
2013-04-01 19:12:00,33.6,11.9,28.76,WNW,292,10.3,10.3,40,0.00,,---,0.00,VWS V14.01,2013-04-01 22:12:00,
2013-04-01 19:13:00,33.6,10.7,28.76,WNW,292,10.3,10.3,38,0.00,,---,0.00,VWS V14.01,2013-04-01 22:13:00,
2013-04-01 19:14:00,33.6,10.7,28.76,WNW,292,10.3,10.3,38,0.00,,---,0.00,VWS V14.01,2013-04-01 22:14:00,
2013-04-01 19:15:00,33.6,10.7,28.76,WNW,292,10.3,10.3,38,0.00,,---,0.00,VWS V14.01,2013-04-01 22:15:00,
2013-04-01 19:16:00,33.3,11.0,28.76,WNW,292,10.3,10.3,39,0.00,,---,0.00,VWS V14.01,2013-04-01 22:16:00,
2013-04-01 19:17:00,33.3,11.0,28.76,WNW,292,10.3,10.3,39,0.00,,---,0.00,VWS V14.01,2013-04-01 22:17:00,
2013-04-01 19:18:00,33.3,11.6,28.76,WNW,292,10.3,10.3,40,0.00,,---,0.00,VWS V14.01,2013-04-01 22:18:00,
2013-04-01 19:19:00,33.3,11.6,28.76,WNW,292,10.3,10.3,40,0.00,,---,0.00,VWS V14.01,2013-04-01 22:19:00,
2013-04-01 19:20:00,33.3,11.6,28.76,WNW,292,10.3,10.3,40,0.00,,---,0.00,VWS V14.01,2013-04-01 22:20:00,
2013-04-01 19:21:00,33.1,10.2,28.76,WNW,292,10.3,10.3,38,0.00,,---,0.00,VWS V14.01,2013-04-01 22:21:00,
2013-04-01 19:22:00,33.1,10.2,28.76,WNW,292,10.3,10.3,38,0.00,,---,0.00,VWS V14.01,2013-04-01 22:22:00,
2013-04-01 19:23:00,33.1,10.2,28.76,WNW,292,10.3,10.3,38,0.00,,---,0.00,VWS V14.01,2013-04-01 22:23:00,
2013-04-01 19:24:00,33.3,11.6,28.76,WNW,292,10.3,10.3,40,0.00,,---,0.00,VWS V14.01,2013-04-01 22:24:00,
2013-04-01 19:25:00,33.3,10.4,28.76,WNW,292,10.3,10.3,38,0.00,,---,0.00,VWS V14.01,2013-04-01 22:25:00,
2013-04-01 19:26:00,33.4,11.7,28.76,WNW,292,10.3,10.3,40,0.00,,---,0.00,VWS V14.01,2013-04-01 22:26:00,
2013-04-01 19:27:00,33.4,11.7,28.76,WNW,292,10.3,10.3,40,0.00,,---,0.00,VWS V14.01,2013-04-01 22:27:00,
2013-04-01 19:28:00,33.4,11.7,28.76,WNW,292,10.3,10.3,40,0.00,,---,0.00,VWS V14.01,2013-04-01 22:28:00,
2013-04-01 19:29:00,33.4,11.7,28.76,WNW,292,10.3,10.3,40,0.00,,---,0.00,VWS V14.01,2013-04-01 22:29:00,
2013-04-01 19:30:00,33.4,11.7,28.76,WNW,292,10.3,10.3,40,0.00,,---,0.00,VWS V14.01,2013-04-01 22:30:00,
2013-04-01 19:31:00,33.4,11.7,28.76,WNW,292,10.3,10.3,40,0.00,,---,0.00,VWS V14.01,2013-04-01 22:31:00,
2013-04-01 19:32:00,33.4,11.7,28.76,WNW,292,10.3,10.3,40,0.00,,---,0.00,VWS V14.01,2013-04-01 22:32:00,
2013-04-01 19:33:00,34.2,12.4,28.76,WNW,292,10.3,10.3,40,0.00,,---,0.00,VWS V14.01,2013-04-01 22:33:00,
2013-04-01 19:34:00,34.2,12.4,28.76,WNW,292,10.3,10.3,40,0.00,,---,0.00,VWS V14.01,2013-04-01 22:34:00,
2013-04-01 19:35:00,34.5,12.7,28.76,WNW,292,10.3,10.3,40,0.00,,---,0.00,VWS V14.01,2013-04-01 22:35:00,
2013-04-01 19:36:00,34.3,12.5,28.76,WNW,292,10.3,10.3,40,0.00,,---,0.00,VWS V14.01,2013-04-01 22:36:00,
2013-04-01 19:37:00,34.0,12.2,28.76,WNW,292,10.3,10.3,40,0.00,,---,0.00,VWS V14.01,2013-04-01 22:37:00,
2013-04-01 19:38:00,34.0,12.2,28.76,WNW,292,10.3,10.3,40,0.00,,---,0.00,VWS V14.01,2013-04-01 22:38:00,
2013-04-01 19:39:00,33.8,12.1,28.76,WNW,292,10.3,10.3,40,0.00,,---,0.00,VWS V14.01,2013-04-01 22:39:00,
2013-04-01 19:40:00,33.6,11.9,28.76,WNW,292,10.3,10.3,40,0.00,,---,0.00,VWS V14.01,2013-04-01 22:40:00,
2013-04-01 19:41:00,33.4,11.7,28.76,WNW,292,10.3,10.3,40,0.00,,---,0.00,VWS V14.01,2013-04-01 22:41:00,
2013-04-01 19:42:00,33.3,11.6,28.76,WNW,292,10.3,10.3,40,0.00,,---,0.00,VWS V14.01,2013-04-01 22:42:00,
2013-04-01 19:43:00,33.3,11.6,28.76,WNW,292,10.3,10.3,40,0.00,,---,0.00,VWS V14.01,2013-04-01 22:43:00,
2013-04-01 19:44:00,33.3,12.1,28.76,WNW,292,10.3,10.3,41,0.00,,---,0.00,VWS V14.01,2013-04-01 22:44:00,
2013-04-01 19:45:00,33.3,12.1,28.76,WNW,292,10.3,10.3,41,0.00,,---,0.00,VWS V14.01,2013-04-01 22:45:00,
2013-04-01 19:46:00,33.3,12.1,28.76,WNW,292,10.3,10.3,41,0.00,,---,0.00,VWS V14.01,2013-04-01 22:46:00,
2013-04-01 19:47:00,33.3,12.1,28.76,WNW,292,10.3,10.3,41,0.00,,---,0.00,VWS V14.01,2013-04-01 22:47:00,
2013-04-01 19:48:00,32.9,11.2,28.76,WNW,292,10.3,10.3,40,0.00,,---,0.00,VWS V14.01,2013-04-01 22:48:00,
2013-04-01 19:49:00,32.9,11.8,28.76,WNW,292,10.3,10.3,41,0.00,,---,0.00,VWS V14.01,2013-04-01 22:49:00,
2013-04-01 19:50:00,32.7,11.1,28.76,WNW,292,10.3,10.3,40,0.00,,---,0.00,VWS V14.01,2013-04-01 22:50:00,
2013-04-01 19:51:00,32.7,11.1,28.76,West,270,5.6,10.3,40,0.00,,---,0.00,VWS V14.01,2013-04-01 22:51:00,
2013-04-01 19:52:00,32.7,11.1,28.76,West,270,5.6,5.6,40,0.00,,---,0.00,VWS V14.01,2013-04-01 22:52:00,
2013-04-01 19:53:00,32.7,11.1,28.76,West,270,5.6,5.6,40,0.00,,---,0.00,VWS V14.01,2013-04-01 22:53:00,
2013-04-01 19:54:00,32.7,11.1,28.76,West,270,5.6,5.6,40,0.00,,---,0.00,VWS V14.01,2013-04-01 22:54:00,
2013-04-01 19:55:00,32.7,11.1,28.76,West,270,5.6,5.6,40,0.00,,---,0.00,VWS V14.01,2013-04-01 22:55:00,
2013-04-01 19:56:00,32.7,11.1,28.76,West,270,5.6,5.6,40,0.00,,---,0.00,VWS V14.01,2013-04-01 22:56:00,
2013-04-01 19:57:00,32.7,11.1,28.76,NW,315,8.7,8.7,40,0.00,,---,0.00,VWS V14.01,2013-04-01 22:57:00,
2013-04-01 19:58:00,32.7,11.1,28.76,NW,315,6.5,8.7,40,0.00,,---,0.00,VWS V14.01,2013-04-01 22:58:00,
2013-04-01 19:59:00,32.7,11.1,28.76,NW,315,10.5,10.5,40,0.00,,---,0.00,VWS V14.01,2013-04-01 22:59:00,
2013-04-01 20:00:00,32.5,10.9,28.76,NW,315,8.1,10.5,40,0.00,,---,0.00,VWS V14.01,2013-04-01 23:00:00,
2013-04-01 20:01:00,32.5,10.9,28.76,NW,315,8.1,8.1,40,0.00,,---,0.00,VWS V14.01,2013-04-01 23:01:00,
2013-04-01 20:02:00,32.5,11.5,28.76,NW,315,11.0,11.0,41,0.00,,---,0.00,VWS V14.01,2013-04-01 23:02:00,
2013-04-01 20:03:00,32.5,11.5,28.76,NW,315,8.1,11.0,41,0.00,,---,0.00,VWS V14.01,2013-04-01 23:03:00,
2013-04-01 20:04:00,32.5,11.5,28.76,WNW,292,6.5,8.1,41,0.00,,---,0.00,VWS V14.01,2013-04-01 23:04:00,
2013-04-01 20:05:00,32.5,11.5,28.76,West,270,7.4,7.4,41,0.00,,---,0.00,VWS V14.01,2013-04-01 23:05:00,
2013-04-01 20:06:00,32.4,10.8,28.76,West,270,7.4,7.4,40,0.00,,---,0.00,VWS V14.01,2013-04-01 23:06:00,
2013-04-01 20:07:00,32.4,10.8,28.76,West,270,7.4,7.4,40,0.00,,---,0.00,VWS V14.01,2013-04-01 23:07:00,
2013-04-01 20:08:00,32.4,10.8,28.76,NW,315,6.3,7.4,40,0.00,,---,0.00,VWS V14.01,2013-04-01 23:08:00,
2013-04-01 20:09:00,32.4,10.8,28.76,NW,315,6.0,6.3,40,0.00,,---,0.00,VWS V14.01,2013-04-01 23:09:00,
2013-04-01 20:10:00,32.4,11.3,28.76,NNW,338,6.5,6.5,41,0.00,,---,0.00,VWS V14.01,2013-04-01 23:10:00,
2013-04-01 20:11:00,32.2,11.1,28.76,NW,315,8.5,8.5,41,0.00,,---,0.00,VWS V14.01,2013-04-01 23:11:00,
2013-04-01 20:12:00,32.4,11.3,28.76,NW,315,6.5,8.5,41,0.00,,---,0.00,VWS V14.01,2013-04-01 23:12:00,
2013-04-01 20:13:00,32.4,11.3,28.76,West,270,6.0,6.5,41,0.00,,---,0.00,VWS V14.01,2013-04-01 23:13:00,
2013-04-01 20:14:00,32.2,11.1,28.76,West,270,7.6,7.6,41,0.00,,---,0.00,VWS V14.01,2013-04-01 23:14:00,
2013-04-01 20:15:00,32.2,11.1,28.76,NW,315,6.5,7.6,41,0.00,,---,0.00,VWS V14.01,2013-04-01 23:15:00,
2013-04-01 20:16:00,32.4,11.3,28.76,West,270,3.1,6.5,41,0.00,,---,0.00,VWS V14.01,2013-04-01 23:16:00,
2013-04-01 20:17:00,32.4,11.3,28.76,NW,315,4.7,4.7,41,0.00,,---,0.00,VWS V14.01,2013-04-01 23:17:00,
2013-04-01 20:18:00,32.4,11.3,28.76,NW,315,5.6,5.6,41,0.00,,---,0.00,VWS V14.01,2013-04-01 23:18:00,
2013-04-01 20:19:00,32.4,10.8,28.76,WNW,292,7.4,7.4,40,0.00,,---,0.00,VWS V14.01,2013-04-01 23:19:00,
2013-04-01 20:20:00,32.5,11.5,28.76,WNW,292,6.0,7.4,41,0.00,,---,0.00,VWS V14.01,2013-04-01 23:20:00,
2013-04-01 20:21:00,32.5,11.5,28.76,WNW,292,6.0,6.0,41,0.00,,---,0.00,VWS V14.01,2013-04-01 23:21:00,
2013-04-01 20:22:00,32.5,11.5,28.76,WNW,292,4.7,6.0,41,0.00,,---,0.00,VWS V14.01,2013-04-01 23:22:00,
2013-04-01 20:23:00,32.5,11.5,28.76,West,270,7.4,7.4,41,0.00,,---,0.00,VWS V14.01,2013-04-01 23:23:00,
2013-04-01 20:24:00,32.5,11.5,28.76,NW,315,6.5,6.5,41,0.00,,---,0.00,VWS V14.01,2013-04-01 23:24:00,
2013-04-01 20:25:00,32.5,11.5,28.76,NW,315,6.0,6.5,41,0.00,,---,0.00,VWS V14.01,2013-04-01 23:25:00,
2013-04-01 20:26:00,32.5,11.5,28.76,NW,315,5.6,7.4,41,0.00,,---,0.00,VWS V14.01,2013-04-01 23:26:00,
2013-04-01 20:27:00,32.5,11.5,28.76,NW,315,5.6,5.6,41,0.00,,---,0.00,VWS V14.01,2013-04-01 23:27:00,
2013-04-01 20:28:00,32.5,11.5,28.76,NNW,338,8.1,8.1,41,0.00,,---,0.00,VWS V14.01,2013-04-01 23:28:00,
2013-04-01 20:29:00,32.4,11.3,28.76,WNW,292,12.3,12.3,41,0.00,,---,0.00,VWS V14.01,2013-04-01 23:29:00,
2013-04-01 20:30:00,32.5,11.5,28.76,West,270,6.3,12.3,41,0.00,,---,0.00,VWS V14.01,2013-04-01 23:30:00,
2013-04-01 20:31:00,32.5,11.5,28.76,NNW,338,8.1,8.1,41,0.00,,---,0.00,VWS V14.01,2013-04-01 23:31:00,
2013-04-01 20:32:00,32.5,11.5,28.76,NNW,338,8.1,8.1,41,0.00,,---,0.00,VWS V14.01,2013-04-01 23:32:00,
2013-04-01 20:33:00,32.4,11.9,28.76,NNW,338,8.1,8.1,42,0.00,,---,0.00,VWS V14.01,2013-04-01 23:33:00,
2013-04-01 20:34:00,32.4,11.3,28.76,NNW,338,8.1,8.1,41,0.00,,---,0.00,VWS V14.01,2013-04-01 23:34:00,
2013-04-01 20:35:00,32.4,11.3,28.76,NNW,338,8.1,8.1,41,0.00,,---,0.00,VWS V14.01,2013-04-01 23:35:00,
2013-04-01 20:36:00,32.4,11.9,28.76,NNW,338,8.1,8.1,42,0.00,,---,0.00,VWS V14.01,2013-04-01 23:36:00,
2013-04-01 20:37:00,32.4,11.9,28.76,NNW,338,8.1,8.1,42,0.00,,---,0.00,VWS V14.01,2013-04-01 23:37:00,
2013-04-01 20:38:00,31.8,10.8,28.76,NNW,338,8.1,8.1,41,0.00,,---,0.00,VWS V14.01,2013-04-01 23:38:00,
2013-04-01 20:39:00,32.2,11.1,28.76,NNW,338,8.1,8.1,41,0.00,,---,0.00,VWS V14.01,2013-04-01 23:39:00,
2013-04-01 20:40:00,31.8,10.8,28.76,NNW,338,8.1,8.1,41,0.00,,---,0.00,VWS V14.01,2013-04-01 23:40:00,
2013-04-01 20:41:00,31.8,10.8,28.76,NNW,338,8.1,8.1,41,0.00,,---,0.00,VWS V14.01,2013-04-01 23:41:00,
2013-04-01 20:42:00,31.8,10.8,28.76,NNW,338,8.1,8.1,41,0.00,,---,0.00,VWS V14.01,2013-04-01 23:42:00,
2013-04-01 20:43:00,31.6,11.2,28.76,NNW,338,8.1,8.1,42,0.00,,---,0.00,VWS V14.01,2013-04-01 23:43:00,
2013-04-01 20:44:00,31.6,10.6,28.76,NNW,338,8.1,8.1,41,0.00,,---,0.00,VWS V14.01,2013-04-01 23:44:00,
2013-04-01 20:45:00,31.6,11.2,28.76,NNW,338,8.1,8.1,42,0.00,,---,0.00,VWS V14.01,2013-04-01 23:45:00,
2013-04-01 20:46:00,31.6,11.2,28.76,WNW,292,8.5,8.5,42,0.00,,---,0.00,VWS V14.01,2013-04-01 23:46:00,
2013-04-01 20:47:00,31.5,11.0,28.76,NW,315,6.3,8.5,42,0.00,,---,0.00,VWS V14.01,2013-04-01 23:47:00,
2013-04-01 20:48:00,31.3,10.9,28.76,West,270,6.3,6.3,42,0.00,,---,0.00,VWS V14.01,2013-04-01 23:48:00,
2013-04-01 20:49:00,31.5,11.0,28.76,West,270,6.3,6.3,42,0.00,,---,0.00,VWS V14.01,2013-04-01 23:49:00,
2013-04-01 20:50:00,31.3,10.9,28.76,West,270,6.3,6.3,42,0.00,,---,0.00,VWS V14.01,2013-04-01 23:50:00,
2013-04-01 20:51:00,31.3,10.9,28.76,West,270,6.3,6.3,42,0.00,,---,0.00,VWS V14.01,2013-04-01 23:51:00,
2013-04-01 20:52:00,31.1,10.7,28.76,West,270,6.3,6.3,42,0.00,,---,0.00,VWS V14.01,2013-04-01 23:52:00,
2013-04-01 20:53:00,31.1,10.7,28.76,South,180,6.5,6.5,42,0.00,,---,0.00,VWS V14.01,2013-04-01 23:53:00,
2013-04-01 20:54:00,31.1,10.7,28.76,South,180,6.5,6.5,42,0.00,,---,0.00,VWS V14.01,2013-04-01 23:54:00,
2013-04-01 20:55:00,31.1,10.7,28.76,South,180,6.5,6.5,42,0.00,,---,0.00,VWS V14.01,2013-04-01 23:55:00,
2013-04-01 20:56:00,31.1,10.7,28.76,South,180,6.5,6.5,42,0.00,,---,0.00,VWS V14.01,2013-04-01 23:56:00,
2013-04-01 20:57:00,31.1,10.7,28.76,South,180,6.5,6.5,42,0.00,,---,0.00,VWS V14.01,2013-04-01 23:57:00,
2013-04-01 20:58:00,31.1,10.7,28.76,SW,225,5.4,6.9,42,0.00,,---,0.00,VWS V14.01,2013-04-01 23:58:00,
2013-04-01 20:59:00,30.9,10.0,28.76,South,180,6.5,6.5,41,0.00,,---,0.00,VWS V14.01,2013-04-01 23:59:00,
2013-04-01 21:00:00,31.1,10.7,28.76,NW,315,6.9,6.9,42,0.00,,---,0.00,VWS V14.01,2013-04-02 00:00:00,
2013-04-01 21:01:00,31.1,10.7,28.76,SW,225,5.4,6.9,42,0.00,,---,0.00,VWS V14.01,2013-04-02 00:01:00,
2013-04-01 21:02:00,30.9,10.5,28.76,SW,225,5.4,5.4,42,0.00,,---,0.00,VWS V14.01,2013-04-02 00:02:00,
2013-04-01 21:03:00,30.7,10.4,28.76,NW,315,4.9,4.9,42,0.00,,---,0.00,VWS V14.01,2013-04-02 00:03:00,
2013-04-01 21:04:00,30.9,10.5,28.76,NW,315,4.9,5.8,42,0.00,,---,0.00,VWS V14.01,2013-04-02 00:04:00,
2013-04-01 21:05:00,30.7,10.4,28.76,NW,315,4.9,4.9,42,0.00,,---,0.00,VWS V14.01,2013-04-02 00:05:00,
2013-04-01 21:06:00,30.7,10.4,28.76,NW,315,9.8,9.8,42,0.00,,---,0.00,VWS V14.01,2013-04-02 00:06:00,
2013-04-01 21:07:00,30.7,10.4,28.76,WSW,248,6.3,9.8,42,0.00,,---,0.00,VWS V14.01,2013-04-02 00:07:00,
2013-04-01 21:08:00,30.7,10.4,28.76,West,270,7.2,7.2,42,0.00,,---,0.00,VWS V14.01,2013-04-02 00:08:00,
2013-04-01 21:09:00,30.7,10.4,28.76,West,270,5.6,5.6,42,0.00,,---,0.00,VWS V14.01,2013-04-02 00:09:00,
2013-04-01 21:10:00,30.7,10.4,28.76,West,270,5.6,5.6,42,0.00,,---,0.00,VWS V14.01,2013-04-02 00:10:00,
2013-04-01 21:11:00,30.6,10.2,28.76,West,270,7.2,7.2,42,0.00,,---,0.00,VWS V14.01,2013-04-02 00:11:00,
2013-04-01 21:12:00,30.6,10.2,28.76,West,270,7.2,7.2,42,0.00,,---,0.00,VWS V14.01,2013-04-02 00:12:00,
2013-04-01 21:13:00,30.6,10.2,28.76,West,270,7.2,7.2,42,0.00,,---,0.00,VWS V14.01,2013-04-02 00:13:00,
2013-04-01 21:14:00,30.6,10.2,28.76,WNW,292,5.4,5.4,42,0.00,,---,0.00,VWS V14.01,2013-04-02 00:14:00,
2013-04-01 21:15:00,30.6,10.2,28.76,West,270,3.1,5.6,42,0.00,,---,0.00,VWS V14.01,2013-04-02 00:15:00,
2013-04-01 21:16:00,30.6,10.2,28.76,WNW,292,5.4,5.4,42,0.00,,---,0.00,VWS V14.01,2013-04-02 00:16:00,
2013-04-01 21:17:00,30.6,10.2,28.76,West,270,3.1,5.4,42,0.00,,---,0.00,VWS V14.01,2013-04-02 00:17:00,
2013-04-01 21:18:00,30.4,10.1,28.76,NW,315,7.2,7.2,42,0.00,,---,0.00,VWS V14.01,2013-04-02 00:18:00,
2013-04-01 21:19:00,30.6,10.2,28.76,WNW,292,4.3,8.1,42,0.00,,---,0.00,VWS V14.01,2013-04-02 00:19:00,
2013-04-01 21:20:00,30.6,10.2,28.76,West,270,8.1,8.1,42,0.00,,---,0.00,VWS V14.01,2013-04-02 00:20:00,
2013-04-01 21:21:00,30.6,10.2,28.76,SW,225,6.0,8.1,42,0.00,,---,0.00,VWS V14.01,2013-04-02 00:21:00,
2013-04-01 21:22:00,30.4,10.1,28.76,West,270,3.8,6.0,42,0.00,,---,0.00,VWS V14.01,2013-04-02 00:22:00,
2013-04-01 21:23:00,30.6,10.7,28.76,NW,315,3.6,3.8,43,0.00,,---,0.00,VWS V14.01,2013-04-02 00:23:00,
2013-04-01 21:24:00,30.2,10.4,28.76,SW,225,3.1,4.9,43,0.00,,---,0.00,VWS V14.01,2013-04-02 00:24:00,
2013-04-01 21:25:00,30.2,10.4,28.76,NW,315,2.2,5.6,43,0.00,,---,0.00,VWS V14.01,2013-04-02 00:25:00,
2013-04-01 21:26:00,30.2,10.4,28.76,SW,225,3.1,4.9,43,0.00,,---,0.00,VWS V14.01,2013-04-02 00:26:00,
2013-04-01 21:27:00,30.2,10.4,28.76,NW,315,1.6,3.1,43,0.00,,---,0.00,VWS V14.01,2013-04-02 00:27:00,
2013-04-01 21:28:00,30.2,10.4,28.76,SW,225,3.8,4.0,43,0.00,,---,0.00,VWS V14.01,2013-04-02 00:28:00,
2013-04-01 21:29:00,30.2,10.4,28.76,West,270,5.6,5.6,43,0.00,,---,0.00,VWS V14.01,2013-04-02 00:29:00,
2013-04-01 21:30:00,30.2,10.4,28.76,NW,315,3.1,5.6,43,0.00,,---,0.00,VWS V14.01,2013-04-02 00:30:00,
2013-04-01 21:31:00,30.2,10.4,28.76,West,270,2.9,4.0,43,0.00,,---,0.00,VWS V14.01,2013-04-02 00:31:00,
2013-04-01 21:32:00,30.0,10.2,28.76,NW,315,6.0,6.0,43,0.00,,---,0.00,VWS V14.01,2013-04-02 00:32:00,
2013-04-01 21:33:00,30.0,10.2,28.76,WNW,292,5.6,6.0,43,0.00,,---,0.00,VWS V14.01,2013-04-02 00:33:00,
2013-04-01 21:34:00,30.0,10.2,28.76,West,270,2.5,2.5,43,0.00,,---,0.00,VWS V14.01,2013-04-02 00:34:00,
2013-04-01 21:35:00,30.2,10.4,28.76,West,270,2.5,4.5,43,0.00,,---,0.00,VWS V14.01,2013-04-02 00:35:00,
2013-04-01 21:36:00,30.0,10.2,28.76,West,270,2.5,2.5,43,0.00,,---,0.00,VWS V14.01,2013-04-02 00:36:00,
2013-04-01 21:37:00,29.8,10.1,28.76,WNW,292,4.0,4.7,43,0.00,,---,0.00,VWS V14.01,2013-04-02 00:37:00,
2013-04-01 21:38:00,29.8,10.1,28.76,West,270,2.9,4.0,43,0.00,,---,0.00,VWS V14.01,2013-04-02 00:38:00,
2013-04-01 21:39:00,30.0,10.2,28.76,NW,315,10.3,10.3,43,0.00,,---,0.00,VWS V14.01,2013-04-02 00:39:00,
2013-04-01 21:40:00,30.0,10.2,28.76,West,270,2.9,2.9,43,0.00,,---,0.00,VWS V14.01,2013-04-02 00:40:00,
2013-04-01 21:41:00,30.2,10.4,28.76,NW,315,7.4,10.3,43,0.00,,---,0.00,VWS V14.01,2013-04-02 00:41:00,
2013-04-01 21:42:00,30.2,10.4,28.76,West,270,5.8,7.4,43,0.00,,---,0.00,VWS V14.01,2013-04-02 00:42:00,
2013-04-01 21:43:00,30.2,10.4,28.76,West,270,5.4,6.0,43,0.00,,---,0.00,VWS V14.01,2013-04-02 00:43:00,
2013-04-01 21:44:00,30.2,10.4,28.76,West,270,5.8,5.8,43,0.00,,---,0.00,VWS V14.01,2013-04-02 00:44:00,
2013-04-01 21:45:00,30.2,10.4,28.76,NW,315,4.0,5.8,43,0.00,,---,0.00,VWS V14.01,2013-04-02 00:45:00,
2013-04-01 21:46:00,30.2,10.4,28.76,West,270,5.4,6.0,43,0.00,,---,0.00,VWS V14.01,2013-04-02 00:46:00,
2013-04-01 21:47:00,30.2,10.9,28.76,WNW,292,3.1,5.4,44,0.00,,---,0.00,VWS V14.01,2013-04-02 00:47:00,
2013-04-01 21:48:00,30.0,10.8,28.76,West,270,1.6,3.1,44,0.00,,---,0.00,VWS V14.01,2013-04-02 00:48:00,
2013-04-01 21:49:00,30.0,10.2,28.76,West,270,3.8,3.8,43,0.00,,---,0.00,VWS V14.01,2013-04-02 00:49:00,
2013-04-01 21:50:00,30.0,10.2,28.76,NW,315,2.9,3.4,43,0.00,,---,0.00,VWS V14.01,2013-04-02 00:50:00,
2013-04-01 21:51:00,30.0,10.2,28.76,West,270,3.8,3.8,43,0.00,,---,0.00,VWS V14.01,2013-04-02 00:51:00,
2013-04-01 21:52:00,30.0,10.2,28.76,SW,225,5.8,8.7,43,0.00,,---,0.00,VWS V14.01,2013-04-02 00:52:00,
2013-04-01 21:53:00,30.0,10.2,28.76,NW,315,5.8,5.8,43,0.00,,---,0.00,VWS V14.01,2013-04-02 00:53:00,
2013-04-01 21:54:00,30.0,10.2,28.79,WNW,292,5.6,5.6,43,0.00,,---,0.00,VWS V14.01,2013-04-02 00:54:00,
2013-04-01 21:55:00,30.0,10.2,28.79,WNW,292,5.6,5.6,43,0.00,,---,0.00,VWS V14.01,2013-04-02 00:55:00,
2013-04-01 21:56:00,30.0,10.2,28.79,WNW,292,5.6,5.6,43,0.00,,---,0.00,VWS V14.01,2013-04-02 00:56:00,
2013-04-01 21:57:00,30.0,10.2,28.79,West,270,6.5,6.5,43,0.00,,---,0.00,VWS V14.01,2013-04-02 00:57:00,
2013-04-01 21:58:00,30.0,10.2,28.79,WNW,292,4.7,6.5,43,0.00,,---,0.00,VWS V14.01,2013-04-02 00:58:00,
2013-04-01 21:59:00,30.0,9.7,28.79,SW,225,10.3,10.3,42,0.00,,---,0.00,VWS V14.01,2013-04-02 00:59:00,
2013-04-01 22:00:00,30.0,10.2,28.79,West,270,3.1,3.1,43,0.00,,---,0.00,VWS V14.01,2013-04-02 01:00:00,
2013-04-01 22:01:00,30.0,9.7,28.79,SW,225,10.3,10.3,42,0.00,,---,0.00,VWS V14.01,2013-04-02 01:01:00,
2013-04-01 22:02:00,30.2,9.9,28.79,West,270,7.6,10.3,42,0.00,,---,0.00,VWS V14.01,2013-04-02 01:02:00,
2013-04-01 22:03:00,30.2,9.9,28.79,West,270,7.6,7.6,42,0.00,,---,0.00,VWS V14.01,2013-04-02 01:03:00,
2013-04-01 22:04:00,30.2,9.9,28.79,West,270,7.6,7.6,42,0.00,,---,0.00,VWS V14.01,2013-04-02 01:04:00,
2013-04-01 22:05:00,30.2,10.4,28.79,West,270,7.6,7.6,43,0.00,,---,0.00,VWS V14.01,2013-04-02 01:05:00,
2013-04-01 22:06:00,30.2,9.9,28.79,West,270,7.6,7.6,42,0.00,,---,0.00,VWS V14.01,2013-04-02 01:06:00,
2013-04-01 22:07:00,30.2,9.9,28.79,WNW,292,7.6,7.6,42,0.00,,---,0.00,VWS V14.01,2013-04-02 01:07:00,
2013-04-01 22:08:00,30.2,9.9,28.79,West,270,6.0,7.6,42,0.00,,---,0.00,VWS V14.01,2013-04-02 01:08:00,
2013-04-01 22:09:00,30.0,10.2,28.79,West,270,5.4,5.4,43,0.00,,---,0.00,VWS V14.01,2013-04-02 01:09:00,
2013-04-01 22:10:00,30.0,10.2,28.79,NW,315,4.9,4.9,43,0.00,,---,0.00,VWS V14.01,2013-04-02 01:10:00,
2013-04-01 22:11:00,30.0,10.2,28.79,West,270,5.4,5.4,43,0.00,,---,0.00,VWS V14.01,2013-04-02 01:11:00,
2013-04-01 22:12:00,30.0,10.2,28.79,NW,315,3.4,5.4,43,0.00,,---,0.00,VWS V14.01,2013-04-02 01:12:00,
2013-04-01 22:13:00,30.0,10.2,28.79,SW,225,6.5,6.5,43,0.00,,---,0.00,VWS V14.01,2013-04-02 01:13:00,
2013-04-01 22:14:00,30.0,9.7,28.79,West,270,4.7,4.7,42,0.00,,---,0.00,VWS V14.01,2013-04-02 01:14:00,
2013-04-01 22:15:00,30.0,10.2,28.79,West,270,4.7,4.9,43,0.00,,---,0.00,VWS V14.01,2013-04-02 01:15:00,
2013-04-01 22:16:00,30.0,9.7,28.79,West,270,4.7,4.7,42,0.00,,---,0.00,VWS V14.01,2013-04-02 01:16:00,
2013-04-01 22:17:00,30.0,10.2,28.79,West,270,3.8,4.9,43,0.00,,---,0.00,VWS V14.01,2013-04-02 01:17:00,
2013-04-01 22:18:00,30.0,10.2,28.79,WNW,292,3.4,3.8,43,0.00,,---,0.00,VWS V14.01,2013-04-02 01:18:00,
2013-04-01 22:19:00,29.8,10.1,28.79,West,270,4.7,4.7,43,0.00,,---,0.00,VWS V14.01,2013-04-02 01:19:00,
2013-04-01 22:20:00,30.0,10.2,28.79,WNW,292,3.6,8.1,43,0.00,,---,0.00,VWS V14.01,2013-04-02 01:20:00,
2013-04-01 22:21:00,29.8,10.1,28.79,West,270,4.7,4.7,43,0.00,,---,0.00,VWS V14.01,2013-04-02 01:21:00,
2013-04-01 22:22:00,30.0,10.2,28.79,NW,315,3.4,4.7,43,0.00,,---,0.00,VWS V14.01,2013-04-02 01:22:00,
2013-04-01 22:23:00,29.8,10.1,28.79,NW,315,2.5,4.9,43,0.00,,---,0.00,VWS V14.01,2013-04-02 01:23:00,
2013-04-01 22:24:00,29.8,10.1,28.79,NW,315,4.0,4.0,43,0.00,,---,0.00,VWS V14.01,2013-04-02 01:24:00,
2013-04-01 22:25:00,30.0,10.2,28.79,NW,315,4.0,4.0,43,0.00,,---,0.00,VWS V14.01,2013-04-02 01:25:00,
2013-04-01 22:26:00,29.8,10.1,28.79,NW,315,4.0,4.0,43,0.00,,---,0.00,VWS V14.01,2013-04-02 01:26:00,
2013-04-01 22:27:00,29.8,10.1,28.79,NW,315,4.0,4.0,43,0.00,,---,0.00,VWS V14.01,2013-04-02 01:27:00,
2013-04-01 22:28:00,30.0,10.2,28.79,NNW,338,7.6,7.6,43,0.00,,---,0.00,VWS V14.01,2013-04-02 01:28:00,
2013-04-01 22:29:00,30.0,10.2,28.79,WNW,292,5.6,5.6,43,0.00,,---,0.00,VWS V14.01,2013-04-02 01:29:00,
2013-04-01 22:30:00,30.0,10.2,28.79,WNW,292,5.6,10.3,43,0.00,,---,0.00,VWS V14.01,2013-04-02 01:30:00,
2013-04-01 22:31:00,30.0,10.2,28.79,WNW,292,5.6,5.6,43,0.00,,---,0.00,VWS V14.01,2013-04-02 01:31:00,
2013-04-01 22:32:00,30.0,10.2,28.79,West,270,7.4,7.4,43,0.00,,---,0.00,VWS V14.01,2013-04-02 01:32:00,
2013-04-01 22:33:00,30.0,10.2,28.79,WNW,292,4.9,7.4,43,0.00,,---,0.00,VWS V14.01,2013-04-02 01:33:00,
2013-04-01 22:34:00,30.0,10.2,28.79,NW,315,5.4,6.3,43,0.00,,---,0.00,VWS V14.01,2013-04-02 01:34:00,
2013-04-01 22:35:00,30.0,10.2,28.79,NW,315,4.9,4.9,43,0.00,,---,0.00,VWS V14.01,2013-04-02 01:35:00,
2013-04-01 22:36:00,30.0,10.2,28.79,NW,315,5.4,6.3,43,0.00,,---,0.00,VWS V14.01,2013-04-02 01:36:00,
2013-04-01 22:37:00,30.0,10.2,28.79,NW,315,8.5,8.5,43,0.00,,---,0.00,VWS V14.01,2013-04-02 01:37:00,
2013-04-01 22:38:00,30.0,10.2,28.79,WNW,292,7.4,8.5,43,0.00,,---,0.00,VWS V14.01,2013-04-02 01:38:00,
2013-04-01 22:39:00,30.0,10.2,28.79,NW,315,3.6,5.4,43,0.00,,---,0.00,VWS V14.01,2013-04-02 01:39:00,
2013-04-01 22:40:00,30.0,10.2,28.79,NW,315,5.4,7.4,43,0.00,,---,0.00,VWS V14.01,2013-04-02 01:40:00,
2013-04-01 22:41:00,30.0,10.2,28.79,NW,315,3.6,5.4,43,0.00,,---,0.00,VWS V14.01,2013-04-02 01:41:00,
2013-04-01 22:42:00,29.7,9.9,28.79,NW,315,2.7,3.6,43,0.00,,---,0.00,VWS V14.01,2013-04-02 01:42:00,
2013-04-01 22:43:00,29.7,10.4,28.79,NW,315,3.8,3.8,44,0.00,,---,0.00,VWS V14.01,2013-04-02 01:43:00,
2013-04-01 22:44:00,29.7,10.4,28.79,NW,315,3.6,6.5,44,0.00,,---,0.00,VWS V14.01,2013-04-02 01:44:00,
2013-04-01 22:45:00,29.7,9.9,28.79,NW,315,6.5,7.2,43,0.00,,---,0.00,VWS V14.01,2013-04-02 01:45:00,
2013-04-01 22:46:00,29.7,10.4,28.79,NW,315,3.6,6.5,44,0.00,,---,0.00,VWS V14.01,2013-04-02 01:46:00,
2013-04-01 22:47:00,29.7,9.9,28.79,West,270,5.6,5.6,43,0.00,,---,0.00,VWS V14.01,2013-04-02 01:47:00,
2013-04-01 22:48:00,29.7,10.4,28.79,North,0,5.4,8.7,44,0.00,,---,0.00,VWS V14.01,2013-04-02 01:48:00,
2013-04-01 22:49:00,29.7,9.9,28.79,NW,315,3.6,6.0,43,0.00,,---,0.00,VWS V14.01,2013-04-02 01:49:00,
2013-04-01 22:50:00,29.7,9.9,28.79,NW,315,3.6,5.8,43,0.00,,---,0.00,VWS V14.01,2013-04-02 01:50:00,
2013-04-01 22:51:00,29.7,9.9,28.79,NW,315,3.6,6.0,43,0.00,,---,0.00,VWS V14.01,2013-04-02 01:51:00,
2013-04-01 22:52:00,29.7,9.9,28.79,NNW,338,4.3,4.3,43,0.00,,---,0.00,VWS V14.01,2013-04-02 01:52:00,
2013-04-01 22:53:00,29.7,9.9,28.79,NW,315,3.1,4.3,43,0.00,,---,0.00,VWS V14.01,2013-04-02 01:53:00,
2013-04-01 22:54:00,29.5,10.3,28.79,NW,315,3.8,4.9,44,0.00,,---,0.00,VWS V14.01,2013-04-02 01:54:00,
2013-04-01 22:55:00,29.5,10.3,28.79,NW,315,4.9,4.9,44,0.00,,---,0.00,VWS V14.01,2013-04-02 01:55:00,
2013-04-01 22:56:00,29.5,10.3,28.79,NW,315,3.8,4.9,44,0.00,,---,0.00,VWS V14.01,2013-04-02 01:56:00,
2013-04-01 22:57:00,29.5,10.3,28.79,NW,315,3.1,4.0,44,0.00,,---,0.00,VWS V14.01,2013-04-02 01:57:00,
2013-04-01 22:58:00,29.5,10.3,28.79,NW,315,3.1,3.4,44,0.00,,---,0.00,VWS V14.01,2013-04-02 01:58:00,
2013-04-01 22:59:00,29.5,10.3,28.79,WNW,292,4.0,4.0,44,0.00,,---,0.00,VWS V14.01,2013-04-02 01:59:00,
2013-04-01 23:00:00,29.5,10.3,28.79,NW,315,3.6,3.6,44,0.00,,---,0.00,VWS V14.01,2013-04-02 02:00:00,
2013-04-01 23:01:00,29.5,10.3,28.79,WNW,292,4.0,4.0,44,0.00,,---,0.00,VWS V14.01,2013-04-02 02:01:00,
2013-04-01 23:02:00,29.5,10.3,28.79,NW,315,5.6,5.6,44,0.00,,---,0.00,VWS V14.01,2013-04-02 02:02:00,
2013-04-01 23:03:00,29.5,10.3,28.79,NW,315,3.1,5.6,44,0.00,,---,0.00,VWS V14.01,2013-04-02 02:03:00,
2013-04-01 23:04:00,29.3,10.6,28.79,NW,315,3.1,3.1,45,0.00,,---,0.00,VWS V14.01,2013-04-02 02:04:00,
2013-04-01 23:05:00,29.3,10.1,28.79,NW,315,3.1,3.1,44,0.00,,---,0.00,VWS V14.01,2013-04-02 02:05:00,
2013-04-01 23:06:00,29.3,10.6,28.79,NW,315,3.1,3.1,45,0.00,,---,0.00,VWS V14.01,2013-04-02 02:06:00,
2013-04-01 23:07:00,29.3,10.6,28.79,North,0,3.6,3.6,45,0.00,,---,0.00,VWS V14.01,2013-04-02 02:07:00,
2013-04-01 23:08:00,29.3,10.6,28.79,NW,315,2.5,3.6,45,0.00,,---,0.00,VWS V14.01,2013-04-02 02:08:00,
2013-04-01 23:09:00,29.1,10.4,28.79,NNW,338,4.9,4.9,45,0.00,,---,0.00,VWS V14.01,2013-04-02 02:09:00,
2013-04-01 23:10:00,29.1,9.9,28.79,NW,315,3.8,4.5,44,0.00,,---,0.00,VWS V14.01,2013-04-02 02:10:00,
2013-04-01 23:11:00,29.1,9.9,28.79,NNW,338,4.9,4.9,44,0.00,,---,0.00,VWS V14.01,2013-04-02 02:11:00,
2013-04-01 23:12:00,29.3,10.1,28.79,NW,315,3.8,4.9,44,0.00,,---,0.00,VWS V14.01,2013-04-02 02:12:00,
2013-04-01 23:13:00,29.3,10.1,28.79,NNW,338,2.7,3.8,44,0.00,,---,0.00,VWS V14.01,2013-04-02 02:13:00,
2013-04-01 23:14:00,29.1,10.4,28.79,NNW,338,2.9,2.9,45,0.00,,---,0.00,VWS V14.01,2013-04-02 02:14:00,
2013-04-01 23:15:00,29.1,9.9,28.79,NW,315,2.9,2.9,44,0.00,,---,0.00,VWS V14.01,2013-04-02 02:15:00,
2013-04-01 23:16:00,29.1,10.4,28.79,NNW,338,2.9,2.9,45,0.00,,---,0.00,VWS V14.01,2013-04-02 02:16:00,
2013-04-01 23:17:00,29.1,10.4,28.79,NW,315,3.4,3.4,45,0.00,,---,0.00,VWS V14.01,2013-04-02 02:17:00,
2013-04-01 23:18:00,29.1,10.4,28.79,NW,315,3.4,3.4,45,0.00,,---,0.00,VWS V14.01,2013-04-02 02:18:00,
2013-04-01 23:19:00,29.1,10.9,28.79,NW,315,3.4,3.4,46,0.00,,---,0.00,VWS V14.01,2013-04-02 02:19:00,
2013-04-01 23:20:00,28.9,10.3,28.79,NW,315,3.4,3.4,45,0.00,,---,0.00,VWS V14.01,2013-04-02 02:20:00,
2013-04-01 23:21:00,29.1,10.9,28.79,NW,315,3.4,3.4,46,0.00,,---,0.00,VWS V14.01,2013-04-02 02:21:00,
2013-04-01 23:22:00,29.1,10.9,28.79,NW,315,3.4,3.4,46,0.00,,---,0.00,VWS V14.01,2013-04-02 02:22:00,
2013-04-01 23:23:00,29.1,10.9,28.79,NW,315,3.4,3.4,46,0.00,,---,0.00,VWS V14.01,2013-04-02 02:23:00,
2013-04-01 23:24:00,29.1,10.9,28.79,NW,315,3.4,3.4,46,0.00,,---,0.00,VWS V14.01,2013-04-02 02:24:00,
2013-04-01 23:25:00,29.1,10.9,28.79,NW,315,3.4,3.4,46,0.00,,---,0.00,VWS V14.01,2013-04-02 02:25:00,
2013-04-01 23:26:00,29.1,10.9,28.79,NW,315,3.4,3.4,46,0.00,,---,0.00,VWS V14.01,2013-04-02 02:26:00,
2013-04-01 23:27:00,28.9,11.7,28.79,NW,315,3.4,3.4,48,0.00,,---,0.00,VWS V14.01,2013-04-02 02:27:00,
2013-04-01 23:28:00,28.9,11.7,28.79,NW,315,3.4,3.4,48,0.00,,---,0.00,VWS V14.01,2013-04-02 02:28:00,
2013-04-01 23:29:00,28.9,12.6,28.79,NW,315,3.4,3.4,50,0.00,,---,0.00,VWS V14.01,2013-04-02 02:29:00,
2013-04-01 23:30:00,28.9,11.7,28.79,NW,315,3.4,3.4,48,0.00,,---,0.00,VWS V14.01,2013-04-02 02:30:00,
2013-04-01 23:31:00,28.9,12.6,28.79,NW,315,3.4,3.4,50,0.00,,---,0.00,VWS V14.01,2013-04-02 02:31:00,
2013-04-01 23:32:00,28.9,13.1,28.79,NW,315,3.4,3.4,51,0.00,,---,0.00,VWS V14.01,2013-04-02 02:32:00,
2013-04-01 23:33:00,28.9,13.1,28.79,NW,315,3.4,3.4,51,0.00,,---,0.00,VWS V14.01,2013-04-02 02:33:00,
2013-04-01 23:34:00,28.9,14.8,28.79,NW,315,3.4,3.4,55,0.00,,---,0.00,VWS V14.01,2013-04-02 02:34:00,
2013-04-01 23:35:00,28.9,14.0,28.79,NW,315,3.4,3.4,53,0.00,,---,0.00,VWS V14.01,2013-04-02 02:35:00,
2013-04-01 23:36:00,28.9,14.8,28.79,NW,315,3.4,3.4,55,0.00,,---,0.00,VWS V14.01,2013-04-02 02:36:00,
2013-04-01 23:37:00,29.1,15.0,28.79,NW,315,3.4,3.4,55,0.00,,---,0.00,VWS V14.01,2013-04-02 02:37:00,
2013-04-01 23:38:00,28.9,15.2,28.79,NW,315,3.4,3.4,56,0.00,,---,0.00,VWS V14.01,2013-04-02 02:38:00,
2013-04-01 23:39:00,28.8,15.9,28.79,NW,315,3.4,3.4,58,0.00,,---,0.00,VWS V14.01,2013-04-02 02:39:00,
2013-04-01 23:40:00,28.8,15.5,28.79,NW,315,3.4,3.4,57,0.00,,---,0.00,VWS V14.01,2013-04-02 02:40:00,
2013-04-01 23:41:00,28.8,16.2,28.79,NW,315,3.4,3.4,59,0.00,,---,0.00,VWS V14.01,2013-04-02 02:41:00,
2013-04-01 23:42:00,28.8,16.2,28.79,NW,315,3.4,3.4,59,0.00,,---,0.00,VWS V14.01,2013-04-02 02:42:00,
2013-04-01 23:43:00,28.8,16.6,28.79,NW,315,3.4,3.4,60,0.00,,---,0.00,VWS V14.01,2013-04-02 02:43:00,
2013-04-01 23:44:00,28.6,17.6,28.79,NW,315,3.4,3.4,63,0.00,,---,0.00,VWS V14.01,2013-04-02 02:44:00,
2013-04-01 23:45:00,28.6,16.9,28.79,NW,315,3.4,3.4,61,0.00,,---,0.00,VWS V14.01,2013-04-02 02:45:00,
2013-04-01 23:46:00,28.6,17.6,28.79,NW,315,3.4,3.4,63,0.00,,---,0.00,VWS V14.01,2013-04-02 02:46:00,
2013-04-01 23:47:00,28.6,17.2,28.79,NW,315,3.4,3.4,62,0.00,,---,0.00,VWS V14.01,2013-04-02 02:47:00,
2013-04-01 23:48:00,28.6,18.0,28.79,NW,315,3.4,3.4,64,0.00,,---,0.00,VWS V14.01,2013-04-02 02:48:00,
2013-04-01 23:49:00,28.2,18.0,28.79,NW,315,3.4,3.4,65,0.00,,---,0.00,VWS V14.01,2013-04-02 02:49:00,
2013-04-01 23:50:00,28.2,17.6,28.79,NW,315,3.4,3.4,64,0.00,,---,0.00,VWS V14.01,2013-04-02 02:50:00,
2013-04-01 23:51:00,28.2,18.0,28.79,NW,315,3.4,3.4,65,0.00,,---,0.00,VWS V14.01,2013-04-02 02:51:00,
2013-04-01 23:52:00,28.0,18.5,28.79,NW,315,3.4,3.4,67,0.00,,---,0.00,VWS V14.01,2013-04-02 02:52:00,
2013-04-01 23:53:00,28.0,18.5,28.79,NW,315,3.4,3.4,67,0.00,,---,0.00,VWS V14.01,2013-04-02 02:53:00,
2013-04-01 23:54:00,27.9,19.7,28.79,NW,315,3.4,3.4,71,0.00,,---,0.00,VWS V14.01,2013-04-02 02:54:00,
2013-04-01 23:55:00,27.9,19.0,28.79,NW,315,3.4,3.4,69,0.00,,---,0.00,VWS V14.01,2013-04-02 02:55:00,
2013-04-01 23:56:00,27.9,20.0,28.79,NW,315,3.4,3.4,72,0.00,,---,0.00,VWS V14.01,2013-04-02 02:56:00,
2013-04-01 23:57:00,27.7,20.2,28.79,NW,315,3.4,3.4,73,0.00,,---,0.00,VWS V14.01,2013-04-02 02:57:00,
2013-04-01 23:58:00,27.7,20.2,28.79,NW,315,3.4,3.4,73,0.00,,---,0.00,VWS V14.01,2013-04-02 02:58:00,
2013-04-01 23:59:00,27.5,20.6,28.79,WNW,292,3.4,3.4,75,0.00,,---,0.00,VWS V14.01,2013-04-02 02:59:00,